PWSweather.com
Personal Weather Stations
Station Observations
JAMES
NorthumberlandGB

NorthumberlandGB

Lat: 55.5507124, Lon: -2.0172811

Elevation: 362

Station Type:

High Low Average
Temperature 46.8°F8.2°C 43.5°F6.4°C 45.5°F7.5°C
Dew Point 35.8°F2.1°C 32.5°F0.3°C 34.3°F1.3°C
Winds 19.7 mph 31.7 kmh 3.8 mph 6.1 kmh 10.0 mph SSW16.1 kmh SSW
Wind Gusts 32.7 mph52.6 kmh 15.9 mph25.6 kmh 24.0 mph38.6 kmh
Humidity 70% 60% 65%
Pressure 30.61 in1036.6 mb 30.45 in1031.2 mb -
Precipitation 0.00 in0.0 mm - -
Hour Temp Dew Point Humidity Winds Wind Gusts Pressure Precip Precip Rate Daily Precip Total
08:50 AM 43.5°F6.4°C 32.5°F0.3°C 65% 6.0 mph WNW9.7 kmh WNW 17.4 mph28.0 kmh 30.45 in1031.2 mb 0.00 in0.0 mm 0.00 in/hr0.0 mm/hr 0.00 in0.0 mm
08:51 AM 43.5°F6.4°C 32.5°F0.3°C 65% 13.6 mph N21.9 kmh N 20.6 mph33.2 kmh 30.45 in1031.2 mb 0.00 in0.0 mm 0.00 in/hr0.0 mm/hr 0.00 in0.0 mm
08:52 AM 43.5°F6.4°C 32.9°F0.5°C 66% 10.7 mph SW17.2 kmh SW 20.6 mph33.2 kmh 30.46 in1031.5 mb 0.00 in0.0 mm 0.00 in/hr0.0 mm/hr 0.00 in0.0 mm
08:53 AM 43.5°F6.4°C 32.9°F0.5°C 66% 10.7 mph SSW17.2 kmh SSW 20.6 mph33.2 kmh 30.46 in1031.5 mb 0.00 in0.0 mm 0.00 in/hr0.0 mm/hr 0.00 in0.0 mm
08:54 AM 43.5°F6.4°C 32.9°F0.5°C 66% 9.2 mph SSW14.8 kmh SSW 20.6 mph33.2 kmh 30.46 in1031.5 mb 0.00 in0.0 mm 0.00 in/hr0.0 mm/hr 0.00 in0.0 mm
08:55 AM 43.5°F6.4°C 32.9°F0.5°C 66% 10.7 mph SSW17.2 kmh SSW 20.6 mph33.2 kmh 30.45 in1031.2 mb 0.00 in0.0 mm 0.00 in/hr0.0 mm/hr 0.00 in0.0 mm
08:56 AM 43.5°F6.4°C 33.3°F0.7°C 67% 7.6 mph SSW12.2 kmh SSW 20.6 mph33.2 kmh 30.46 in1031.5 mb 0.00 in0.0 mm 0.00 in/hr0.0 mm/hr 0.00 in0.0 mm
08:57 AM 43.5°F6.4°C 33.3°F0.7°C 67% 13.6 mph SSW21.9 kmh SSW 20.6 mph33.2 kmh 30.46 in1031.5 mb 0.00 in0.0 mm 0.00 in/hr0.0 mm/hr 0.00 in0.0 mm
08:58 AM 43.5°F6.4°C 33.3°F0.7°C 67% 6.9 mph SW11.1 kmh SW 20.6 mph33.2 kmh 30.46 in1031.5 mb 0.00 in0.0 mm 0.00 in/hr0.0 mm/hr 0.00 in0.0 mm
08:59 AM 43.5°F6.4°C 33.3°F0.7°C 67% 12.1 mph SSW19.5 kmh SSW 24.4 mph39.3 kmh 30.46 in1031.5 mb 0.00 in0.0 mm 0.00 in/hr0.0 mm/hr 0.00 in0.0 mm
09:00 AM 43.5°F6.4°C 33.3°F0.7°C 67% 10.7 mph SSW17.2 kmh SSW 24.4 mph39.3 kmh 30.46 in1031.5 mb 0.00 in0.0 mm 0.00 in/hr0.0 mm/hr 0.00 in0.0 mm
09:01 AM 43.5°F6.4°C 33.3°F0.7°C 67% 11.4 mph SSW18.3 kmh SSW 24.4 mph39.3 kmh 30.46 in1031.5 mb 0.00 in0.0 mm 0.00 in/hr0.0 mm/hr 0.00 in0.0 mm
09:02 AM 43.5°F6.4°C 33.3°F0.7°C 67% 9.8 mph SSW15.8 kmh SSW 24.4 mph39.3 kmh 30.46 in1031.5 mb 0.00 in0.0 mm 0.00 in/hr0.0 mm/hr 0.00 in0.0 mm
09:03 AM 43.5°F6.4°C 33.3°F0.7°C 67% 8.3 mph SSW13.4 kmh SSW 24.4 mph39.3 kmh 30.46 in1031.5 mb 0.00 in0.0 mm 0.00 in/hr0.0 mm/hr 0.00 in0.0 mm
09:04 AM 43.5°F6.4°C 33.3°F0.7°C 67% 9.2 mph SSW14.8 kmh SSW 24.4 mph39.3 kmh 30.46 in1031.5 mb 0.00 in0.0 mm 0.00 in/hr0.0 mm/hr 0.00 in0.0 mm
09:05 AM 43.5°F6.4°C 33.3°F0.7°C 67% 9.8 mph SSW15.8 kmh SSW 24.4 mph39.3 kmh 30.47 in1031.8 mb 0.00 in0.0 mm 0.00 in/hr0.0 mm/hr 0.00 in0.0 mm
09:06 AM 43.5°F6.4°C 33.3°F0.7°C 67% 8.3 mph SSW13.4 kmh SSW 24.4 mph39.3 kmh 30.47 in1031.8 mb 0.00 in0.0 mm 0.00 in/hr0.0 mm/hr 0.00 in0.0 mm
09:07 AM 43.5°F6.4°C 33.3°F0.7°C 67% 5.4 mph SSW8.7 kmh SSW 24.4 mph39.3 kmh 30.47 in1031.8 mb 0.00 in0.0 mm 0.00 in/hr0.0 mm/hr 0.00 in0.0 mm
09:08 AM 43.5°F6.4°C 33.7°F0.9°C 68% 7.6 mph S12.2 kmh S 24.4 mph39.3 kmh 30.47 in1031.8 mb 0.00 in0.0 mm 0.00 in/hr0.0 mm/hr 0.00 in0.0 mm
09:09 AM 43.5°F6.4°C 33.7°F0.9°C 68% 6.9 mph SSW11.1 kmh SSW 24.4 mph39.3 kmh 30.47 in1031.8 mb 0.00 in0.0 mm 0.00 in/hr0.0 mm/hr 0.00 in0.0 mm
09:10 AM 43.5°F6.4°C 33.7°F0.9°C 68% 9.8 mph SSW15.8 kmh SSW 24.4 mph39.3 kmh 30.47 in1031.8 mb 0.00 in0.0 mm 0.00 in/hr0.0 mm/hr 0.00 in0.0 mm
09:11 AM 43.5°F6.4°C 33.7°F0.9°C 68% 9.8 mph S15.8 kmh S 21.3 mph34.3 kmh 30.47 in1031.8 mb 0.00 in0.0 mm 0.00 in/hr0.0 mm/hr 0.00 in0.0 mm
09:12 AM 43.7°F6.5°C 33.8°F1.0°C 68% 14.5 mph S23.3 kmh S 24.4 mph39.3 kmh 30.47 in1031.8 mb 0.00 in0.0 mm 0.00 in/hr0.0 mm/hr 0.00 in0.0 mm
09:13 AM 43.7°F6.5°C 33.8°F1.0°C 68% 12.1 mph SSW19.5 kmh SSW 24.4 mph39.3 kmh 30.47 in1031.8 mb 0.00 in0.0 mm 0.00 in/hr0.0 mm/hr 0.00 in0.0 mm
09:14 AM 43.7°F6.5°C 33.8°F1.0°C 68% 6.0 mph SW9.7 kmh SW 24.4 mph39.3 kmh 30.47 in1031.8 mb 0.00 in0.0 mm 0.00 in/hr0.0 mm/hr 0.00 in0.0 mm
09:15 AM 43.7°F6.5°C 33.8°F1.0°C 68% 6.9 mph SSW11.1 kmh SSW 24.4 mph39.3 kmh 30.47 in1031.8 mb 0.00 in0.0 mm 0.00 in/hr0.0 mm/hr 0.00 in0.0 mm
09:16 AM 43.9°F6.6°C 34.0°F1.1°C 68% 11.4 mph SSW18.3 kmh SSW 24.4 mph39.3 kmh 30.47 in1031.8 mb 0.00 in0.0 mm 0.00 in/hr0.0 mm/hr 0.00 in0.0 mm
09:17 AM 43.9°F6.6°C 34.0°F1.1°C 68% 5.4 mph SSW8.7 kmh SSW 24.4 mph39.3 kmh 30.47 in1031.8 mb 0.00 in0.0 mm 0.00 in/hr0.0 mm/hr 0.00 in0.0 mm
09:18 AM 43.9°F6.6°C 33.6°F0.9°C 67% 10.7 mph SSW17.2 kmh SSW 24.4 mph39.3 kmh 30.47 in1031.8 mb 0.00 in0.0 mm 0.00 in/hr0.0 mm/hr 0.00 in0.0 mm
09:19 AM 44.1°F6.7°C 33.8°F1.0°C 67% 7.6 mph SSW12.2 kmh SSW 24.4 mph39.3 kmh 30.47 in1031.8 mb 0.00 in0.0 mm 0.00 in/hr0.0 mm/hr 0.00 in0.0 mm
09:20 AM 44.2°F6.8°C 34.0°F1.1°C 67% 9.2 mph SSW14.8 kmh SSW 24.4 mph39.3 kmh 30.47 in1031.8 mb 0.00 in0.0 mm 0.00 in/hr0.0 mm/hr 0.00 in0.0 mm
09:21 AM 44.2°F6.8°C 34.0°F1.1°C 67% 7.6 mph SW12.2 kmh SW 24.4 mph39.3 kmh 30.47 in1031.8 mb 0.00 in0.0 mm 0.00 in/hr0.0 mm/hr 0.00 in0.0 mm
09:22 AM 44.2°F6.8°C 34.0°F1.1°C 67% 4.5 mph SW7.2 kmh SW 24.4 mph39.3 kmh 30.47 in1031.8 mb 0.00 in0.0 mm 0.00 in/hr0.0 mm/hr 0.00 in0.0 mm
09:23 AM 44.2°F6.8°C 34.0°F1.1°C 67% 9.8 mph SW15.8 kmh SW 20.6 mph33.2 kmh 30.47 in1031.8 mb 0.00 in0.0 mm 0.00 in/hr0.0 mm/hr 0.00 in0.0 mm
09:24 AM 44.2°F6.8°C 34.0°F1.1°C 67% 6.0 mph SSW9.7 kmh SSW 20.6 mph33.2 kmh 30.47 in1031.8 mb 0.00 in0.0 mm 0.00 in/hr0.0 mm/hr 0.00 in0.0 mm
09:25 AM 44.2°F6.8°C 34.0°F1.1°C 67% 11.4 mph SSW18.3 kmh SSW 22.8 mph36.7 kmh 30.47 in1031.8 mb 0.00 in0.0 mm 0.00 in/hr0.0 mm/hr 0.00 in0.0 mm
09:26 AM 44.4°F6.9°C 34.2°F1.2°C 67% 7.6 mph SSW12.2 kmh SSW 22.8 mph36.7 kmh 30.46 in1031.5 mb 0.00 in0.0 mm 0.00 in/hr0.0 mm/hr 0.00 in0.0 mm
09:27 AM 44.2°F6.8°C 34.0°F1.1°C 67% 9.2 mph S14.8 kmh S 22.8 mph36.7 kmh 30.46 in1031.5 mb 0.00 in0.0 mm 0.00 in/hr0.0 mm/hr 0.00 in0.0 mm
09:28 AM 44.2°F6.8°C 34.0°F1.1°C 67% 14.5 mph S23.3 kmh S 24.4 mph39.3 kmh 30.47 in1031.8 mb 0.00 in0.0 mm 0.00 in/hr0.0 mm/hr 0.00 in0.0 mm
09:29 AM 44.4°F6.9°C 34.2°F1.2°C 67% 7.6 mph S12.2 kmh S 24.4 mph39.3 kmh 30.46 in1031.5 mb 0.00 in0.0 mm 0.00 in/hr0.0 mm/hr 0.00 in0.0 mm
09:30 AM 44.4°F6.9°C 34.2°F1.2°C 67% 9.8 mph S15.8 kmh S 24.4 mph39.3 kmh 30.47 in1031.8 mb 0.00 in0.0 mm 0.00 in/hr0.0 mm/hr 0.00 in0.0 mm
09:31 AM 44.4°F6.9°C 34.2°F1.2°C 67% 10.7 mph S17.2 kmh S 24.4 mph39.3 kmh 30.47 in1031.8 mb 0.00 in0.0 mm 0.00 in/hr0.0 mm/hr 0.00 in0.0 mm
09:32 AM 44.2°F6.8°C 34.0°F1.1°C 67% 12.1 mph S19.5 kmh S 24.4 mph39.3 kmh 30.47 in1031.8 mb 0.00 in0.0 mm 0.00 in/hr0.0 mm/hr 0.00 in0.0 mm
09:33 AM 44.2°F6.8°C 34.0°F1.1°C 67% 16.8 mph S27.0 kmh S 24.4 mph39.3 kmh 30.47 in1031.8 mb 0.00 in0.0 mm 0.00 in/hr0.0 mm/hr 0.00 in0.0 mm
09:34 AM 44.2°F6.8°C 34.4°F1.3°C 68% 8.3 mph S13.4 kmh S 24.4 mph39.3 kmh 30.47 in1031.8 mb 0.00 in0.0 mm 0.00 in/hr0.0 mm/hr 0.00 in0.0 mm
09:35 AM 44.2°F6.8°C 34.4°F1.3°C 68% 11.4 mph S18.3 kmh S 24.4 mph39.3 kmh 30.47 in1031.8 mb 0.00 in0.0 mm 0.00 in/hr0.0 mm/hr 0.00 in0.0 mm
09:36 AM 44.1°F6.7°C 34.2°F1.2°C 68% 6.9 mph SSW11.1 kmh SSW 24.4 mph39.3 kmh 30.47 in1031.8 mb 0.00 in0.0 mm 0.00 in/hr0.0 mm/hr 0.00 in0.0 mm
09:37 AM 44.1°F6.7°C 34.2°F1.2°C 68% 6.0 mph SSW9.7 kmh SSW 24.4 mph39.3 kmh 30.47 in1031.8 mb 0.00 in0.0 mm 0.00 in/hr0.0 mm/hr 0.00 in0.0 mm
09:38 AM 44.1°F6.7°C 34.6°F1.4°C 69% 11.4 mph SW18.3 kmh SW 23.5 mph37.8 kmh 30.47 in1031.8 mb 0.00 in0.0 mm 0.00 in/hr0.0 mm/hr 0.00 in0.0 mm
09:39 AM 44.1°F6.7°C 34.6°F1.4°C 69% 11.4 mph SW18.3 kmh SW 23.5 mph37.8 kmh 30.47 in1031.8 mb 0.00 in0.0 mm 0.00 in/hr0.0 mm/hr 0.00 in0.0 mm
09:40 AM 43.9°F6.6°C 34.7°F1.5°C 70% 11.4 mph SSW18.3 kmh SSW 23.5 mph37.8 kmh 30.47 in1031.8 mb 0.00 in0.0 mm 0.00 in/hr0.0 mm/hr 0.00 in0.0 mm
09:41 AM 43.9°F6.6°C 34.7°F1.5°C 70% 9.2 mph S14.8 kmh S 23.5 mph37.8 kmh 30.47 in1031.8 mb 0.00 in0.0 mm 0.00 in/hr0.0 mm/hr 0.00 in0.0 mm
09:42 AM 43.9°F6.6°C 34.7°F1.5°C 70% 7.6 mph S12.2 kmh S 23.5 mph37.8 kmh 30.47 in1031.8 mb 0.00 in0.0 mm 0.00 in/hr0.0 mm/hr 0.00 in0.0 mm
09:43 AM 43.9°F6.6°C 34.7°F1.5°C 70% 6.0 mph SW9.7 kmh SW 23.5 mph37.8 kmh 30.47 in1031.8 mb 0.00 in0.0 mm 0.00 in/hr0.0 mm/hr 0.00 in0.0 mm
09:44 AM 43.9°F6.6°C 34.7°F1.5°C 70% 8.3 mph W13.4 kmh W 19.7 mph31.7 kmh 30.47 in1031.8 mb 0.00 in0.0 mm 0.00 in/hr0.0 mm/hr 0.00 in0.0 mm
09:45 AM 43.9°F6.6°C 34.7°F1.5°C 70% 8.3 mph WSW13.4 kmh WSW 19.7 mph31.7 kmh 30.47 in1031.8 mb 0.00 in0.0 mm 0.00 in/hr0.0 mm/hr 0.00 in0.0 mm
09:46 AM 43.9°F6.6°C 34.7°F1.5°C 70% 9.8 mph SW15.8 kmh SW 21.3 mph34.3 kmh 30.47 in1031.8 mb 0.00 in0.0 mm 0.00 in/hr0.0 mm/hr 0.00 in0.0 mm
09:47 AM 43.9°F6.6°C 34.7°F1.5°C 70% 8.3 mph SW13.4 kmh SW 21.3 mph34.3 kmh 30.46 in1031.5 mb 0.00 in0.0 mm 0.00 in/hr0.0 mm/hr 0.00 in0.0 mm
09:48 AM 43.9°F6.6°C 34.7°F1.5°C 70% 5.4 mph SSW8.7 kmh SSW 21.3 mph34.3 kmh 30.46 in1031.5 mb 0.00 in0.0 mm 0.00 in/hr0.0 mm/hr 0.00 in0.0 mm
09:49 AM 43.9°F6.6°C 34.7°F1.5°C 70% 7.6 mph SSW12.2 kmh SSW 21.3 mph34.3 kmh 30.47 in1031.8 mb 0.00 in0.0 mm 0.00 in/hr0.0 mm/hr 0.00 in0.0 mm
09:50 AM 43.9°F6.6°C 34.7°F1.5°C 70% 9.2 mph SW14.8 kmh SW 21.3 mph34.3 kmh 30.47 in1031.8 mb 0.00 in0.0 mm 0.00 in/hr0.0 mm/hr 0.00 in0.0 mm
09:51 AM 43.9°F6.6°C 34.7°F1.5°C 70% 10.7 mph SW17.2 kmh SW 22.1 mph35.6 kmh 30.47 in1031.8 mb 0.00 in0.0 mm 0.00 in/hr0.0 mm/hr 0.00 in0.0 mm
09:52 AM 44.1°F6.7°C 34.6°F1.4°C 69% 9.8 mph SW15.8 kmh SW 22.1 mph35.6 kmh 30.47 in1031.8 mb 0.00 in0.0 mm 0.00 in/hr0.0 mm/hr 0.00 in0.0 mm
09:53 AM 44.1°F6.7°C 34.6°F1.4°C 69% 9.2 mph SW14.8 kmh SW 22.1 mph35.6 kmh 30.47 in1031.8 mb 0.00 in0.0 mm 0.00 in/hr0.0 mm/hr 0.00 in0.0 mm
09:54 AM 44.1°F6.7°C 34.6°F1.4°C 69% 8.3 mph SSW13.4 kmh SSW 22.1 mph35.6 kmh 30.47 in1031.8 mb 0.00 in0.0 mm 0.00 in/hr0.0 mm/hr 0.00 in0.0 mm
09:55 AM 44.1°F6.7°C 34.6°F1.4°C 69% 7.6 mph S12.2 kmh S 22.1 mph35.6 kmh 30.47 in1031.8 mb 0.00 in0.0 mm 0.00 in/hr0.0 mm/hr 0.00 in0.0 mm
09:56 AM 44.1°F6.7°C 34.6°F1.4°C 69% 10.7 mph S17.2 kmh S 22.1 mph35.6 kmh 30.47 in1031.8 mb 0.00 in0.0 mm 0.00 in/hr0.0 mm/hr 0.00 in0.0 mm
09:57 AM 44.1°F6.7°C 34.6°F1.4°C 69% 14.5 mph SSW23.3 kmh SSW 22.1 mph35.6 kmh 30.47 in1031.8 mb 0.00 in0.0 mm 0.00 in/hr0.0 mm/hr 0.00 in0.0 mm
09:58 AM 44.2°F6.8°C 34.7°F1.5°C 69% 11.4 mph SSW18.3 kmh SSW 22.1 mph35.6 kmh 30.48 in1032.2 mb 0.00 in0.0 mm 0.00 in/hr0.0 mm/hr 0.00 in0.0 mm
09:59 AM 44.1°F6.7°C 34.6°F1.4°C 69% 6.9 mph SW11.1 kmh SW 23.5 mph37.8 kmh 30.47 in1031.8 mb 0.00 in0.0 mm 0.00 in/hr0.0 mm/hr 0.00 in0.0 mm
10:00 AM 44.1°F6.7°C 34.2°F1.2°C 68% 6.9 mph SSW11.1 kmh SSW 23.5 mph37.8 kmh 30.47 in1031.8 mb 0.00 in0.0 mm 0.00 in/hr0.0 mm/hr 0.00 in0.0 mm
10:01 AM 44.2°F6.8°C 34.4°F1.3°C 68% 9.8 mph SW15.8 kmh SW 23.5 mph37.8 kmh 30.47 in1031.8 mb 0.00 in0.0 mm 0.00 in/hr0.0 mm/hr 0.00 in0.0 mm
10:02 AM 44.2°F6.8°C 34.4°F1.3°C 68% 9.8 mph SSW15.8 kmh SSW 23.5 mph37.8 kmh 30.47 in1031.8 mb 0.00 in0.0 mm 0.00 in/hr0.0 mm/hr 0.00 in0.0 mm
10:03 AM 44.2°F6.8°C 34.0°F1.1°C 67% 8.3 mph SSW13.4 kmh SSW 23.5 mph37.8 kmh 30.47 in1031.8 mb 0.00 in0.0 mm 0.00 in/hr0.0 mm/hr 0.00 in0.0 mm
10:04 AM 44.2°F6.8°C 34.4°F1.3°C 68% 12.1 mph SSW19.5 kmh SSW 23.5 mph37.8 kmh 30.47 in1031.8 mb 0.00 in0.0 mm 0.00 in/hr0.0 mm/hr 0.00 in0.0 mm
10:05 AM 44.2°F6.8°C 34.4°F1.3°C 68% 10.7 mph SSW17.2 kmh SSW 23.5 mph37.8 kmh 30.48 in1032.2 mb 0.00 in0.0 mm 0.00 in/hr0.0 mm/hr 0.00 in0.0 mm
10:06 AM 44.2°F6.8°C 34.4°F1.3°C 68% 6.0 mph SSW9.7 kmh SSW 23.5 mph37.8 kmh 30.47 in1031.8 mb 0.00 in0.0 mm 0.00 in/hr0.0 mm/hr 0.00 in0.0 mm
10:07 AM 44.2°F6.8°C 34.4°F1.3°C 68% 5.4 mph SSW8.7 kmh SSW 23.5 mph37.8 kmh 30.47 in1031.8 mb 0.00 in0.0 mm 0.00 in/hr0.0 mm/hr 0.00 in0.0 mm
10:08 AM 44.1°F6.7°C 34.2°F1.2°C 68% 9.2 mph SSW14.8 kmh SSW 23.5 mph37.8 kmh 30.47 in1031.8 mb 0.00 in0.0 mm 0.00 in/hr0.0 mm/hr 0.00 in0.0 mm
10:09 AM 44.2°F6.8°C 34.4°F1.3°C 68% 9.2 mph S14.8 kmh S 21.3 mph34.3 kmh 30.48 in1032.2 mb 0.00 in0.0 mm 0.00 in/hr0.0 mm/hr 0.00 in0.0 mm
10:10 AM 44.2°F6.8°C 34.4°F1.3°C 68% 8.3 mph S13.4 kmh S 21.3 mph34.3 kmh 30.47 in1031.8 mb 0.00 in0.0 mm 0.00 in/hr0.0 mm/hr 0.00 in0.0 mm
10:11 AM 44.2°F6.8°C 34.4°F1.3°C 68% 6.9 mph SSW11.1 kmh SSW 21.3 mph34.3 kmh 30.47 in1031.8 mb 0.00 in0.0 mm 0.00 in/hr0.0 mm/hr 0.00 in0.0 mm
10:12 AM 44.2°F6.8°C 34.4°F1.3°C 68% 7.6 mph SSW12.2 kmh SSW 21.3 mph34.3 kmh 30.48 in1032.2 mb 0.00 in0.0 mm 0.00 in/hr0.0 mm/hr 0.00 in0.0 mm
10:13 AM 44.2°F6.8°C 34.0°F1.1°C 67% 8.3 mph SW13.4 kmh SW 21.3 mph34.3 kmh 30.48 in1032.2 mb 0.00 in0.0 mm 0.00 in/hr0.0 mm/hr 0.00 in0.0 mm
10:14 AM 44.2°F6.8°C 34.0°F1.1°C 67% 7.6 mph SSW12.2 kmh SSW 21.3 mph34.3 kmh 30.48 in1032.2 mb 0.00 in0.0 mm 0.00 in/hr0.0 mm/hr 0.00 in0.0 mm
10:15 AM 44.2°F6.8°C 34.0°F1.1°C 67% 7.6 mph SSW12.2 kmh SSW 20.6 mph33.2 kmh 30.47 in1031.8 mb 0.00 in0.0 mm 0.00 in/hr0.0 mm/hr 0.00 in0.0 mm
10:16 AM 44.2°F6.8°C 33.6°F0.9°C 66% 10.7 mph SSW17.2 kmh SSW 20.6 mph33.2 kmh 30.48 in1032.2 mb 0.00 in0.0 mm 0.00 in/hr0.0 mm/hr 0.00 in0.0 mm
10:17 AM 44.4°F6.9°C 34.2°F1.2°C 67% 8.3 mph S13.4 kmh S 20.6 mph33.2 kmh 30.47 in1031.8 mb 0.00 in0.0 mm 0.00 in/hr0.0 mm/hr 0.00 in0.0 mm
10:18 AM 44.4°F6.9°C 33.8°F1.0°C 66% 9.2 mph SSW14.8 kmh SSW 20.6 mph33.2 kmh 30.47 in1031.8 mb 0.00 in0.0 mm 0.00 in/hr0.0 mm/hr 0.00 in0.0 mm
10:19 AM 44.4°F6.9°C 33.8°F1.0°C 66% 8.3 mph SSW13.4 kmh SSW 20.6 mph33.2 kmh 30.47 in1031.8 mb 0.00 in0.0 mm 0.00 in/hr0.0 mm/hr 0.00 in0.0 mm
10:20 AM 44.4°F6.9°C 33.8°F1.0°C 66% 7.6 mph SSW12.2 kmh SSW 20.6 mph33.2 kmh 30.48 in1032.2 mb 0.00 in0.0 mm 0.00 in/hr0.0 mm/hr 0.00 in0.0 mm
10:21 AM 44.4°F6.9°C 33.8°F1.0°C 66% 10.7 mph SSW17.2 kmh SSW 20.6 mph33.2 kmh 30.48 in1032.2 mb 0.00 in0.0 mm 0.00 in/hr0.0 mm/hr 0.00 in0.0 mm
10:22 AM 44.4°F6.9°C 33.8°F1.0°C 66% 9.2 mph SSW14.8 kmh SSW 20.6 mph33.2 kmh 30.48 in1032.2 mb 0.00 in0.0 mm 0.00 in/hr0.0 mm/hr 0.00 in0.0 mm
10:23 AM 44.4°F6.9°C 33.8°F1.0°C 66% 8.3 mph SSW13.4 kmh SSW 20.6 mph33.2 kmh 30.48 in1032.2 mb 0.00 in0.0 mm 0.00 in/hr0.0 mm/hr 0.00 in0.0 mm
10:24 AM 44.4°F6.9°C 33.8°F1.0°C 66% 6.9 mph SSW11.1 kmh SSW 20.6 mph33.2 kmh 30.48 in1032.2 mb 0.00 in0.0 mm 0.00 in/hr0.0 mm/hr 0.00 in0.0 mm
10:25 AM 44.4°F6.9°C 33.8°F1.0°C 66% 9.2 mph SSW14.8 kmh SSW 19.7 mph31.7 kmh 30.48 in1032.2 mb 0.00 in0.0 mm 0.00 in/hr0.0 mm/hr 0.00 in0.0 mm
10:26 AM 44.4°F6.9°C 33.8°F1.0°C 66% 7.6 mph SW12.2 kmh SW 19.7 mph31.7 kmh 30.48 in1032.2 mb 0.00 in0.0 mm 0.00 in/hr0.0 mm/hr 0.00 in0.0 mm
10:27 AM 44.6°F7.0°C 34.0°F1.1°C 66% 13.6 mph SW21.9 kmh SW 21.3 mph34.3 kmh 30.48 in1032.2 mb 0.00 in0.0 mm 0.00 in/hr0.0 mm/hr 0.00 in0.0 mm
10:28 AM 44.6°F7.0°C 34.0°F1.1°C 66% 11.4 mph SW18.3 kmh SW 21.3 mph34.3 kmh 30.48 in1032.2 mb 0.00 in0.0 mm 0.00 in/hr0.0 mm/hr 0.00 in0.0 mm
10:29 AM 44.6°F7.0°C 34.0°F1.1°C 66% 9.8 mph SW15.8 kmh SW 21.3 mph34.3 kmh 30.48 in1032.2 mb 0.00 in0.0 mm 0.00 in/hr0.0 mm/hr 0.00 in0.0 mm
10:30 AM 44.6°F7.0°C 34.0°F1.1°C 66% 9.2 mph SSW14.8 kmh SSW 21.3 mph34.3 kmh 30.48 in1032.2 mb 0.00 in0.0 mm 0.00 in/hr0.0 mm/hr 0.00 in0.0 mm
10:31 AM 44.6°F7.0°C 34.0°F1.1°C 66% 6.0 mph SSW9.7 kmh SSW 21.3 mph34.3 kmh 30.48 in1032.2 mb 0.00 in0.0 mm 0.00 in/hr0.0 mm/hr 0.00 in0.0 mm
10:32 AM 44.6°F7.0°C 34.0°F1.1°C 66% 8.3 mph SSW13.4 kmh SSW 21.3 mph34.3 kmh 30.47 in1031.8 mb 0.00 in0.0 mm 0.00 in/hr0.0 mm/hr 0.00 in0.0 mm
10:33 AM 44.6°F7.0°C 34.0°F1.1°C 66% 7.6 mph SSW12.2 kmh SSW 21.3 mph34.3 kmh 30.48 in1032.2 mb 0.00 in0.0 mm 0.00 in/hr0.0 mm/hr 0.00 in0.0 mm
10:34 AM 44.6°F7.0°C 34.0°F1.1°C 66% 5.4 mph SSW8.7 kmh SSW 21.3 mph34.3 kmh 30.48 in1032.2 mb 0.00 in0.0 mm 0.00 in/hr0.0 mm/hr 0.00 in0.0 mm
10:35 AM 44.4°F6.9°C 34.2°F1.2°C 67% 8.3 mph SSW13.4 kmh SSW 21.3 mph34.3 kmh 30.48 in1032.2 mb 0.00 in0.0 mm 0.00 in/hr0.0 mm/hr 0.00 in0.0 mm
10:36 AM 44.4°F6.9°C 34.2°F1.2°C 67% 9.8 mph SSW15.8 kmh SSW 21.3 mph34.3 kmh 30.48 in1032.2 mb 0.00 in0.0 mm 0.00 in/hr0.0 mm/hr 0.00 in0.0 mm
10:37 AM 44.4°F6.9°C 34.2°F1.2°C 67% 10.7 mph SW17.2 kmh SW 18.3 mph29.5 kmh 30.48 in1032.2 mb 0.00 in0.0 mm 0.00 in/hr0.0 mm/hr 0.00 in0.0 mm
10:38 AM 44.4°F6.9°C 34.2°F1.2°C 67% 8.3 mph SW13.4 kmh SW 18.3 mph29.5 kmh 30.48 in1032.2 mb 0.00 in0.0 mm 0.00 in/hr0.0 mm/hr 0.00 in0.0 mm
10:39 AM 44.4°F6.9°C 34.2°F1.2°C 67% 10.7 mph SW17.2 kmh SW 19.0 mph30.6 kmh 30.48 in1032.2 mb 0.00 in0.0 mm 0.00 in/hr0.0 mm/hr 0.00 in0.0 mm
10:40 AM 44.6°F7.0°C 34.3°F1.3°C 67% 7.6 mph SW12.2 kmh SW 20.6 mph33.2 kmh 30.48 in1032.2 mb 0.00 in0.0 mm 0.00 in/hr0.0 mm/hr 0.00 in0.0 mm
10:41 AM 44.6°F7.0°C 34.3°F1.3°C 67% 13.0 mph SW20.9 kmh SW 20.6 mph33.2 kmh 30.48 in1032.2 mb 0.00 in0.0 mm 0.00 in/hr0.0 mm/hr 0.00 in0.0 mm
10:42 AM 44.6°F7.0°C 34.3°F1.3°C 67% 9.2 mph SW14.8 kmh SW 20.6 mph33.2 kmh 30.47 in1031.8 mb 0.00 in0.0 mm 0.00 in/hr0.0 mm/hr 0.00 in0.0 mm
10:43 AM 44.6°F7.0°C 34.3°F1.3°C 67% 9.2 mph SW14.8 kmh SW 23.5 mph37.8 kmh 30.47 in1031.8 mb 0.00 in0.0 mm 0.00 in/hr0.0 mm/hr 0.00 in0.0 mm
10:44 AM 44.8°F7.1°C 34.1°F1.2°C 66% 9.2 mph SW14.8 kmh SW 23.5 mph37.8 kmh 30.48 in1032.2 mb 0.00 in0.0 mm 0.00 in/hr0.0 mm/hr 0.00 in0.0 mm
10:45 AM 44.8°F7.1°C 34.1°F1.2°C 66% 15.2 mph SW24.5 kmh SW 23.5 mph37.8 kmh 30.48 in1032.2 mb 0.00 in0.0 mm 0.00 in/hr0.0 mm/hr 0.00 in0.0 mm
10:46 AM 44.8°F7.1°C 34.1°F1.2°C 66% 12.1 mph SSW19.5 kmh SSW 23.5 mph37.8 kmh 30.47 in1031.8 mb 0.00 in0.0 mm 0.00 in/hr0.0 mm/hr 0.00 in0.0 mm
10:47 AM 44.8°F7.1°C 34.1°F1.2°C 66% 12.1 mph SSW19.5 kmh SSW 23.5 mph37.8 kmh 30.47 in1031.8 mb 0.00 in0.0 mm 0.00 in/hr0.0 mm/hr 0.00 in0.0 mm
10:48 AM 45.0°F7.2°C 34.3°F1.3°C 66% 7.6 mph SSW12.2 kmh SSW 23.5 mph37.8 kmh 30.47 in1031.8 mb 0.00 in0.0 mm 0.00 in/hr0.0 mm/hr 0.00 in0.0 mm
10:49 AM 45.0°F7.2°C 34.3°F1.3°C 66% 8.3 mph SSW13.4 kmh SSW 23.5 mph37.8 kmh 30.47 in1031.8 mb 0.00 in0.0 mm 0.00 in/hr0.0 mm/hr 0.00 in0.0 mm
10:50 AM 45.0°F7.2°C 34.3°F1.3°C 66% 9.8 mph SSW15.8 kmh SSW 23.5 mph37.8 kmh 30.47 in1031.8 mb 0.00 in0.0 mm 0.00 in/hr0.0 mm/hr 0.00 in0.0 mm
10:51 AM 45.0°F7.2°C 34.3°F1.3°C 66% 9.8 mph SW15.8 kmh SW 23.5 mph37.8 kmh 30.48 in1032.2 mb 0.00 in0.0 mm 0.00 in/hr0.0 mm/hr 0.00 in0.0 mm
10:52 AM 45.0°F7.2°C 34.3°F1.3°C 66% 10.7 mph SSW17.2 kmh SSW 23.5 mph37.8 kmh 30.47 in1031.8 mb 0.00 in0.0 mm 0.00 in/hr0.0 mm/hr 0.00 in0.0 mm
10:53 AM 45.0°F7.2°C 34.3°F1.3°C 66% 9.2 mph SSW14.8 kmh SSW 23.5 mph37.8 kmh 30.47 in1031.8 mb 0.00 in0.0 mm 0.00 in/hr0.0 mm/hr 0.00 in0.0 mm
10:54 AM 45.0°F7.2°C 33.9°F1.1°C 65% 15.2 mph SSW24.5 kmh SSW 23.5 mph37.8 kmh 30.48 in1032.2 mb 0.00 in0.0 mm 0.00 in/hr0.0 mm/hr 0.00 in0.0 mm
10:55 AM 45.0°F7.2°C 34.3°F1.3°C 66% 9.2 mph SSW14.8 kmh SSW 23.5 mph37.8 kmh 30.48 in1032.2 mb 0.00 in0.0 mm 0.00 in/hr0.0 mm/hr 0.00 in0.0 mm
10:56 AM 45.0°F7.2°C 34.3°F1.3°C 66% 11.4 mph SSW18.3 kmh SSW 23.5 mph37.8 kmh 30.48 in1032.2 mb 0.00 in0.0 mm 0.00 in/hr0.0 mm/hr 0.00 in0.0 mm
10:57 AM 45.0°F7.2°C 33.9°F1.1°C 65% 10.7 mph SSW17.2 kmh SSW 23.5 mph37.8 kmh 30.48 in1032.2 mb 0.00 in0.0 mm 0.00 in/hr0.0 mm/hr 0.00 in0.0 mm
10:58 AM 45.0°F7.2°C 34.3°F1.3°C 66% 7.6 mph SSW12.2 kmh SSW 22.8 mph36.7 kmh 30.48 in1032.2 mb 0.00 in0.0 mm 0.00 in/hr0.0 mm/hr 0.00 in0.0 mm
10:59 AM 45.0°F7.2°C 34.3°F1.3°C 66% 10.7 mph SSW17.2 kmh SSW 22.8 mph36.7 kmh 30.48 in1032.2 mb 0.00 in0.0 mm 0.00 in/hr0.0 mm/hr 0.00 in0.0 mm
11:00 AM 45.0°F7.2°C 34.3°F1.3°C 66% 8.3 mph SSW13.4 kmh SSW 22.8 mph36.7 kmh 30.48 in1032.2 mb 0.00 in0.0 mm 0.00 in/hr0.0 mm/hr 0.00 in0.0 mm
11:01 AM 45.0°F7.2°C 34.3°F1.3°C 66% 9.2 mph S14.8 kmh S 22.8 mph36.7 kmh 30.48 in1032.2 mb 0.00 in0.0 mm 0.00 in/hr0.0 mm/hr 0.00 in0.0 mm
11:02 AM 45.1°F7.3°C 34.5°F1.4°C 66% 10.7 mph SSW17.2 kmh SSW 22.8 mph36.7 kmh 30.48 in1032.2 mb 0.00 in0.0 mm 0.00 in/hr0.0 mm/hr 0.00 in0.0 mm
11:03 AM 45.1°F7.3°C 34.5°F1.4°C 66% 7.6 mph SSW12.2 kmh SSW 22.8 mph36.7 kmh 30.48 in1032.2 mb 0.00 in0.0 mm 0.00 in/hr0.0 mm/hr 0.00 in0.0 mm
11:04 AM 45.1°F7.3°C 34.5°F1.4°C 66% 6.9 mph SSW11.1 kmh SSW 22.8 mph36.7 kmh 30.48 in1032.2 mb 0.00 in0.0 mm 0.00 in/hr0.0 mm/hr 0.00 in0.0 mm
11:05 AM 45.1°F7.3°C 34.5°F1.4°C 66% 6.0 mph S9.7 kmh S 21.3 mph34.3 kmh 30.48 in1032.2 mb 0.00 in0.0 mm 0.00 in/hr0.0 mm/hr 0.00 in0.0 mm
11:06 AM 45.0°F7.2°C 34.3°F1.3°C 66% 6.9 mph S11.1 kmh S 21.3 mph34.3 kmh 30.48 in1032.2 mb 0.00 in0.0 mm 0.00 in/hr0.0 mm/hr 0.00 in0.0 mm
11:07 AM 45.0°F7.2°C 34.3°F1.3°C 66% 9.8 mph SSW15.8 kmh SSW 21.3 mph34.3 kmh 30.48 in1032.2 mb 0.00 in0.0 mm 0.00 in/hr0.0 mm/hr 0.00 in0.0 mm
11:08 AM 45.0°F7.2°C 33.9°F1.1°C 65% 12.1 mph SSW19.5 kmh SSW 21.3 mph34.3 kmh 30.48 in1032.2 mb 0.00 in0.0 mm 0.00 in/hr0.0 mm/hr 0.00 in0.0 mm
11:09 AM 45.1°F7.3°C 34.5°F1.4°C 66% 6.9 mph SSW11.1 kmh SSW 21.3 mph34.3 kmh 30.48 in1032.2 mb 0.00 in0.0 mm 0.00 in/hr0.0 mm/hr 0.00 in0.0 mm
11:10 AM 45.0°F7.2°C 34.3°F1.3°C 66% 8.3 mph SSW13.4 kmh SSW 21.3 mph34.3 kmh 30.49 in1032.5 mb 0.00 in0.0 mm 0.00 in/hr0.0 mm/hr 0.00 in0.0 mm
11:11 AM 45.0°F7.2°C 34.3°F1.3°C 66% 6.0 mph SSW9.7 kmh SSW 21.3 mph34.3 kmh 30.49 in1032.5 mb 0.00 in0.0 mm 0.00 in/hr0.0 mm/hr 0.00 in0.0 mm
11:12 AM 45.1°F7.3°C 34.1°F1.2°C 65% 13.0 mph SSW20.9 kmh SSW 22.8 mph36.7 kmh 30.48 in1032.2 mb 0.00 in0.0 mm 0.00 in/hr0.0 mm/hr 0.00 in0.0 mm
11:13 AM 45.1°F7.3°C 34.1°F1.2°C 65% 8.3 mph SSW13.4 kmh SSW 22.8 mph36.7 kmh 30.48 in1032.2 mb 0.00 in0.0 mm 0.00 in/hr0.0 mm/hr 0.00 in0.0 mm
11:14 AM 45.1°F7.3°C 34.1°F1.2°C 65% 9.2 mph SW14.8 kmh SW 22.8 mph36.7 kmh 30.48 in1032.2 mb 0.00 in0.0 mm 0.00 in/hr0.0 mm/hr 0.00 in0.0 mm
11:15 AM 45.1°F7.3°C 34.1°F1.2°C 65% 9.8 mph SW15.8 kmh SW 22.8 mph36.7 kmh 30.48 in1032.2 mb 0.00 in0.0 mm 0.00 in/hr0.0 mm/hr 0.00 in0.0 mm
11:16 AM 45.1°F7.3°C 34.1°F1.2°C 65% 11.4 mph SSW18.3 kmh SSW 22.8 mph36.7 kmh 30.48 in1032.2 mb 0.00 in0.0 mm 0.00 in/hr0.0 mm/hr 0.00 in0.0 mm
11:17 AM 45.1°F7.3°C 34.1°F1.2°C 65% 9.2 mph SSW14.8 kmh SSW 22.8 mph36.7 kmh 30.49 in1032.5 mb 0.00 in0.0 mm 0.00 in/hr0.0 mm/hr 0.00 in0.0 mm
11:18 AM 45.1°F7.3°C 33.7°F0.9°C 64% 10.7 mph SSW17.2 kmh SSW 22.8 mph36.7 kmh 30.49 in1032.5 mb 0.00 in0.0 mm 0.00 in/hr0.0 mm/hr 0.00 in0.0 mm
11:19 AM 45.3°F7.4°C 33.9°F1.1°C 64% 14.5 mph SSW23.3 kmh SSW 24.4 mph39.3 kmh 30.49 in1032.5 mb 0.00 in0.0 mm 0.00 in/hr0.0 mm/hr 0.00 in0.0 mm
11:20 AM 45.3°F7.4°C 34.3°F1.3°C 65% 8.3 mph SSW13.4 kmh SSW 27.3 mph43.9 kmh 30.49 in1032.5 mb 0.00 in0.0 mm 0.00 in/hr0.0 mm/hr 0.00 in0.0 mm
11:21 AM 45.3°F7.4°C 33.9°F1.1°C 64% 10.7 mph S17.2 kmh S 27.3 mph43.9 kmh 30.49 in1032.5 mb 0.00 in0.0 mm 0.00 in/hr0.0 mm/hr 0.00 in0.0 mm
11:22 AM 45.3°F7.4°C 33.9°F1.1°C 64% 11.4 mph S18.3 kmh S 27.3 mph43.9 kmh 30.50 in1032.8 mb 0.00 in0.0 mm 0.00 in/hr0.0 mm/hr 0.00 in0.0 mm
11:23 AM 45.1°F7.3°C 33.7°F0.9°C 64% 12.1 mph S19.5 kmh S 27.3 mph43.9 kmh 30.49 in1032.5 mb 0.00 in0.0 mm 0.00 in/hr0.0 mm/hr 0.00 in0.0 mm
11:24 AM 45.1°F7.3°C 34.1°F1.2°C 65% 6.0 mph S9.7 kmh S 27.3 mph43.9 kmh 30.49 in1032.5 mb 0.00 in0.0 mm 0.00 in/hr0.0 mm/hr 0.00 in0.0 mm
11:25 AM 45.1°F7.3°C 34.1°F1.2°C 65% 13.0 mph S20.9 kmh S 27.3 mph43.9 kmh 30.49 in1032.5 mb 0.00 in0.0 mm 0.00 in/hr0.0 mm/hr 0.00 in0.0 mm
11:26 AM 45.1°F7.3°C 34.1°F1.2°C 65% 10.7 mph SSW17.2 kmh SSW 27.3 mph43.9 kmh 30.49 in1032.5 mb 0.00 in0.0 mm 0.00 in/hr0.0 mm/hr 0.00 in0.0 mm
11:27 AM 45.1°F7.3°C 34.1°F1.2°C 65% 9.2 mph SSW14.8 kmh SSW 27.3 mph43.9 kmh 30.50 in1032.8 mb 0.00 in0.0 mm 0.00 in/hr0.0 mm/hr 0.00 in0.0 mm
11:28 AM 45.1°F7.3°C 34.1°F1.2°C 65% 8.3 mph SSW13.4 kmh SSW 27.3 mph43.9 kmh 30.50 in1032.8 mb 0.00 in0.0 mm 0.00 in/hr0.0 mm/hr 0.00 in0.0 mm
11:29 AM 45.1°F7.3°C 34.1°F1.2°C 65% 10.7 mph SSW17.2 kmh SSW 27.3 mph43.9 kmh 30.49 in1032.5 mb 0.00 in0.0 mm 0.00 in/hr0.0 mm/hr 0.00 in0.0 mm
11:30 AM 45.1°F7.3°C 34.1°F1.2°C 65% 12.1 mph S19.5 kmh S 22.8 mph36.7 kmh 30.49 in1032.5 mb 0.00 in0.0 mm 0.00 in/hr0.0 mm/hr 0.00 in0.0 mm
11:31 AM 45.1°F7.3°C 34.1°F1.2°C 65% 10.7 mph S17.2 kmh S 22.8 mph36.7 kmh 30.50 in1032.8 mb 0.00 in0.0 mm 0.00 in/hr0.0 mm/hr 0.00 in0.0 mm
11:32 AM 45.1°F7.3°C 34.1°F1.2°C 65% 6.9 mph S11.1 kmh S 22.8 mph36.7 kmh 30.49 in1032.5 mb 0.00 in0.0 mm 0.00 in/hr0.0 mm/hr 0.00 in0.0 mm
11:33 AM 45.1°F7.3°C 33.7°F0.9°C 64% 9.8 mph S15.8 kmh S 22.1 mph35.6 kmh 30.49 in1032.5 mb 0.00 in0.0 mm 0.00 in/hr0.0 mm/hr 0.00 in0.0 mm
11:34 AM 45.1°F7.3°C 33.7°F0.9°C 64% 12.1 mph S19.5 kmh S 22.1 mph35.6 kmh 30.49 in1032.5 mb 0.00 in0.0 mm 0.00 in/hr0.0 mm/hr 0.00 in0.0 mm
11:35 AM 45.1°F7.3°C 33.7°F0.9°C 64% 8.3 mph S13.4 kmh S 22.1 mph35.6 kmh 30.50 in1032.8 mb 0.00 in0.0 mm 0.00 in/hr0.0 mm/hr 0.00 in0.0 mm
11:36 AM 45.1°F7.3°C 33.7°F0.9°C 64% 9.2 mph S14.8 kmh S 22.1 mph35.6 kmh 30.49 in1032.5 mb 0.00 in0.0 mm 0.00 in/hr0.0 mm/hr 0.00 in0.0 mm
11:37 AM 45.1°F7.3°C 33.7°F0.9°C 64% 9.8 mph S15.8 kmh S 21.3 mph34.3 kmh 30.50 in1032.8 mb 0.00 in0.0 mm 0.00 in/hr0.0 mm/hr 0.00 in0.0 mm
11:38 AM 45.3°F7.4°C 33.9°F1.1°C 64% 8.3 mph S13.4 kmh S 21.3 mph34.3 kmh 30.50 in1032.8 mb 0.00 in0.0 mm 0.00 in/hr0.0 mm/hr 0.00 in0.0 mm
11:39 AM 45.3°F7.4°C 33.9°F1.1°C 64% 6.0 mph S9.7 kmh S 21.3 mph34.3 kmh 30.50 in1032.8 mb 0.00 in0.0 mm 0.00 in/hr0.0 mm/hr 0.00 in0.0 mm
11:40 AM 45.1°F7.3°C 33.3°F0.7°C 63% 8.3 mph S13.4 kmh S 21.3 mph34.3 kmh 30.49 in1032.5 mb 0.00 in0.0 mm 0.00 in/hr0.0 mm/hr 0.00 in0.0 mm
11:41 AM 45.1°F7.3°C 33.7°F0.9°C 64% 12.1 mph S19.5 kmh S 20.6 mph33.2 kmh 30.50 in1032.8 mb 0.00 in0.0 mm 0.00 in/hr0.0 mm/hr 0.00 in0.0 mm
11:42 AM 45.3°F7.4°C 33.5°F0.8°C 63% 8.3 mph SSW13.4 kmh SSW 22.1 mph35.6 kmh 30.50 in1032.8 mb 0.00 in0.0 mm 0.00 in/hr0.0 mm/hr 0.00 in0.0 mm
11:43 AM 45.3°F7.4°C 33.5°F0.8°C 63% 9.2 mph SSW14.8 kmh SSW 22.1 mph35.6 kmh 30.49 in1032.5 mb 0.00 in0.0 mm 0.00 in/hr0.0 mm/hr 0.00 in0.0 mm
11:44 AM 45.3°F7.4°C 33.5°F0.8°C 63% 10.7 mph S17.2 kmh S 22.1 mph35.6 kmh 30.50 in1032.8 mb 0.00 in0.0 mm 0.00 in/hr0.0 mm/hr 0.00 in0.0 mm
11:45 AM 45.3°F7.4°C 33.5°F0.8°C 63% 12.1 mph SSW19.5 kmh SSW 22.1 mph35.6 kmh 30.49 in1032.5 mb 0.00 in0.0 mm 0.00 in/hr0.0 mm/hr 0.00 in0.0 mm
11:46 AM 45.3°F7.4°C 33.5°F0.8°C 63% 7.6 mph SSW12.2 kmh SSW 22.1 mph35.6 kmh 30.50 in1032.8 mb 0.00 in0.0 mm 0.00 in/hr0.0 mm/hr 0.00 in0.0 mm
11:47 AM 45.3°F7.4°C 33.9°F1.1°C 64% 7.6 mph SSW12.2 kmh SSW 22.1 mph35.6 kmh 30.49 in1032.5 mb 0.00 in0.0 mm 0.00 in/hr0.0 mm/hr 0.00 in0.0 mm
11:48 AM 45.3°F7.4°C 33.5°F0.8°C 63% 5.4 mph SW8.7 kmh SW 22.1 mph35.6 kmh 30.49 in1032.5 mb 0.00 in0.0 mm 0.00 in/hr0.0 mm/hr 0.00 in0.0 mm
11:49 AM 45.3°F7.4°C 33.9°F1.1°C 64% 9.2 mph SW14.8 kmh SW 22.1 mph35.6 kmh 30.50 in1032.8 mb 0.00 in0.0 mm 0.00 in/hr0.0 mm/hr 0.00 in0.0 mm
11:50 AM 45.3°F7.4°C 33.5°F0.8°C 63% 10.7 mph SW17.2 kmh SW 22.1 mph35.6 kmh 30.50 in1032.8 mb 0.00 in0.0 mm 0.00 in/hr0.0 mm/hr 0.00 in0.0 mm
11:51 AM 45.3°F7.4°C 33.5°F0.8°C 63% 6.9 mph SSW11.1 kmh SSW 22.1 mph35.6 kmh 30.49 in1032.5 mb 0.00 in0.0 mm 0.00 in/hr0.0 mm/hr 0.00 in0.0 mm
11:52 AM 45.3°F7.4°C 33.5°F0.8°C 63% 9.2 mph SSW14.8 kmh SSW 22.1 mph35.6 kmh 30.50 in1032.8 mb 0.00 in0.0 mm 0.00 in/hr0.0 mm/hr 0.00 in0.0 mm
11:53 AM 45.3°F7.4°C 33.5°F0.8°C 63% 9.2 mph SSW14.8 kmh SSW 22.1 mph35.6 kmh 30.50 in1032.8 mb 0.00 in0.0 mm 0.00 in/hr0.0 mm/hr 0.00 in0.0 mm
11:54 AM 45.3°F7.4°C 33.5°F0.8°C 63% 9.8 mph SSW15.8 kmh SSW 22.1 mph35.6 kmh 30.49 in1032.5 mb 0.00 in0.0 mm 0.00 in/hr0.0 mm/hr 0.00 in0.0 mm
11:55 AM 45.5°F7.5°C 33.6°F0.9°C 63% 8.3 mph SSW13.4 kmh SSW 22.1 mph35.6 kmh 30.49 in1032.5 mb 0.00 in0.0 mm 0.00 in/hr0.0 mm/hr 0.00 in0.0 mm
11:56 AM 45.5°F7.5°C 33.6°F0.9°C 63% 6.9 mph S11.1 kmh S 22.1 mph35.6 kmh 30.49 in1032.5 mb 0.00 in0.0 mm 0.00 in/hr0.0 mm/hr 0.00 in0.0 mm
11:57 AM 45.5°F7.5°C 33.6°F0.9°C 63% 11.4 mph S18.3 kmh S 19.0 mph30.6 kmh 30.49 in1032.5 mb 0.00 in0.0 mm 0.00 in/hr0.0 mm/hr 0.00 in0.0 mm
11:58 AM 45.5°F7.5°C 33.6°F0.9°C 63% 9.8 mph S15.8 kmh S 19.0 mph30.6 kmh 30.49 in1032.5 mb 0.00 in0.0 mm 0.00 in/hr0.0 mm/hr 0.00 in0.0 mm
11:59 AM 45.5°F7.5°C 33.6°F0.9°C 63% 9.8 mph S15.8 kmh S 19.0 mph30.6 kmh 30.49 in1032.5 mb 0.00 in0.0 mm 0.00 in/hr0.0 mm/hr 0.00 in0.0 mm
12:00 PM 45.5°F7.5°C 33.6°F0.9°C 63% 6.9 mph S11.1 kmh S 19.0 mph30.6 kmh 30.49 in1032.5 mb 0.00 in0.0 mm 0.00 in/hr0.0 mm/hr 0.00 in0.0 mm
12:01 PM 45.5°F7.5°C 33.6°F0.9°C 63% 7.6 mph S12.2 kmh S 19.0 mph30.6 kmh 30.49 in1032.5 mb 0.00 in0.0 mm 0.00 in/hr0.0 mm/hr 0.00 in0.0 mm
12:02 PM 45.5°F7.5°C 33.6°F0.9°C 63% 8.3 mph S13.4 kmh S 18.3 mph29.5 kmh 30.49 in1032.5 mb 0.00 in0.0 mm 0.00 in/hr0.0 mm/hr 0.00 in0.0 mm
12:03 PM 45.5°F7.5°C 33.6°F0.9°C 63% 7.6 mph S12.2 kmh S 18.3 mph29.5 kmh 30.49 in1032.5 mb 0.00 in0.0 mm 0.00 in/hr0.0 mm/hr 0.00 in0.0 mm
12:04 PM 45.5°F7.5°C 33.6°F0.9°C 63% 7.6 mph S12.2 kmh S 18.3 mph29.5 kmh 30.49 in1032.5 mb 0.00 in0.0 mm 0.00 in/hr0.0 mm/hr 0.00 in0.0 mm
12:05 PM 45.5°F7.5°C 33.6°F0.9°C 63% 12.1 mph S19.5 kmh S 23.5 mph37.8 kmh 30.49 in1032.5 mb 0.00 in0.0 mm 0.00 in/hr0.0 mm/hr 0.00 in0.0 mm
12:06 PM 45.5°F7.5°C 33.6°F0.9°C 63% 7.6 mph S12.2 kmh S 23.5 mph37.8 kmh 30.49 in1032.5 mb 0.00 in0.0 mm 0.00 in/hr0.0 mm/hr 0.00 in0.0 mm
12:07 PM 45.5°F7.5°C 33.2°F0.7°C 62% 11.4 mph S18.3 kmh S 23.5 mph37.8 kmh 30.49 in1032.5 mb 0.00 in0.0 mm 0.00 in/hr0.0 mm/hr 0.00 in0.0 mm
12:08 PM 45.5°F7.5°C 33.2°F0.7°C 62% 8.3 mph S13.4 kmh S 23.5 mph37.8 kmh 30.49 in1032.5 mb 0.00 in0.0 mm 0.00 in/hr0.0 mm/hr 0.00 in0.0 mm
12:09 PM 45.5°F7.5°C 33.2°F0.7°C 62% 9.8 mph S15.8 kmh S 23.5 mph37.8 kmh 30.49 in1032.5 mb 0.00 in0.0 mm 0.00 in/hr0.0 mm/hr 0.00 in0.0 mm
12:10 PM 45.5°F7.5°C 33.6°F0.9°C 63% 7.6 mph S12.2 kmh S 23.5 mph37.8 kmh 30.49 in1032.5 mb 0.00 in0.0 mm 0.00 in/hr0.0 mm/hr 0.00 in0.0 mm
12:11 PM 45.5°F7.5°C 33.6°F0.9°C 63% 11.4 mph S18.3 kmh S 23.5 mph37.8 kmh 30.49 in1032.5 mb 0.00 in0.0 mm 0.00 in/hr0.0 mm/hr 0.00 in0.0 mm
12:12 PM 45.5°F7.5°C 33.2°F0.7°C 62% 11.4 mph SSW18.3 kmh SSW 23.5 mph37.8 kmh 30.49 in1032.5 mb 0.00 in0.0 mm 0.00 in/hr0.0 mm/hr 0.00 in0.0 mm
12:13 PM 45.5°F7.5°C 33.2°F0.7°C 62% 7.6 mph SSW12.2 kmh SSW 23.5 mph37.8 kmh 30.50 in1032.8 mb 0.00 in0.0 mm 0.00 in/hr0.0 mm/hr 0.00 in0.0 mm
12:14 PM 45.5°F7.5°C 33.6°F0.9°C 63% 5.4 mph SW8.7 kmh SW 23.5 mph37.8 kmh 30.49 in1032.5 mb 0.00 in0.0 mm 0.00 in/hr0.0 mm/hr 0.00 in0.0 mm
12:15 PM 45.5°F7.5°C 33.2°F0.7°C 62% 9.8 mph SW15.8 kmh SW 23.5 mph37.8 kmh 30.49 in1032.5 mb 0.00 in0.0 mm 0.00 in/hr0.0 mm/hr 0.00 in0.0 mm
12:16 PM 45.5°F7.5°C 33.6°F0.9°C 63% 9.2 mph SW14.8 kmh SW 23.5 mph37.8 kmh 30.49 in1032.5 mb 0.00 in0.0 mm 0.00 in/hr0.0 mm/hr 0.00 in0.0 mm
12:17 PM 45.5°F7.5°C 33.6°F0.9°C 63% 9.8 mph SW15.8 kmh SW 23.5 mph37.8 kmh 30.49 in1032.5 mb 0.00 in0.0 mm 0.00 in/hr0.0 mm/hr 0.00 in0.0 mm
12:18 PM 45.5°F7.5°C 33.6°F0.9°C 63% 10.7 mph SW17.2 kmh SW 23.5 mph37.8 kmh 30.49 in1032.5 mb 0.00 in0.0 mm 0.00 in/hr0.0 mm/hr 0.00 in0.0 mm
12:19 PM 45.5°F7.5°C 33.6°F0.9°C 63% 10.7 mph SW17.2 kmh SW 23.5 mph37.8 kmh 30.49 in1032.5 mb 0.00 in0.0 mm 0.00 in/hr0.0 mm/hr 0.00 in0.0 mm
12:20 PM 45.5°F7.5°C 33.2°F0.7°C 62% 13.6 mph SW21.9 kmh SW 23.5 mph37.8 kmh 30.49 in1032.5 mb 0.00 in0.0 mm 0.00 in/hr0.0 mm/hr 0.00 in0.0 mm
12:21 PM 45.5°F7.5°C 33.6°F0.9°C 63% 10.7 mph SW17.2 kmh SW 23.5 mph37.8 kmh 30.50 in1032.8 mb 0.00 in0.0 mm 0.00 in/hr0.0 mm/hr 0.00 in0.0 mm
12:22 PM 45.5°F7.5°C 33.6°F0.9°C 63% 11.4 mph SW18.3 kmh SW 23.5 mph37.8 kmh 30.49 in1032.5 mb 0.00 in0.0 mm 0.00 in/hr0.0 mm/hr 0.00 in0.0 mm
12:23 PM 45.5°F7.5°C 33.6°F0.9°C 63% 10.7 mph SSW17.2 kmh SSW 23.5 mph37.8 kmh 30.49 in1032.5 mb 0.00 in0.0 mm 0.00 in/hr0.0 mm/hr 0.00 in0.0 mm
12:24 PM 45.5°F7.5°C 33.6°F0.9°C 63% 9.2 mph SW14.8 kmh SW 23.5 mph37.8 kmh 30.50 in1032.8 mb 0.00 in0.0 mm 0.00 in/hr0.0 mm/hr 0.00 in0.0 mm
12:25 PM 45.5°F7.5°C 33.6°F0.9°C 63% 7.6 mph SW12.2 kmh SW 23.5 mph37.8 kmh 30.49 in1032.5 mb 0.00 in0.0 mm 0.00 in/hr0.0 mm/hr 0.00 in0.0 mm
12:26 PM 45.5°F7.5°C 33.6°F0.9°C 63% 12.1 mph SW19.5 kmh SW 26.6 mph42.8 kmh 30.49 in1032.5 mb 0.00 in0.0 mm 0.00 in/hr0.0 mm/hr 0.00 in0.0 mm
12:27 PM 45.5°F7.5°C 33.6°F0.9°C 63% 15.2 mph SW24.5 kmh SW 26.6 mph42.8 kmh 30.49 in1032.5 mb 0.00 in0.0 mm 0.00 in/hr0.0 mm/hr 0.00 in0.0 mm
12:28 PM 45.7°F7.6°C 33.8°F1.0°C 63% 9.8 mph SSW15.8 kmh SSW 26.6 mph42.8 kmh 30.50 in1032.8 mb 0.00 in0.0 mm 0.00 in/hr0.0 mm/hr 0.00 in0.0 mm
12:29 PM 45.7°F7.6°C 33.8°F1.0°C 63% 10.7 mph S17.2 kmh S 26.6 mph42.8 kmh 30.49 in1032.5 mb 0.00 in0.0 mm 0.00 in/hr0.0 mm/hr 0.00 in0.0 mm
12:30 PM 45.7°F7.6°C 33.8°F1.0°C 63% 9.8 mph SSW15.8 kmh SSW 26.6 mph42.8 kmh 30.49 in1032.5 mb 0.00 in0.0 mm 0.00 in/hr0.0 mm/hr 0.00 in0.0 mm
12:31 PM 45.7°F7.6°C 33.8°F1.0°C 63% 9.8 mph SSW15.8 kmh SSW 26.6 mph42.8 kmh 30.49 in1032.5 mb 0.00 in0.0 mm 0.00 in/hr0.0 mm/hr 0.00 in0.0 mm
12:32 PM 45.5°F7.5°C 33.6°F0.9°C 63% 8.3 mph SSW13.4 kmh SSW 26.6 mph42.8 kmh 30.49 in1032.5 mb 0.00 in0.0 mm 0.00 in/hr0.0 mm/hr 0.00 in0.0 mm
12:33 PM 45.7°F7.6°C 33.8°F1.0°C 63% 11.4 mph SSW18.3 kmh SSW 26.6 mph42.8 kmh 30.50 in1032.8 mb 0.00 in0.0 mm 0.00 in/hr0.0 mm/hr 0.00 in0.0 mm
12:34 PM 45.7°F7.6°C 33.8°F1.0°C 63% 9.8 mph SSW15.8 kmh SSW 26.6 mph42.8 kmh 30.49 in1032.5 mb 0.00 in0.0 mm 0.00 in/hr0.0 mm/hr 0.00 in0.0 mm
12:35 PM 45.7°F7.6°C 33.8°F1.0°C 63% 13.6 mph SSW21.9 kmh SSW 26.6 mph42.8 kmh 30.49 in1032.5 mb 0.00 in0.0 mm 0.00 in/hr0.0 mm/hr 0.00 in0.0 mm
12:36 PM 45.7°F7.6°C 34.2°F1.2°C 64% 6.0 mph SSW9.7 kmh SSW 26.6 mph42.8 kmh 30.49 in1032.5 mb 0.00 in0.0 mm 0.00 in/hr0.0 mm/hr 0.00 in0.0 mm
12:37 PM 45.9°F7.7°C 34.4°F1.3°C 64% 6.0 mph SSW9.7 kmh SSW 21.3 mph34.3 kmh 30.49 in1032.5 mb 0.00 in0.0 mm 0.00 in/hr0.0 mm/hr 0.00 in0.0 mm
12:38 PM 45.9°F7.7°C 34.0°F1.1°C 63% 7.6 mph SSW12.2 kmh SSW 19.7 mph31.7 kmh 30.49 in1032.5 mb 0.00 in0.0 mm 0.00 in/hr0.0 mm/hr 0.00 in0.0 mm
12:39 PM 45.9°F7.7°C 34.0°F1.1°C 63% 11.4 mph SW18.3 kmh SW 19.7 mph31.7 kmh 30.49 in1032.5 mb 0.00 in0.0 mm 0.00 in/hr0.0 mm/hr 0.00 in0.0 mm
12:40 PM 46.0°F7.8°C 34.2°F1.2°C 63% 14.5 mph SSW23.3 kmh SSW 24.4 mph39.3 kmh 30.49 in1032.5 mb 0.00 in0.0 mm 0.00 in/hr0.0 mm/hr 0.00 in0.0 mm
12:41 PM 46.0°F7.8°C 34.2°F1.2°C 63% 12.1 mph SSW19.5 kmh SSW 24.4 mph39.3 kmh 30.49 in1032.5 mb 0.00 in0.0 mm 0.00 in/hr0.0 mm/hr 0.00 in0.0 mm
12:42 PM 46.0°F7.8°C 34.2°F1.2°C 63% 10.7 mph SSW17.2 kmh SSW 24.4 mph39.3 kmh 30.49 in1032.5 mb 0.00 in0.0 mm 0.00 in/hr0.0 mm/hr 0.00 in0.0 mm
12:43 PM 45.9°F7.7°C 34.0°F1.1°C 63% 9.2 mph SSW14.8 kmh SSW 24.4 mph39.3 kmh 30.50 in1032.8 mb 0.00 in0.0 mm 0.00 in/hr0.0 mm/hr 0.00 in0.0 mm
12:44 PM 46.0°F7.8°C 34.6°F1.4°C 64% 6.0 mph SSW9.7 kmh SSW 24.4 mph39.3 kmh 30.49 in1032.5 mb 0.00 in0.0 mm 0.00 in/hr0.0 mm/hr 0.00 in0.0 mm
12:45 PM 46.0°F7.8°C 34.2°F1.2°C 63% 8.3 mph S13.4 kmh S 24.4 mph39.3 kmh 30.49 in1032.5 mb 0.00 in0.0 mm 0.00 in/hr0.0 mm/hr 0.00 in0.0 mm
12:46 PM 46.0°F7.8°C 34.2°F1.2°C 63% 9.8 mph SSW15.8 kmh SSW 24.4 mph39.3 kmh 30.49 in1032.5 mb 0.00 in0.0 mm 0.00 in/hr0.0 mm/hr 0.00 in0.0 mm
12:47 PM 46.0°F7.8°C 34.2°F1.2°C 63% 9.2 mph SSW14.8 kmh SSW 24.4 mph39.3 kmh 30.48 in1032.2 mb 0.00 in0.0 mm 0.00 in/hr0.0 mm/hr 0.00 in0.0 mm
12:48 PM 46.0°F7.8°C 34.2°F1.2°C 63% 8.3 mph S13.4 kmh S 24.4 mph39.3 kmh 30.49 in1032.5 mb 0.00 in0.0 mm 0.00 in/hr0.0 mm/hr 0.00 in0.0 mm
12:49 PM 46.0°F7.8°C 34.2°F1.2°C 63% 6.9 mph S11.1 kmh S 24.4 mph39.3 kmh 30.48 in1032.2 mb 0.00 in0.0 mm 0.00 in/hr0.0 mm/hr 0.00 in0.0 mm
12:50 PM 46.0°F7.8°C 34.2°F1.2°C 63% 11.4 mph SSW18.3 kmh SSW 24.4 mph39.3 kmh 30.48 in1032.2 mb 0.00 in0.0 mm 0.00 in/hr0.0 mm/hr 0.00 in0.0 mm
12:51 PM 46.0°F7.8°C 34.2°F1.2°C 63% 8.3 mph SSW13.4 kmh SSW 18.3 mph29.5 kmh 30.48 in1032.2 mb 0.00 in0.0 mm 0.00 in/hr0.0 mm/hr 0.00 in0.0 mm
12:52 PM 46.2°F7.9°C 34.3°F1.3°C 63% 9.8 mph SSW15.8 kmh SSW 19.7 mph31.7 kmh 30.49 in1032.5 mb 0.00 in0.0 mm 0.00 in/hr0.0 mm/hr 0.00 in0.0 mm
12:53 PM 46.2°F7.9°C 34.3°F1.3°C 63% 7.6 mph SSW12.2 kmh SSW 19.7 mph31.7 kmh 30.49 in1032.5 mb 0.00 in0.0 mm 0.00 in/hr0.0 mm/hr 0.00 in0.0 mm
12:54 PM 46.2°F7.9°C 34.3°F1.3°C 63% 11.4 mph SSW18.3 kmh SSW 22.8 mph36.7 kmh 30.50 in1032.8 mb 0.00 in0.0 mm 0.00 in/hr0.0 mm/hr 0.00 in0.0 mm
12:55 PM 46.4°F8.0°C 34.5°F1.4°C 63% 5.4 mph SSW8.7 kmh SSW 22.8 mph36.7 kmh 30.49 in1032.5 mb 0.00 in0.0 mm 0.00 in/hr0.0 mm/hr 0.00 in0.0 mm
12:56 PM 46.4°F8.0°C 34.5°F1.4°C 63% 9.2 mph SSW14.8 kmh SSW 22.8 mph36.7 kmh 30.50 in1032.8 mb 0.00 in0.0 mm 0.00 in/hr0.0 mm/hr 0.00 in0.0 mm
12:57 PM 46.4°F8.0°C 34.5°F1.4°C 63% 10.7 mph SSW17.2 kmh SSW 22.8 mph36.7 kmh 30.49 in1032.5 mb 0.00 in0.0 mm 0.00 in/hr0.0 mm/hr 0.00 in0.0 mm
12:58 PM 46.6°F8.1°C 34.7°F1.5°C 63% 6.9 mph SW11.1 kmh SW 22.8 mph36.7 kmh 30.50 in1032.8 mb 0.00 in0.0 mm 0.00 in/hr0.0 mm/hr 0.00 in0.0 mm
12:59 PM 46.6°F8.1°C 34.7°F1.5°C 63% 6.0 mph SW9.7 kmh SW 22.8 mph36.7 kmh 30.50 in1032.8 mb 0.00 in0.0 mm 0.00 in/hr0.0 mm/hr 0.00 in0.0 mm
01:00 PM 46.6°F8.1°C 34.7°F1.5°C 63% 9.2 mph SW14.8 kmh SW 22.8 mph36.7 kmh 30.50 in1032.8 mb 0.00 in0.0 mm 0.00 in/hr0.0 mm/hr 0.00 in0.0 mm
01:01 PM 46.6°F8.1°C 34.3°F1.3°C 62% 13.0 mph SW20.9 kmh SW 22.8 mph36.7 kmh 30.50 in1032.8 mb 0.00 in0.0 mm 0.00 in/hr0.0 mm/hr 0.00 in0.0 mm
01:02 PM 46.6°F8.1°C 34.3°F1.3°C 62% 12.1 mph SW19.5 kmh SW 22.8 mph36.7 kmh 30.50 in1032.8 mb 0.00 in0.0 mm 0.00 in/hr0.0 mm/hr 0.00 in0.0 mm
01:03 PM 46.6°F8.1°C 34.3°F1.3°C 62% 9.8 mph SW15.8 kmh SW 22.8 mph36.7 kmh 30.50 in1032.8 mb 0.00 in0.0 mm 0.00 in/hr0.0 mm/hr 0.00 in0.0 mm
01:04 PM 46.6°F8.1°C 34.3°F1.3°C 62% 11.4 mph SW18.3 kmh SW 23.5 mph37.8 kmh 30.50 in1032.8 mb 0.00 in0.0 mm 0.00 in/hr0.0 mm/hr 0.00 in0.0 mm
01:05 PM 46.4°F8.0°C 34.1°F1.2°C 62% 7.6 mph SW12.2 kmh SW 23.5 mph37.8 kmh 30.50 in1032.8 mb 0.00 in0.0 mm 0.00 in/hr0.0 mm/hr 0.00 in0.0 mm
01:18 PM 46.4°F8.0°C 34.5°F1.4°C 63% 6.0 mph SW9.7 kmh SW 23.5 mph37.8 kmh 30.50 in1032.8 mb 0.00 in0.0 mm 0.00 in/hr0.0 mm/hr 0.00 in0.0 mm
01:19 PM 46.6°F8.1°C 34.3°F1.3°C 62% 9.8 mph S15.8 kmh S 21.3 mph34.3 kmh 30.50 in1032.8 mb 0.00 in0.0 mm 0.00 in/hr0.0 mm/hr 0.00 in0.0 mm
01:20 PM 46.4°F8.0°C 34.1°F1.2°C 62% 9.8 mph S15.8 kmh S 25.1 mph40.4 kmh 30.50 in1032.8 mb 0.00 in0.0 mm 0.00 in/hr0.0 mm/hr 0.00 in0.0 mm
01:21 PM 46.4°F8.0°C 34.1°F1.2°C 62% 9.2 mph S14.8 kmh S 25.1 mph40.4 kmh 30.50 in1032.8 mb 0.00 in0.0 mm 0.00 in/hr0.0 mm/hr 0.00 in0.0 mm
01:22 PM 46.4°F8.0°C 34.1°F1.2°C 62% 9.8 mph S15.8 kmh S 25.1 mph40.4 kmh 30.50 in1032.8 mb 0.00 in0.0 mm 0.00 in/hr0.0 mm/hr 0.00 in0.0 mm
01:23 PM 46.4°F8.0°C 34.1°F1.2°C 62% 9.8 mph SSE15.8 kmh SSE 25.1 mph40.4 kmh 30.50 in1032.8 mb 0.00 in0.0 mm 0.00 in/hr0.0 mm/hr 0.00 in0.0 mm
01:24 PM 46.4°F8.0°C 34.5°F1.4°C 63% 6.9 mph S11.1 kmh S 25.1 mph40.4 kmh 30.50 in1032.8 mb 0.00 in0.0 mm 0.00 in/hr0.0 mm/hr 0.00 in0.0 mm
01:25 PM 46.4°F8.0°C 34.5°F1.4°C 63% 6.9 mph S11.1 kmh S 25.1 mph40.4 kmh 30.49 in1032.5 mb 0.00 in0.0 mm 0.00 in/hr0.0 mm/hr 0.00 in0.0 mm
01:26 PM 46.4°F8.0°C 34.5°F1.4°C 63% 3.8 mph S6.1 kmh S 25.1 mph40.4 kmh 30.50 in1032.8 mb 0.00 in0.0 mm 0.00 in/hr0.0 mm/hr 0.00 in0.0 mm
01:27 PM 46.4°F8.0°C 34.5°F1.4°C 63% 6.0 mph S9.7 kmh S 25.1 mph40.4 kmh 30.50 in1032.8 mb 0.00 in0.0 mm 0.00 in/hr0.0 mm/hr 0.00 in0.0 mm
01:28 PM 46.2°F7.9°C 34.3°F1.3°C 63% 8.3 mph S13.4 kmh S 25.1 mph40.4 kmh 30.50 in1032.8 mb 0.00 in0.0 mm 0.00 in/hr0.0 mm/hr 0.00 in0.0 mm
01:29 PM 46.4°F8.0°C 34.5°F1.4°C 63% 6.9 mph S11.1 kmh S 25.1 mph40.4 kmh 30.50 in1032.8 mb 0.00 in0.0 mm 0.00 in/hr0.0 mm/hr 0.00 in0.0 mm
01:30 PM 46.4°F8.0°C 34.1°F1.2°C 62% 8.3 mph S13.4 kmh S 19.7 mph31.7 kmh 30.49 in1032.5 mb 0.00 in0.0 mm 0.00 in/hr0.0 mm/hr 0.00 in0.0 mm
01:31 PM 46.4°F8.0°C 34.5°F1.4°C 63% 9.8 mph S15.8 kmh S 19.7 mph31.7 kmh 30.50 in1032.8 mb 0.00 in0.0 mm 0.00 in/hr0.0 mm/hr 0.00 in0.0 mm
01:32 PM 46.4°F8.0°C 34.5°F1.4°C 63% 6.0 mph S9.7 kmh S 19.7 mph31.7 kmh 30.50 in1032.8 mb 0.00 in0.0 mm 0.00 in/hr0.0 mm/hr 0.00 in0.0 mm
01:33 PM 46.4°F8.0°C 34.5°F1.4°C 63% 6.0 mph S9.7 kmh S 19.7 mph31.7 kmh 30.50 in1032.8 mb 0.00 in0.0 mm 0.00 in/hr0.0 mm/hr 0.00 in0.0 mm
01:34 PM 46.4°F8.0°C 34.5°F1.4°C 63% 7.6 mph S12.2 kmh S 19.7 mph31.7 kmh 30.49 in1032.5 mb 0.00 in0.0 mm 0.00 in/hr0.0 mm/hr 0.00 in0.0 mm
01:35 PM 46.6°F8.1°C 34.3°F1.3°C 62% 7.6 mph S12.2 kmh S 19.7 mph31.7 kmh 30.50 in1032.8 mb 0.00 in0.0 mm 0.00 in/hr0.0 mm/hr 0.00 in0.0 mm
01:36 PM 46.6°F8.1°C 34.3°F1.3°C 62% 12.1 mph S19.5 kmh S 19.7 mph31.7 kmh 30.50 in1032.8 mb 0.00 in0.0 mm 0.00 in/hr0.0 mm/hr 0.00 in0.0 mm
01:37 PM 46.8°F8.2°C 34.0°F1.1°C 61% 9.2 mph S14.8 kmh S 20.6 mph33.2 kmh 30.50 in1032.8 mb 0.00 in0.0 mm 0.00 in/hr0.0 mm/hr 0.00 in0.0 mm
01:38 PM 46.8°F8.2°C 34.0°F1.1°C 61% 9.2 mph S14.8 kmh S 20.6 mph33.2 kmh 30.50 in1032.8 mb 0.00 in0.0 mm 0.00 in/hr0.0 mm/hr 0.00 in0.0 mm
01:39 PM 46.8°F8.2°C 34.4°F1.3°C 62% 5.4 mph S8.7 kmh S 20.6 mph33.2 kmh 30.50 in1032.8 mb 0.00 in0.0 mm 0.00 in/hr0.0 mm/hr 0.00 in0.0 mm
01:40 PM 46.8°F8.2°C 34.4°F1.3°C 62% 9.2 mph S14.8 kmh S 20.6 mph33.2 kmh 30.50 in1032.8 mb 0.00 in0.0 mm 0.00 in/hr0.0 mm/hr 0.00 in0.0 mm
01:41 PM 46.8°F8.2°C 34.4°F1.3°C 62% 9.8 mph S15.8 kmh S 20.6 mph33.2 kmh 30.50 in1032.8 mb 0.00 in0.0 mm 0.00 in/hr0.0 mm/hr 0.00 in0.0 mm
01:42 PM 46.8°F8.2°C 34.0°F1.1°C 61% 10.7 mph S17.2 kmh S 20.6 mph33.2 kmh 30.50 in1032.8 mb 0.00 in0.0 mm 0.00 in/hr0.0 mm/hr 0.00 in0.0 mm
01:43 PM 46.8°F8.2°C 34.4°F1.3°C 62% 8.3 mph S13.4 kmh S 20.6 mph33.2 kmh 30.51 in1033.2 mb 0.00 in0.0 mm 0.00 in/hr0.0 mm/hr 0.00 in0.0 mm
01:44 PM 46.8°F8.2°C 34.0°F1.1°C 61% 9.2 mph S14.8 kmh S 20.6 mph33.2 kmh 30.50 in1032.8 mb 0.00 in0.0 mm 0.00 in/hr0.0 mm/hr 0.00 in0.0 mm
01:45 PM 46.8°F8.2°C 34.4°F1.3°C 62% 4.5 mph S7.2 kmh S 20.6 mph33.2 kmh 30.50 in1032.8 mb 0.00 in0.0 mm 0.00 in/hr0.0 mm/hr 0.00 in0.0 mm
01:46 PM 46.8°F8.2°C 34.0°F1.1°C 61% 9.2 mph S14.8 kmh S 20.6 mph33.2 kmh 30.50 in1032.8 mb 0.00 in0.0 mm 0.00 in/hr0.0 mm/hr 0.00 in0.0 mm
01:47 PM 46.8°F8.2°C 34.0°F1.1°C 61% 7.6 mph S12.2 kmh S 20.6 mph33.2 kmh 30.50 in1032.8 mb 0.00 in0.0 mm 0.00 in/hr0.0 mm/hr 0.00 in0.0 mm
01:48 PM 46.8°F8.2°C 34.4°F1.3°C 62% 6.9 mph SSW11.1 kmh SSW 18.3 mph29.5 kmh 30.50 in1032.8 mb 0.00 in0.0 mm 0.00 in/hr0.0 mm/hr 0.00 in0.0 mm
01:49 PM 46.8°F8.2°C 34.4°F1.3°C 62% 6.9 mph S11.1 kmh S 18.3 mph29.5 kmh 30.50 in1032.8 mb 0.00 in0.0 mm 0.00 in/hr0.0 mm/hr 0.00 in0.0 mm
01:50 PM 46.8°F8.2°C 34.4°F1.3°C 62% 6.0 mph S9.7 kmh S 18.3 mph29.5 kmh 30.50 in1032.8 mb 0.00 in0.0 mm 0.00 in/hr0.0 mm/hr 0.00 in0.0 mm
01:51 PM 46.8°F8.2°C 34.4°F1.3°C 62% 6.9 mph SSW11.1 kmh SSW 18.3 mph29.5 kmh 30.50 in1032.8 mb 0.00 in0.0 mm 0.00 in/hr0.0 mm/hr 0.00 in0.0 mm
01:52 PM 46.8°F8.2°C 34.0°F1.1°C 61% 10.7 mph SSW17.2 kmh SSW 20.6 mph33.2 kmh 30.50 in1032.8 mb 0.00 in0.0 mm 0.00 in/hr0.0 mm/hr 0.00 in0.0 mm
01:53 PM 46.8°F8.2°C 34.0°F1.1°C 61% 7.6 mph SSW12.2 kmh SSW 20.6 mph33.2 kmh 30.50 in1032.8 mb 0.00 in0.0 mm 0.00 in/hr0.0 mm/hr 0.00 in0.0 mm
01:54 PM 46.8°F8.2°C 34.0°F1.1°C 61% 9.2 mph SSW14.8 kmh SSW 20.6 mph33.2 kmh 30.50 in1032.8 mb 0.00 in0.0 mm 0.00 in/hr0.0 mm/hr 0.00 in0.0 mm
01:55 PM 46.8°F8.2°C 34.0°F1.1°C 61% 9.8 mph SSW15.8 kmh SSW 20.6 mph33.2 kmh 30.50 in1032.8 mb 0.00 in0.0 mm 0.00 in/hr0.0 mm/hr 0.00 in0.0 mm
01:56 PM 46.8°F8.2°C 34.0°F1.1°C 61% 8.3 mph SSW13.4 kmh SSW 22.1 mph35.6 kmh 30.50 in1032.8 mb 0.00 in0.0 mm 0.00 in/hr0.0 mm/hr 0.00 in0.0 mm
01:57 PM 46.8°F8.2°C 34.0°F1.1°C 61% 7.6 mph SSW12.2 kmh SSW 22.1 mph35.6 kmh 30.50 in1032.8 mb 0.00 in0.0 mm 0.00 in/hr0.0 mm/hr 0.00 in0.0 mm
01:58 PM 46.8°F8.2°C 34.0°F1.1°C 61% 7.6 mph SSW12.2 kmh SSW 22.1 mph35.6 kmh 30.50 in1032.8 mb 0.00 in0.0 mm 0.00 in/hr0.0 mm/hr 0.00 in0.0 mm
01:59 PM 46.8°F8.2°C 34.0°F1.1°C 61% 13.6 mph SSW21.9 kmh SSW 22.1 mph35.6 kmh 30.50 in1032.8 mb 0.00 in0.0 mm 0.00 in/hr0.0 mm/hr 0.00 in0.0 mm
02:00 PM 46.8°F8.2°C 34.0°F1.1°C 61% 6.0 mph SSW9.7 kmh SSW 22.1 mph35.6 kmh 30.50 in1032.8 mb 0.00 in0.0 mm 0.00 in/hr0.0 mm/hr 0.00 in0.0 mm
02:01 PM 46.8°F8.2°C 34.0°F1.1°C 61% 9.2 mph SSW14.8 kmh SSW 22.1 mph35.6 kmh 30.50 in1032.8 mb 0.00 in0.0 mm 0.00 in/hr0.0 mm/hr 0.00 in0.0 mm
02:02 PM 46.8°F8.2°C 34.0°F1.1°C 61% 8.3 mph SSW13.4 kmh SSW 22.1 mph35.6 kmh 30.50 in1032.8 mb 0.00 in0.0 mm 0.00 in/hr0.0 mm/hr 0.00 in0.0 mm
02:03 PM 46.6°F8.1°C 33.9°F1.1°C 61% 7.6 mph SSW12.2 kmh SSW 22.1 mph35.6 kmh 30.50 in1032.8 mb 0.00 in0.0 mm 0.00 in/hr0.0 mm/hr 0.00 in0.0 mm
02:04 PM 46.6°F8.1°C 33.5°F0.8°C 60% 14.5 mph SSW23.3 kmh SSW 28.2 mph45.4 kmh 30.50 in1032.8 mb 0.00 in0.0 mm 0.00 in/hr0.0 mm/hr 0.00 in0.0 mm
02:05 PM 46.6°F8.1°C 33.9°F1.1°C 61% 13.0 mph SSW20.9 kmh SSW 28.2 mph45.4 kmh 30.50 in1032.8 mb 0.00 in0.0 mm 0.00 in/hr0.0 mm/hr 0.00 in0.0 mm
02:06 PM 46.6°F8.1°C 33.9°F1.1°C 61% 13.6 mph SW21.9 kmh SW 28.2 mph45.4 kmh 30.50 in1032.8 mb 0.00 in0.0 mm 0.00 in/hr0.0 mm/hr 0.00 in0.0 mm
02:07 PM 46.4°F8.0°C 33.3°F0.7°C 60% 14.5 mph SW23.3 kmh SW 29.8 mph48.0 kmh 30.50 in1032.8 mb 0.00 in0.0 mm 0.00 in/hr0.0 mm/hr 0.00 in0.0 mm
02:08 PM 46.4°F8.0°C 33.7°F0.9°C 61% 12.1 mph SSW19.5 kmh SSW 29.8 mph48.0 kmh 30.50 in1032.8 mb 0.00 in0.0 mm 0.00 in/hr0.0 mm/hr 0.00 in0.0 mm
02:09 PM 46.4°F8.0°C 33.7°F0.9°C 61% 13.6 mph SSW21.9 kmh SSW 29.8 mph48.0 kmh 30.50 in1032.8 mb 0.00 in0.0 mm 0.00 in/hr0.0 mm/hr 0.00 in0.0 mm
02:10 PM 46.4°F8.0°C 33.7°F0.9°C 61% 13.0 mph SSW20.9 kmh SSW 29.8 mph48.0 kmh 30.50 in1032.8 mb 0.00 in0.0 mm 0.00 in/hr0.0 mm/hr 0.00 in0.0 mm
02:11 PM 46.4°F8.0°C 33.7°F0.9°C 61% 7.6 mph SSW12.2 kmh SSW 29.8 mph48.0 kmh 30.50 in1032.8 mb 0.00 in0.0 mm 0.00 in/hr0.0 mm/hr 0.00 in0.0 mm
02:12 PM 46.4°F8.0°C 34.1°F1.2°C 62% 11.4 mph SSW18.3 kmh SSW 29.8 mph48.0 kmh 30.50 in1032.8 mb 0.00 in0.0 mm 0.00 in/hr0.0 mm/hr 0.00 in0.0 mm
02:13 PM 46.2°F7.9°C 33.9°F1.1°C 62% 14.5 mph SSW23.3 kmh SSW 29.8 mph48.0 kmh 30.50 in1032.8 mb 0.00 in0.0 mm 0.00 in/hr0.0 mm/hr 0.00 in0.0 mm
02:14 PM 46.2°F7.9°C 33.9°F1.1°C 62% 11.4 mph S18.3 kmh S 29.8 mph48.0 kmh 30.50 in1032.8 mb 0.00 in0.0 mm 0.00 in/hr0.0 mm/hr 0.00 in0.0 mm
02:15 PM 46.2°F7.9°C 34.3°F1.3°C 63% 9.2 mph S14.8 kmh S 29.8 mph48.0 kmh 30.50 in1032.8 mb 0.00 in0.0 mm 0.00 in/hr0.0 mm/hr 0.00 in0.0 mm
02:16 PM 46.2°F7.9°C 34.3°F1.3°C 63% 10.7 mph S17.2 kmh S 29.8 mph48.0 kmh 30.50 in1032.8 mb 0.00 in0.0 mm 0.00 in/hr0.0 mm/hr 0.00 in0.0 mm
02:17 PM 46.2°F7.9°C 34.3°F1.3°C 63% 13.0 mph S20.9 kmh S 23.5 mph37.8 kmh 30.50 in1032.8 mb 0.00 in0.0 mm 0.00 in/hr0.0 mm/hr 0.00 in0.0 mm
02:18 PM 46.2°F7.9°C 34.3°F1.3°C 63% 7.6 mph S12.2 kmh S 23.5 mph37.8 kmh 30.50 in1032.8 mb 0.00 in0.0 mm 0.00 in/hr0.0 mm/hr 0.00 in0.0 mm
02:19 PM 46.2°F7.9°C 34.3°F1.3°C 63% 8.3 mph S13.4 kmh S 22.8 mph36.7 kmh 30.50 in1032.8 mb 0.00 in0.0 mm 0.00 in/hr0.0 mm/hr 0.00 in0.0 mm
02:20 PM 46.2°F7.9°C 34.3°F1.3°C 63% 10.7 mph S17.2 kmh S 22.8 mph36.7 kmh 30.50 in1032.8 mb 0.00 in0.0 mm 0.00 in/hr0.0 mm/hr 0.00 in0.0 mm
02:21 PM 46.2°F7.9°C 33.5°F0.8°C 61% 17.4 mph S28.0 kmh S 29.8 mph48.0 kmh 30.50 in1032.8 mb 0.00 in0.0 mm 0.00 in/hr0.0 mm/hr 0.00 in0.0 mm
02:22 PM 46.4°F8.0°C 34.1°F1.2°C 62% 15.9 mph S25.6 kmh S 29.8 mph48.0 kmh 30.50 in1032.8 mb 0.00 in0.0 mm 0.00 in/hr0.0 mm/hr 0.00 in0.0 mm
02:23 PM 46.4°F8.0°C 34.1°F1.2°C 62% 9.8 mph S15.8 kmh S 29.8 mph48.0 kmh 30.50 in1032.8 mb 0.00 in0.0 mm 0.00 in/hr0.0 mm/hr 0.00 in0.0 mm
02:24 PM 46.6°F8.1°C 34.3°F1.3°C 62% 8.3 mph S13.4 kmh S 29.8 mph48.0 kmh 30.50 in1032.8 mb 0.00 in0.0 mm 0.00 in/hr0.0 mm/hr 0.00 in0.0 mm
02:25 PM 46.6°F8.1°C 34.3°F1.3°C 62% 7.6 mph S12.2 kmh S 29.8 mph48.0 kmh 30.50 in1032.8 mb 0.00 in0.0 mm 0.00 in/hr0.0 mm/hr 0.00 in0.0 mm
02:26 PM 46.6°F8.1°C 34.3°F1.3°C 62% 7.6 mph S12.2 kmh S 29.8 mph48.0 kmh 30.50 in1032.8 mb 0.00 in0.0 mm 0.00 in/hr0.0 mm/hr 0.00 in0.0 mm
02:27 PM 46.6°F8.1°C 34.3°F1.3°C 62% 9.8 mph S15.8 kmh S 29.8 mph48.0 kmh 30.50 in1032.8 mb 0.00 in0.0 mm 0.00 in/hr0.0 mm/hr 0.00 in0.0 mm
02:28 PM 46.6°F8.1°C 34.3°F1.3°C 62% 13.0 mph S20.9 kmh S 29.8 mph48.0 kmh 30.50 in1032.8 mb 0.00 in0.0 mm 0.00 in/hr0.0 mm/hr 0.00 in0.0 mm
02:29 PM 46.6°F8.1°C 34.3°F1.3°C 62% 15.9 mph S25.6 kmh S 29.8 mph48.0 kmh 30.51 in1033.2 mb 0.00 in0.0 mm 0.00 in/hr0.0 mm/hr 0.00 in0.0 mm
02:30 PM 46.6°F8.1°C 34.3°F1.3°C 62% 13.6 mph S21.9 kmh S 29.8 mph48.0 kmh 30.50 in1032.8 mb 0.00 in0.0 mm 0.00 in/hr0.0 mm/hr 0.00 in0.0 mm
02:31 PM 46.6°F8.1°C 34.3°F1.3°C 62% 11.4 mph S18.3 kmh S 29.8 mph48.0 kmh 30.50 in1032.8 mb 0.00 in0.0 mm 0.00 in/hr0.0 mm/hr 0.00 in0.0 mm
02:32 PM 46.6°F8.1°C 34.7°F1.5°C 63% 9.8 mph S15.8 kmh S 28.2 mph45.4 kmh 30.50 in1032.8 mb 0.00 in0.0 mm 0.00 in/hr0.0 mm/hr 0.00 in0.0 mm
02:33 PM 46.6°F8.1°C 34.7°F1.5°C 63% 9.8 mph S15.8 kmh S 28.2 mph45.4 kmh 30.50 in1032.8 mb 0.00 in0.0 mm 0.00 in/hr0.0 mm/hr 0.00 in0.0 mm
02:34 PM 46.6°F8.1°C 34.7°F1.5°C 63% 11.4 mph S18.3 kmh S 28.2 mph45.4 kmh 30.50 in1032.8 mb 0.00 in0.0 mm 0.00 in/hr0.0 mm/hr 0.00 in0.0 mm
02:35 PM 46.6°F8.1°C 34.7°F1.5°C 63% 14.5 mph S23.3 kmh S 28.2 mph45.4 kmh 30.50 in1032.8 mb 0.00 in0.0 mm 0.00 in/hr0.0 mm/hr 0.00 in0.0 mm
02:36 PM 46.6°F8.1°C 34.7°F1.5°C 63% 7.6 mph S12.2 kmh S 28.2 mph45.4 kmh 30.50 in1032.8 mb 0.00 in0.0 mm 0.00 in/hr0.0 mm/hr 0.00 in0.0 mm
02:37 PM 46.6°F8.1°C 35.1°F1.7°C 64% 8.3 mph S13.4 kmh S 28.2 mph45.4 kmh 30.50 in1032.8 mb 0.00 in0.0 mm 0.00 in/hr0.0 mm/hr 0.00 in0.0 mm
02:38 PM 46.4°F8.0°C 34.9°F1.6°C 64% 7.6 mph S12.2 kmh S 28.2 mph45.4 kmh 30.50 in1032.8 mb 0.00 in0.0 mm 0.00 in/hr0.0 mm/hr 0.00 in0.0 mm
02:39 PM 46.4°F8.0°C 34.9°F1.6°C 64% 9.8 mph SSW15.8 kmh SSW 28.2 mph45.4 kmh 30.50 in1032.8 mb 0.00 in0.0 mm 0.00 in/hr0.0 mm/hr 0.00 in0.0 mm
02:40 PM 46.4°F8.0°C 34.9°F1.6°C 64% 11.4 mph SW18.3 kmh SW 22.1 mph35.6 kmh 30.50 in1032.8 mb 0.00 in0.0 mm 0.00 in/hr0.0 mm/hr 0.00 in0.0 mm
02:41 PM 46.4°F8.0°C 34.9°F1.6°C 64% 6.9 mph SW11.1 kmh SW 22.1 mph35.6 kmh 30.50 in1032.8 mb 0.00 in0.0 mm 0.00 in/hr0.0 mm/hr 0.00 in0.0 mm
02:42 PM 46.4°F8.0°C 34.9°F1.6°C 64% 5.4 mph SW8.7 kmh SW 22.1 mph35.6 kmh 30.50 in1032.8 mb 0.00 in0.0 mm 0.00 in/hr0.0 mm/hr 0.00 in0.0 mm
02:43 PM 46.2°F7.9°C 34.7°F1.5°C 64% 7.6 mph SW12.2 kmh SW 22.1 mph35.6 kmh 30.50 in1032.8 mb 0.00 in0.0 mm 0.00 in/hr0.0 mm/hr 0.00 in0.0 mm
02:44 PM 46.2°F7.9°C 35.1°F1.7°C 65% 5.4 mph SSW8.7 kmh SSW 22.1 mph35.6 kmh 30.50 in1032.8 mb 0.00 in0.0 mm 0.00 in/hr0.0 mm/hr 0.00 in0.0 mm
02:45 PM 46.2°F7.9°C 35.1°F1.7°C 65% 7.6 mph SW12.2 kmh SW 22.1 mph35.6 kmh 30.50 in1032.8 mb 0.00 in0.0 mm 0.00 in/hr0.0 mm/hr 0.00 in0.0 mm
02:46 PM 46.2°F7.9°C 34.7°F1.5°C 64% 12.1 mph SW19.5 kmh SW 22.1 mph35.6 kmh 30.50 in1032.8 mb 0.00 in0.0 mm 0.00 in/hr0.0 mm/hr 0.00 in0.0 mm
02:47 PM 46.2°F7.9°C 34.7°F1.5°C 64% 9.8 mph SW15.8 kmh SW 22.1 mph35.6 kmh 30.50 in1032.8 mb 0.00 in0.0 mm 0.00 in/hr0.0 mm/hr 0.00 in0.0 mm
02:48 PM 46.2°F7.9°C 34.7°F1.5°C 64% 9.8 mph SSW15.8 kmh SSW 22.1 mph35.6 kmh 30.50 in1032.8 mb 0.00 in0.0 mm 0.00 in/hr0.0 mm/hr 0.00 in0.0 mm
02:49 PM 46.2°F7.9°C 34.7°F1.5°C 64% 10.7 mph S17.2 kmh S 22.1 mph35.6 kmh 30.49 in1032.5 mb 0.00 in0.0 mm 0.00 in/hr0.0 mm/hr 0.00 in0.0 mm
02:50 PM 46.2°F7.9°C 34.7°F1.5°C 64% 8.3 mph S13.4 kmh S 22.1 mph35.6 kmh 30.50 in1032.8 mb 0.00 in0.0 mm 0.00 in/hr0.0 mm/hr 0.00 in0.0 mm
02:51 PM 46.2°F7.9°C 34.7°F1.5°C 64% 15.9 mph S25.6 kmh S 26.6 mph42.8 kmh 30.50 in1032.8 mb 0.00 in0.0 mm 0.00 in/hr0.0 mm/hr 0.00 in0.0 mm
02:52 PM 46.2°F7.9°C 34.7°F1.5°C 64% 9.8 mph S15.8 kmh S 26.6 mph42.8 kmh 30.50 in1032.8 mb 0.00 in0.0 mm 0.00 in/hr0.0 mm/hr 0.00 in0.0 mm
02:53 PM 46.2°F7.9°C 34.7°F1.5°C 64% 12.1 mph S19.5 kmh S 26.6 mph42.8 kmh 30.50 in1032.8 mb 0.00 in0.0 mm 0.00 in/hr0.0 mm/hr 0.00 in0.0 mm
02:54 PM 46.2°F7.9°C 34.7°F1.5°C 64% 9.2 mph SSW14.8 kmh SSW 26.6 mph42.8 kmh 30.49 in1032.5 mb 0.00 in0.0 mm 0.00 in/hr0.0 mm/hr 0.00 in0.0 mm
02:55 PM 46.2°F7.9°C 34.7°F1.5°C 64% 11.4 mph S18.3 kmh S 26.6 mph42.8 kmh 30.49 in1032.5 mb 0.00 in0.0 mm 0.00 in/hr0.0 mm/hr 0.00 in0.0 mm
02:56 PM 46.0°F7.8°C 34.6°F1.4°C 64% 7.6 mph S12.2 kmh S 26.6 mph42.8 kmh 30.50 in1032.8 mb 0.00 in0.0 mm 0.00 in/hr0.0 mm/hr 0.00 in0.0 mm
02:57 PM 46.0°F7.8°C 34.6°F1.4°C 64% 9.2 mph SSW14.8 kmh SSW 26.6 mph42.8 kmh 30.49 in1032.5 mb 0.00 in0.0 mm 0.00 in/hr0.0 mm/hr 0.00 in0.0 mm
02:58 PM 46.0°F7.8°C 34.6°F1.4°C 64% 6.0 mph SSW9.7 kmh SSW 26.6 mph42.8 kmh 30.49 in1032.5 mb 0.00 in0.0 mm 0.00 in/hr0.0 mm/hr 0.00 in0.0 mm
02:59 PM 46.0°F7.8°C 34.6°F1.4°C 64% 8.3 mph SSW13.4 kmh SSW 26.6 mph42.8 kmh 30.49 in1032.5 mb 0.00 in0.0 mm 0.00 in/hr0.0 mm/hr 0.00 in0.0 mm
03:00 PM 46.0°F7.8°C 34.6°F1.4°C 64% 12.1 mph SSW19.5 kmh SSW 26.6 mph42.8 kmh 30.50 in1032.8 mb 0.00 in0.0 mm 0.00 in/hr0.0 mm/hr 0.00 in0.0 mm
03:01 PM 46.0°F7.8°C 34.6°F1.4°C 64% 6.9 mph S11.1 kmh S 23.5 mph37.8 kmh 30.50 in1032.8 mb 0.00 in0.0 mm 0.00 in/hr0.0 mm/hr 0.00 in0.0 mm
03:02 PM 46.0°F7.8°C 34.6°F1.4°C 64% 7.6 mph S12.2 kmh S 23.5 mph37.8 kmh 30.50 in1032.8 mb 0.00 in0.0 mm 0.00 in/hr0.0 mm/hr 0.00 in0.0 mm
03:03 PM 45.9°F7.7°C 34.4°F1.3°C 64% 9.2 mph S14.8 kmh S 23.5 mph37.8 kmh 30.50 in1032.8 mb 0.00 in0.0 mm 0.00 in/hr0.0 mm/hr 0.00 in0.0 mm
03:04 PM 45.9°F7.7°C 34.8°F1.6°C 65% 6.0 mph S9.7 kmh S 23.5 mph37.8 kmh 30.50 in1032.8 mb 0.00 in0.0 mm 0.00 in/hr0.0 mm/hr 0.00 in0.0 mm
03:05 PM 45.9°F7.7°C 34.8°F1.6°C 65% 4.5 mph S7.2 kmh S 23.5 mph37.8 kmh 30.49 in1032.5 mb 0.00 in0.0 mm 0.00 in/hr0.0 mm/hr 0.00 in0.0 mm
03:06 PM 45.9°F7.7°C 34.8°F1.6°C 65% 6.0 mph S9.7 kmh S 23.5 mph37.8 kmh 30.50 in1032.8 mb 0.00 in0.0 mm 0.00 in/hr0.0 mm/hr 0.00 in0.0 mm
03:07 PM 45.9°F7.7°C 34.8°F1.6°C 65% 6.9 mph S11.1 kmh S 23.5 mph37.8 kmh 30.50 in1032.8 mb 0.00 in0.0 mm 0.00 in/hr0.0 mm/hr 0.00 in0.0 mm
03:08 PM 45.7°F7.6°C 34.6°F1.4°C 65% 13.0 mph S20.9 kmh S 23.5 mph37.8 kmh 30.50 in1032.8 mb 0.00 in0.0 mm 0.00 in/hr0.0 mm/hr 0.00 in0.0 mm
03:09 PM 45.9°F7.7°C 34.8°F1.6°C 65% 8.3 mph S13.4 kmh S 23.5 mph37.8 kmh 30.50 in1032.8 mb 0.00 in0.0 mm 0.00 in/hr0.0 mm/hr 0.00 in0.0 mm
03:10 PM 45.9°F7.7°C 34.8°F1.6°C 65% 7.6 mph S12.2 kmh S 19.0 mph30.6 kmh 30.50 in1032.8 mb 0.00 in0.0 mm 0.00 in/hr0.0 mm/hr 0.00 in0.0 mm
03:11 PM 45.9°F7.7°C 34.8°F1.6°C 65% 11.4 mph SSW18.3 kmh SSW 19.0 mph30.6 kmh 30.50 in1032.8 mb 0.00 in0.0 mm 0.00 in/hr0.0 mm/hr 0.00 in0.0 mm
03:12 PM 45.9°F7.7°C 34.4°F1.3°C 64% 11.4 mph SSW18.3 kmh SSW 19.0 mph30.6 kmh 30.50 in1032.8 mb 0.00 in0.0 mm 0.00 in/hr0.0 mm/hr 0.00 in0.0 mm
03:13 PM 45.9°F7.7°C 34.4°F1.3°C 64% 10.7 mph SSW17.2 kmh SSW 19.0 mph30.6 kmh 30.50 in1032.8 mb 0.00 in0.0 mm 0.00 in/hr0.0 mm/hr 0.00 in0.0 mm
03:14 PM 46.0°F7.8°C 34.6°F1.4°C 64% 9.8 mph SSW15.8 kmh SSW 19.0 mph30.6 kmh 30.50 in1032.8 mb 0.00 in0.0 mm 0.00 in/hr0.0 mm/hr 0.00 in0.0 mm
03:15 PM 46.0°F7.8°C 34.2°F1.2°C 63% 13.0 mph S20.9 kmh S 20.6 mph33.2 kmh 30.50 in1032.8 mb 0.00 in0.0 mm 0.00 in/hr0.0 mm/hr 0.00 in0.0 mm
03:16 PM 46.2°F7.9°C 34.3°F1.3°C 63% 6.9 mph S11.1 kmh S 20.6 mph33.2 kmh 30.50 in1032.8 mb 0.00 in0.0 mm 0.00 in/hr0.0 mm/hr 0.00 in0.0 mm
03:17 PM 46.2°F7.9°C 34.3°F1.3°C 63% 8.3 mph S13.4 kmh S 20.6 mph33.2 kmh 30.50 in1032.8 mb 0.00 in0.0 mm 0.00 in/hr0.0 mm/hr 0.00 in0.0 mm
03:18 PM 46.2°F7.9°C 34.3°F1.3°C 63% 7.6 mph S12.2 kmh S 20.6 mph33.2 kmh 30.50 in1032.8 mb 0.00 in0.0 mm 0.00 in/hr0.0 mm/hr 0.00 in0.0 mm
03:19 PM 46.2°F7.9°C 34.3°F1.3°C 63% 9.8 mph S15.8 kmh S 20.6 mph33.2 kmh 30.50 in1032.8 mb 0.00 in0.0 mm 0.00 in/hr0.0 mm/hr 0.00 in0.0 mm
03:20 PM 46.2°F7.9°C 34.7°F1.5°C 64% 8.3 mph S13.4 kmh S 20.6 mph33.2 kmh 30.49 in1032.5 mb 0.00 in0.0 mm 0.00 in/hr0.0 mm/hr 0.00 in0.0 mm
03:21 PM 46.2°F7.9°C 34.7°F1.5°C 64% 6.9 mph S11.1 kmh S 20.6 mph33.2 kmh 30.50 in1032.8 mb 0.00 in0.0 mm 0.00 in/hr0.0 mm/hr 0.00 in0.0 mm
03:22 PM 46.2°F7.9°C 34.3°F1.3°C 63% 13.6 mph SSW21.9 kmh SSW 25.1 mph40.4 kmh 30.50 in1032.8 mb 0.00 in0.0 mm 0.00 in/hr0.0 mm/hr 0.00 in0.0 mm
03:23 PM 46.2°F7.9°C 34.3°F1.3°C 63% 11.4 mph SSW18.3 kmh SSW 25.1 mph40.4 kmh 30.49 in1032.5 mb 0.00 in0.0 mm 0.00 in/hr0.0 mm/hr 0.00 in0.0 mm
03:24 PM 46.2°F7.9°C 34.3°F1.3°C 63% 13.0 mph SSW20.9 kmh SSW 25.9 mph41.7 kmh 30.50 in1032.8 mb 0.00 in0.0 mm 0.00 in/hr0.0 mm/hr 0.00 in0.0 mm
03:25 PM 46.2°F7.9°C 33.9°F1.1°C 62% 12.1 mph SSW19.5 kmh SSW 25.9 mph41.7 kmh 30.50 in1032.8 mb 0.00 in0.0 mm 0.00 in/hr0.0 mm/hr 0.00 in0.0 mm
03:26 PM 46.4°F8.0°C 34.1°F1.2°C 62% 13.0 mph SSW20.9 kmh SSW 25.9 mph41.7 kmh 30.50 in1032.8 mb 0.00 in0.0 mm 0.00 in/hr0.0 mm/hr 0.00 in0.0 mm
03:27 PM 46.4°F8.0°C 34.1°F1.2°C 62% 13.0 mph SSW20.9 kmh SSW 25.9 mph41.7 kmh 30.49 in1032.5 mb 0.00 in0.0 mm 0.00 in/hr0.0 mm/hr 0.00 in0.0 mm
03:28 PM 46.4°F8.0°C 34.1°F1.2°C 62% 13.6 mph SSW21.9 kmh SSW 25.9 mph41.7 kmh 30.50 in1032.8 mb 0.00 in0.0 mm 0.00 in/hr0.0 mm/hr 0.00 in0.0 mm
03:29 PM 46.4°F8.0°C 34.1°F1.2°C 62% 10.7 mph SSW17.2 kmh SSW 25.9 mph41.7 kmh 30.49 in1032.5 mb 0.00 in0.0 mm 0.00 in/hr0.0 mm/hr 0.00 in0.0 mm
03:30 PM 46.4°F8.0°C 34.1°F1.2°C 62% 15.2 mph SSW24.5 kmh SSW 25.9 mph41.7 kmh 30.50 in1032.8 mb 0.00 in0.0 mm 0.00 in/hr0.0 mm/hr 0.00 in0.0 mm
03:31 PM 46.4°F8.0°C 34.1°F1.2°C 62% 13.0 mph SSW20.9 kmh SSW 25.9 mph41.7 kmh 30.50 in1032.8 mb 0.00 in0.0 mm 0.00 in/hr0.0 mm/hr 0.00 in0.0 mm
03:32 PM 46.4°F8.0°C 34.1°F1.2°C 62% 7.6 mph SSW12.2 kmh SSW 25.9 mph41.7 kmh 30.50 in1032.8 mb 0.00 in0.0 mm 0.00 in/hr0.0 mm/hr 0.00 in0.0 mm
03:33 PM 46.2°F7.9°C 34.3°F1.3°C 63% 6.9 mph SSW11.1 kmh SSW 25.9 mph41.7 kmh 30.50 in1032.8 mb 0.00 in0.0 mm 0.00 in/hr0.0 mm/hr 0.00 in0.0 mm
03:34 PM 46.2°F7.9°C 34.3°F1.3°C 63% 6.9 mph SSW11.1 kmh SSW 25.9 mph41.7 kmh 30.50 in1032.8 mb 0.00 in0.0 mm 0.00 in/hr0.0 mm/hr 0.00 in0.0 mm
03:35 PM 46.2°F7.9°C 34.3°F1.3°C 63% 11.4 mph SSW18.3 kmh SSW 22.8 mph36.7 kmh 30.50 in1032.8 mb 0.00 in0.0 mm 0.00 in/hr0.0 mm/hr 0.00 in0.0 mm
03:36 PM 46.0°F7.8°C 34.2°F1.2°C 63% 7.6 mph SSW12.2 kmh SSW 22.8 mph36.7 kmh 30.50 in1032.8 mb 0.00 in0.0 mm 0.00 in/hr0.0 mm/hr 0.00 in0.0 mm
03:37 PM 46.0°F7.8°C 34.2°F1.2°C 63% 10.7 mph SSW17.2 kmh SSW 22.8 mph36.7 kmh 30.50 in1032.8 mb 0.00 in0.0 mm 0.00 in/hr0.0 mm/hr 0.00 in0.0 mm
03:38 PM 45.9°F7.7°C 34.0°F1.1°C 63% 9.8 mph SSW15.8 kmh SSW 22.8 mph36.7 kmh 30.50 in1032.8 mb 0.00 in0.0 mm 0.00 in/hr0.0 mm/hr 0.00 in0.0 mm
03:39 PM 45.9°F7.7°C 34.0°F1.1°C 63% 9.8 mph SSW15.8 kmh SSW 21.3 mph34.3 kmh 30.50 in1032.8 mb 0.00 in0.0 mm 0.00 in/hr0.0 mm/hr 0.00 in0.0 mm
03:40 PM 45.9°F7.7°C 34.4°F1.3°C 64% 5.4 mph SSW8.7 kmh SSW 21.3 mph34.3 kmh 30.50 in1032.8 mb 0.00 in0.0 mm 0.00 in/hr0.0 mm/hr 0.00 in0.0 mm
03:41 PM 45.9°F7.7°C 34.0°F1.1°C 63% 6.9 mph SSW11.1 kmh SSW 20.6 mph33.2 kmh 30.50 in1032.8 mb 0.00 in0.0 mm 0.00 in/hr0.0 mm/hr 0.00 in0.0 mm
03:42 PM 45.9°F7.7°C 34.4°F1.3°C 64% 6.0 mph SSW9.7 kmh SSW 20.6 mph33.2 kmh 30.50 in1032.8 mb 0.00 in0.0 mm 0.00 in/hr0.0 mm/hr 0.00 in0.0 mm
03:43 PM 45.7°F7.6°C 34.2°F1.2°C 64% 6.0 mph SSW9.7 kmh SSW 20.6 mph33.2 kmh 30.50 in1032.8 mb 0.00 in0.0 mm 0.00 in/hr0.0 mm/hr 0.00 in0.0 mm
03:44 PM 45.7°F7.6°C 34.2°F1.2°C 64% 4.5 mph SSW7.2 kmh SSW 20.6 mph33.2 kmh 30.51 in1033.2 mb 0.00 in0.0 mm 0.00 in/hr0.0 mm/hr 0.00 in0.0 mm
03:45 PM 45.7°F7.6°C 34.2°F1.2°C 64% 6.0 mph S9.7 kmh S 17.4 mph28.0 kmh 30.51 in1033.2 mb 0.00 in0.0 mm 0.00 in/hr0.0 mm/hr 0.00 in0.0 mm
03:46 PM 45.5°F7.5°C 34.0°F1.1°C 64% 8.3 mph S13.4 kmh S 17.4 mph28.0 kmh 30.51 in1033.2 mb 0.00 in0.0 mm 0.00 in/hr0.0 mm/hr 0.00 in0.0 mm
03:47 PM 45.5°F7.5°C 34.0°F1.1°C 64% 6.9 mph S11.1 kmh S 17.4 mph28.0 kmh 30.51 in1033.2 mb 0.00 in0.0 mm 0.00 in/hr0.0 mm/hr 0.00 in0.0 mm
03:48 PM 45.7°F7.6°C 34.2°F1.2°C 64% 10.7 mph S17.2 kmh S 17.4 mph28.0 kmh 30.51 in1033.2 mb 0.00 in0.0 mm 0.00 in/hr0.0 mm/hr 0.00 in0.0 mm
03:49 PM 45.7°F7.6°C 34.2°F1.2°C 64% 7.6 mph S12.2 kmh S 15.9 mph25.6 kmh 30.51 in1033.2 mb 0.00 in0.0 mm 0.00 in/hr0.0 mm/hr 0.00 in0.0 mm
03:50 PM 45.7°F7.6°C 34.2°F1.2°C 64% 4.5 mph S7.2 kmh S 15.9 mph25.6 kmh 30.51 in1033.2 mb 0.00 in0.0 mm 0.00 in/hr0.0 mm/hr 0.00 in0.0 mm
03:51 PM 45.9°F7.7°C 34.4°F1.3°C 64% 4.5 mph S7.2 kmh S 15.9 mph25.6 kmh 30.51 in1033.2 mb 0.00 in0.0 mm 0.00 in/hr0.0 mm/hr 0.00 in0.0 mm
03:52 PM 45.7°F7.6°C 34.2°F1.2°C 64% 9.2 mph S14.8 kmh S 16.8 mph27.0 kmh 30.52 in1033.5 mb 0.00 in0.0 mm 0.00 in/hr0.0 mm/hr 0.00 in0.0 mm
03:53 PM 45.7°F7.6°C 34.2°F1.2°C 64% 11.4 mph SSW18.3 kmh SSW 22.1 mph35.6 kmh 30.52 in1033.5 mb 0.00 in0.0 mm 0.00 in/hr0.0 mm/hr 0.00 in0.0 mm
03:54 PM 45.9°F7.7°C 34.4°F1.3°C 64% 12.1 mph SSW19.5 kmh SSW 22.1 mph35.6 kmh 30.51 in1033.2 mb 0.00 in0.0 mm 0.00 in/hr0.0 mm/hr 0.00 in0.0 mm
03:55 PM 46.0°F7.8°C 34.6°F1.4°C 64% 10.7 mph SSW17.2 kmh SSW 22.1 mph35.6 kmh 30.51 in1033.2 mb 0.00 in0.0 mm 0.00 in/hr0.0 mm/hr 0.00 in0.0 mm
03:56 PM 46.0°F7.8°C 34.6°F1.4°C 64% 9.2 mph SSW14.8 kmh SSW 22.1 mph35.6 kmh 30.51 in1033.2 mb 0.00 in0.0 mm 0.00 in/hr0.0 mm/hr 0.00 in0.0 mm
03:57 PM 46.0°F7.8°C 34.2°F1.2°C 63% 6.0 mph SSW9.7 kmh SSW 22.1 mph35.6 kmh 30.52 in1033.5 mb 0.00 in0.0 mm 0.00 in/hr0.0 mm/hr 0.00 in0.0 mm
03:58 PM 46.0°F7.8°C 34.2°F1.2°C 63% 11.4 mph SSW18.3 kmh SSW 22.1 mph35.6 kmh 30.52 in1033.5 mb 0.00 in0.0 mm 0.00 in/hr0.0 mm/hr 0.00 in0.0 mm
03:59 PM 46.0°F7.8°C 34.2°F1.2°C 63% 8.3 mph SW13.4 kmh SW 22.1 mph35.6 kmh 30.51 in1033.2 mb 0.00 in0.0 mm 0.00 in/hr0.0 mm/hr 0.00 in0.0 mm
04:00 PM 46.0°F7.8°C 34.2°F1.2°C 63% 8.3 mph SSW13.4 kmh SSW 22.1 mph35.6 kmh 30.51 in1033.2 mb 0.00 in0.0 mm 0.00 in/hr0.0 mm/hr 0.00 in0.0 mm
04:01 PM 46.2°F7.9°C 34.3°F1.3°C 63% 10.7 mph SW17.2 kmh SW 25.9 mph41.7 kmh 30.51 in1033.2 mb 0.00 in0.0 mm 0.00 in/hr0.0 mm/hr 0.00 in0.0 mm
04:02 PM 46.2°F7.9°C 34.3°F1.3°C 63% 11.4 mph SW18.3 kmh SW 25.9 mph41.7 kmh 30.51 in1033.2 mb 0.00 in0.0 mm 0.00 in/hr0.0 mm/hr 0.00 in0.0 mm
04:03 PM 46.2°F7.9°C 34.3°F1.3°C 63% 7.6 mph SSW12.2 kmh SSW 25.9 mph41.7 kmh 30.51 in1033.2 mb 0.00 in0.0 mm 0.00 in/hr0.0 mm/hr 0.00 in0.0 mm
04:04 PM 46.2°F7.9°C 34.7°F1.5°C 64% 9.2 mph SSW14.8 kmh SSW 25.9 mph41.7 kmh 30.51 in1033.2 mb 0.00 in0.0 mm 0.00 in/hr0.0 mm/hr 0.00 in0.0 mm
04:05 PM 46.2°F7.9°C 34.7°F1.5°C 64% 9.8 mph SSW15.8 kmh SSW 25.9 mph41.7 kmh 30.51 in1033.2 mb 0.00 in0.0 mm 0.00 in/hr0.0 mm/hr 0.00 in0.0 mm
04:06 PM 46.2°F7.9°C 34.7°F1.5°C 64% 7.6 mph SSW12.2 kmh SSW 25.9 mph41.7 kmh 30.51 in1033.2 mb 0.00 in0.0 mm 0.00 in/hr0.0 mm/hr 0.00 in0.0 mm
04:07 PM 46.0°F7.8°C 34.6°F1.4°C 64% 6.9 mph SSW11.1 kmh SSW 25.9 mph41.7 kmh 30.51 in1033.2 mb 0.00 in0.0 mm 0.00 in/hr0.0 mm/hr 0.00 in0.0 mm
04:08 PM 46.0°F7.8°C 34.6°F1.4°C 64% 6.0 mph SSW9.7 kmh SSW 25.9 mph41.7 kmh 30.51 in1033.2 mb 0.00 in0.0 mm 0.00 in/hr0.0 mm/hr 0.00 in0.0 mm
04:09 PM 46.0°F7.8°C 34.6°F1.4°C 64% 8.3 mph S13.4 kmh S 25.9 mph41.7 kmh 30.52 in1033.5 mb 0.00 in0.0 mm 0.00 in/hr0.0 mm/hr 0.00 in0.0 mm
04:10 PM 46.0°F7.8°C 34.6°F1.4°C 64% 9.8 mph S15.8 kmh S 25.9 mph41.7 kmh 30.51 in1033.2 mb 0.00 in0.0 mm 0.00 in/hr0.0 mm/hr 0.00 in0.0 mm
04:11 PM 46.0°F7.8°C 34.2°F1.2°C 63% 11.4 mph S18.3 kmh S 26.6 mph42.8 kmh 30.52 in1033.5 mb 0.00 in0.0 mm 0.00 in/hr0.0 mm/hr 0.00 in0.0 mm
04:12 PM 46.0°F7.8°C 34.2°F1.2°C 63% 13.6 mph S21.9 kmh S 26.6 mph42.8 kmh 30.52 in1033.5 mb 0.00 in0.0 mm 0.00 in/hr0.0 mm/hr 0.00 in0.0 mm
04:13 PM 46.0°F7.8°C 34.6°F1.4°C 64% 8.3 mph S13.4 kmh S 26.6 mph42.8 kmh 30.52 in1033.5 mb 0.00 in0.0 mm 0.00 in/hr0.0 mm/hr 0.00 in0.0 mm
04:14 PM 46.2°F7.9°C 34.3°F1.3°C 63% 10.7 mph S17.2 kmh S 26.6 mph42.8 kmh 30.53 in1033.9 mb 0.00 in0.0 mm 0.00 in/hr0.0 mm/hr 0.00 in0.0 mm
04:15 PM 46.0°F7.8°C 34.6°F1.4°C 64% 6.9 mph S11.1 kmh S 26.6 mph42.8 kmh 30.52 in1033.5 mb 0.00 in0.0 mm 0.00 in/hr0.0 mm/hr 0.00 in0.0 mm
04:16 PM 46.0°F7.8°C 34.6°F1.4°C 64% 9.2 mph S14.8 kmh S 26.6 mph42.8 kmh 30.52 in1033.5 mb 0.00 in0.0 mm 0.00 in/hr0.0 mm/hr 0.00 in0.0 mm
04:17 PM 46.0°F7.8°C 34.2°F1.2°C 63% 13.6 mph S21.9 kmh S 26.6 mph42.8 kmh 30.52 in1033.5 mb 0.00 in0.0 mm 0.00 in/hr0.0 mm/hr 0.00 in0.0 mm
04:18 PM 46.2°F7.9°C 34.7°F1.5°C 64% 9.8 mph S15.8 kmh S 26.6 mph42.8 kmh 30.53 in1033.9 mb 0.00 in0.0 mm 0.00 in/hr0.0 mm/hr 0.00 in0.0 mm
04:19 PM 46.2°F7.9°C 34.7°F1.5°C 64% 8.3 mph S13.4 kmh S 26.6 mph42.8 kmh 30.52 in1033.5 mb 0.00 in0.0 mm 0.00 in/hr0.0 mm/hr 0.00 in0.0 mm
04:20 PM 46.2°F7.9°C 34.7°F1.5°C 64% 9.8 mph S15.8 kmh S 26.6 mph42.8 kmh 30.52 in1033.5 mb 0.00 in0.0 mm 0.00 in/hr0.0 mm/hr 0.00 in0.0 mm
04:21 PM 46.2°F7.9°C 34.3°F1.3°C 63% 13.0 mph S20.9 kmh S 26.6 mph42.8 kmh 30.52 in1033.5 mb 0.00 in0.0 mm 0.00 in/hr0.0 mm/hr 0.00 in0.0 mm
04:22 PM 46.2°F7.9°C 34.7°F1.5°C 64% 9.8 mph S15.8 kmh S 24.4 mph39.3 kmh 30.53 in1033.9 mb 0.00 in0.0 mm 0.00 in/hr0.0 mm/hr 0.00 in0.0 mm
04:23 PM 46.2°F7.9°C 34.7°F1.5°C 64% 9.2 mph S14.8 kmh S 23.5 mph37.8 kmh 30.52 in1033.5 mb 0.00 in0.0 mm 0.00 in/hr0.0 mm/hr 0.00 in0.0 mm
04:24 PM 46.2°F7.9°C 34.3°F1.3°C 63% 9.2 mph SSW14.8 kmh SSW 23.5 mph37.8 kmh 30.53 in1033.9 mb 0.00 in0.0 mm 0.00 in/hr0.0 mm/hr 0.00 in0.0 mm
04:25 PM 46.2°F7.9°C 34.7°F1.5°C 64% 13.0 mph SSW20.9 kmh SSW 23.5 mph37.8 kmh 30.53 in1033.9 mb 0.00 in0.0 mm 0.00 in/hr0.0 mm/hr 0.00 in0.0 mm
04:26 PM 46.2°F7.9°C 34.3°F1.3°C 63% 9.8 mph SSW15.8 kmh SSW 23.5 mph37.8 kmh 30.53 in1033.9 mb 0.00 in0.0 mm 0.00 in/hr0.0 mm/hr 0.00 in0.0 mm
04:27 PM 46.2°F7.9°C 34.7°F1.5°C 64% 9.8 mph SSW15.8 kmh SSW 23.5 mph37.8 kmh 30.53 in1033.9 mb 0.00 in0.0 mm 0.00 in/hr0.0 mm/hr 0.00 in0.0 mm
04:28 PM 46.2°F7.9°C 34.7°F1.5°C 64% 9.8 mph SW15.8 kmh SW 23.5 mph37.8 kmh 30.52 in1033.5 mb 0.00 in0.0 mm 0.00 in/hr0.0 mm/hr 0.00 in0.0 mm
04:29 PM 46.2°F7.9°C 34.7°F1.5°C 64% 6.9 mph SW11.1 kmh SW 23.5 mph37.8 kmh 30.53 in1033.9 mb 0.00 in0.0 mm 0.00 in/hr0.0 mm/hr 0.00 in0.0 mm
04:30 PM 46.2°F7.9°C 34.7°F1.5°C 64% 9.2 mph SSW14.8 kmh SSW 23.5 mph37.8 kmh 30.53 in1033.9 mb 0.00 in0.0 mm 0.00 in/hr0.0 mm/hr 0.00 in0.0 mm
04:31 PM 46.2°F7.9°C 34.3°F1.3°C 63% 9.8 mph SSW15.8 kmh SSW 23.5 mph37.8 kmh 30.53 in1033.9 mb 0.00 in0.0 mm 0.00 in/hr0.0 mm/hr 0.00 in0.0 mm
04:32 PM 46.2°F7.9°C 34.3°F1.3°C 63% 13.6 mph SW21.9 kmh SW 22.8 mph36.7 kmh 30.52 in1033.5 mb 0.00 in0.0 mm 0.00 in/hr0.0 mm/hr 0.00 in0.0 mm
04:33 PM 46.2°F7.9°C 34.3°F1.3°C 63% 15.2 mph SW24.5 kmh SW 28.2 mph45.4 kmh 30.52 in1033.5 mb 0.00 in0.0 mm 0.00 in/hr0.0 mm/hr 0.00 in0.0 mm
04:34 PM 46.2°F7.9°C 34.3°F1.3°C 63% 13.6 mph SW21.9 kmh SW 28.2 mph45.4 kmh 30.52 in1033.5 mb 0.00 in0.0 mm 0.00 in/hr0.0 mm/hr 0.00 in0.0 mm
04:35 PM 46.4°F8.0°C 34.5°F1.4°C 63% 10.7 mph SW17.2 kmh SW 28.2 mph45.4 kmh 30.52 in1033.5 mb 0.00 in0.0 mm 0.00 in/hr0.0 mm/hr 0.00 in0.0 mm
04:36 PM 46.4°F8.0°C 34.1°F1.2°C 62% 11.4 mph SW18.3 kmh SW 28.2 mph45.4 kmh 30.52 in1033.5 mb 0.00 in0.0 mm 0.00 in/hr0.0 mm/hr 0.00 in0.0 mm
04:37 PM 46.4°F8.0°C 34.1°F1.2°C 62% 8.3 mph SW13.4 kmh SW 28.2 mph45.4 kmh 30.53 in1033.9 mb 0.00 in0.0 mm 0.00 in/hr0.0 mm/hr 0.00 in0.0 mm
04:38 PM 46.4°F8.0°C 34.1°F1.2°C 62% 11.4 mph SW18.3 kmh SW 28.2 mph45.4 kmh 30.52 in1033.5 mb 0.00 in0.0 mm 0.00 in/hr0.0 mm/hr 0.00 in0.0 mm
04:39 PM 46.4°F8.0°C 34.5°F1.4°C 63% 17.4 mph SSW28.0 kmh SSW 28.2 mph45.4 kmh 30.52 in1033.5 mb 0.00 in0.0 mm 0.00 in/hr0.0 mm/hr 0.00 in0.0 mm
04:40 PM 46.4°F8.0°C 34.5°F1.4°C 63% 13.0 mph SW20.9 kmh SW 28.2 mph45.4 kmh 30.52 in1033.5 mb 0.00 in0.0 mm 0.00 in/hr0.0 mm/hr 0.00 in0.0 mm
04:41 PM 46.4°F8.0°C 34.5°F1.4°C 63% 17.4 mph SSW28.0 kmh SSW 28.2 mph45.4 kmh 30.52 in1033.5 mb 0.00 in0.0 mm 0.00 in/hr0.0 mm/hr 0.00 in0.0 mm
04:42 PM 46.4°F8.0°C 34.5°F1.4°C 63% 13.0 mph SSW20.9 kmh SSW 28.2 mph45.4 kmh 30.51 in1033.2 mb 0.00 in0.0 mm 0.00 in/hr0.0 mm/hr 0.00 in0.0 mm
04:43 PM 46.4°F8.0°C 34.9°F1.6°C 64% 8.3 mph SSW13.4 kmh SSW 28.2 mph45.4 kmh 30.52 in1033.5 mb 0.00 in0.0 mm 0.00 in/hr0.0 mm/hr 0.00 in0.0 mm
04:44 PM 46.2°F7.9°C 34.7°F1.5°C 64% 9.8 mph S15.8 kmh S 28.2 mph45.4 kmh 30.52 in1033.5 mb 0.00 in0.0 mm 0.00 in/hr0.0 mm/hr 0.00 in0.0 mm
04:45 PM 46.2°F7.9°C 34.7°F1.5°C 64% 8.3 mph S13.4 kmh S 28.2 mph45.4 kmh 30.52 in1033.5 mb 0.00 in0.0 mm 0.00 in/hr0.0 mm/hr 0.00 in0.0 mm
04:46 PM 46.2°F7.9°C 34.7°F1.5°C 64% 13.0 mph SSW20.9 kmh SSW 28.2 mph45.4 kmh 30.52 in1033.5 mb 0.00 in0.0 mm 0.00 in/hr0.0 mm/hr 0.00 in0.0 mm
04:47 PM 46.2°F7.9°C 34.7°F1.5°C 64% 8.3 mph SSW13.4 kmh SSW 28.2 mph45.4 kmh 30.52 in1033.5 mb 0.00 in0.0 mm 0.00 in/hr0.0 mm/hr 0.00 in0.0 mm
04:48 PM 46.2°F7.9°C 34.7°F1.5°C 64% 9.8 mph SSW15.8 kmh SSW 28.2 mph45.4 kmh 30.51 in1033.2 mb 0.00 in0.0 mm 0.00 in/hr0.0 mm/hr 0.00 in0.0 mm
04:49 PM 46.2°F7.9°C 34.7°F1.5°C 64% 14.5 mph SSW23.3 kmh SSW 28.2 mph45.4 kmh 30.52 in1033.5 mb 0.00 in0.0 mm 0.00 in/hr0.0 mm/hr 0.00 in0.0 mm
04:50 PM 46.2°F7.9°C 34.7°F1.5°C 64% 11.4 mph S18.3 kmh S 25.9 mph41.7 kmh 30.52 in1033.5 mb 0.00 in0.0 mm 0.00 in/hr0.0 mm/hr 0.00 in0.0 mm
04:51 PM 46.2°F7.9°C 34.7°F1.5°C 64% 9.8 mph S15.8 kmh S 25.9 mph41.7 kmh 30.52 in1033.5 mb 0.00 in0.0 mm 0.00 in/hr0.0 mm/hr 0.00 in0.0 mm
04:52 PM 46.2°F7.9°C 34.7°F1.5°C 64% 12.1 mph S19.5 kmh S 25.1 mph40.4 kmh 30.52 in1033.5 mb 0.00 in0.0 mm 0.00 in/hr0.0 mm/hr 0.00 in0.0 mm
04:53 PM 46.2°F7.9°C 34.7°F1.5°C 64% 6.9 mph SSW11.1 kmh SSW 25.1 mph40.4 kmh 30.52 in1033.5 mb 0.00 in0.0 mm 0.00 in/hr0.0 mm/hr 0.00 in0.0 mm
04:54 PM 46.2°F7.9°C 34.7°F1.5°C 64% 7.6 mph SSW12.2 kmh SSW 25.1 mph40.4 kmh 30.52 in1033.5 mb 0.00 in0.0 mm 0.00 in/hr0.0 mm/hr 0.00 in0.0 mm
04:55 PM 46.2°F7.9°C 34.7°F1.5°C 64% 6.0 mph SSW9.7 kmh SSW 25.1 mph40.4 kmh 30.52 in1033.5 mb 0.00 in0.0 mm 0.00 in/hr0.0 mm/hr 0.00 in0.0 mm
04:56 PM 46.2°F7.9°C 34.7°F1.5°C 64% 14.5 mph S23.3 kmh S 28.2 mph45.4 kmh 30.52 in1033.5 mb 0.00 in0.0 mm 0.00 in/hr0.0 mm/hr 0.00 in0.0 mm
04:57 PM 46.2°F7.9°C 34.3°F1.3°C 63% 15.9 mph S25.6 kmh S 28.2 mph45.4 kmh 30.52 in1033.5 mb 0.00 in0.0 mm 0.00 in/hr0.0 mm/hr 0.00 in0.0 mm
04:58 PM 46.4°F8.0°C 34.9°F1.6°C 64% 9.2 mph S14.8 kmh S 28.2 mph45.4 kmh 30.52 in1033.5 mb 0.00 in0.0 mm 0.00 in/hr0.0 mm/hr 0.00 in0.0 mm
04:59 PM 46.4°F8.0°C 34.9°F1.6°C 64% 7.6 mph S12.2 kmh S 28.2 mph45.4 kmh 30.53 in1033.9 mb 0.00 in0.0 mm 0.00 in/hr0.0 mm/hr 0.00 in0.0 mm
05:00 PM 46.4°F8.0°C 34.9°F1.6°C 64% 8.3 mph S13.4 kmh S 28.2 mph45.4 kmh 30.53 in1033.9 mb 0.00 in0.0 mm 0.00 in/hr0.0 mm/hr 0.00 in0.0 mm
05:01 PM 46.4°F8.0°C 34.9°F1.6°C 64% 10.7 mph S17.2 kmh S 28.2 mph45.4 kmh 30.53 in1033.9 mb 0.00 in0.0 mm 0.00 in/hr0.0 mm/hr 0.00 in0.0 mm
05:02 PM 46.4°F8.0°C 34.9°F1.6°C 64% 13.6 mph S21.9 kmh S 28.2 mph45.4 kmh 30.52 in1033.5 mb 0.00 in0.0 mm 0.00 in/hr0.0 mm/hr 0.00 in0.0 mm
05:03 PM 46.4°F8.0°C 34.5°F1.4°C 63% 13.6 mph S21.9 kmh S 28.2 mph45.4 kmh 30.52 in1033.5 mb 0.00 in0.0 mm 0.00 in/hr0.0 mm/hr 0.00 in0.0 mm
05:04 PM 46.4°F8.0°C 34.9°F1.6°C 64% 9.2 mph SSW14.8 kmh SSW 28.2 mph45.4 kmh 30.53 in1033.9 mb 0.00 in0.0 mm 0.00 in/hr0.0 mm/hr 0.00 in0.0 mm
05:05 PM 46.4°F8.0°C 34.9°F1.6°C 64% 11.4 mph S18.3 kmh S 28.2 mph45.4 kmh 30.53 in1033.9 mb 0.00 in0.0 mm 0.00 in/hr0.0 mm/hr 0.00 in0.0 mm
05:06 PM 46.4°F8.0°C 34.9°F1.6°C 64% 13.0 mph SSW20.9 kmh SSW 28.2 mph45.4 kmh 30.53 in1033.9 mb 0.00 in0.0 mm 0.00 in/hr0.0 mm/hr 0.00 in0.0 mm
05:07 PM 46.4°F8.0°C 34.9°F1.6°C 64% 9.2 mph SW14.8 kmh SW 25.1 mph40.4 kmh 30.53 in1033.9 mb 0.00 in0.0 mm 0.00 in/hr0.0 mm/hr 0.00 in0.0 mm
05:08 PM 46.4°F8.0°C 34.9°F1.6°C 64% 9.8 mph SW15.8 kmh SW 22.8 mph36.7 kmh 30.53 in1033.9 mb 0.00 in0.0 mm 0.00 in/hr0.0 mm/hr 0.00 in0.0 mm
05:09 PM 46.4°F8.0°C 34.9°F1.6°C 64% 7.6 mph SW12.2 kmh SW 22.8 mph36.7 kmh 30.52 in1033.5 mb 0.00 in0.0 mm 0.00 in/hr0.0 mm/hr 0.00 in0.0 mm
05:10 PM 46.2°F7.9°C 34.7°F1.5°C 64% 11.4 mph SW18.3 kmh SW 22.8 mph36.7 kmh 30.52 in1033.5 mb 0.00 in0.0 mm 0.00 in/hr0.0 mm/hr 0.00 in0.0 mm
05:11 PM 46.2°F7.9°C 34.7°F1.5°C 64% 9.2 mph SW14.8 kmh SW 22.8 mph36.7 kmh 30.52 in1033.5 mb 0.00 in0.0 mm 0.00 in/hr0.0 mm/hr 0.00 in0.0 mm
05:12 PM 46.2°F7.9°C 34.7°F1.5°C 64% 7.6 mph SW12.2 kmh SW 22.8 mph36.7 kmh 30.51 in1033.2 mb 0.00 in0.0 mm 0.00 in/hr0.0 mm/hr 0.00 in0.0 mm
05:13 PM 46.2°F7.9°C 34.7°F1.5°C 64% 11.4 mph SW18.3 kmh SW 22.8 mph36.7 kmh 30.52 in1033.5 mb 0.00 in0.0 mm 0.00 in/hr0.0 mm/hr 0.00 in0.0 mm
05:14 PM 46.2°F7.9°C 34.3°F1.3°C 63% 13.6 mph SW21.9 kmh SW 22.8 mph36.7 kmh 30.53 in1033.9 mb 0.00 in0.0 mm 0.00 in/hr0.0 mm/hr 0.00 in0.0 mm
05:15 PM 46.2°F7.9°C 34.7°F1.5°C 64% 13.6 mph SSW21.9 kmh SSW 22.8 mph36.7 kmh 30.53 in1033.9 mb 0.00 in0.0 mm 0.00 in/hr0.0 mm/hr 0.00 in0.0 mm
05:16 PM 46.2°F7.9°C 34.7°F1.5°C 64% 12.1 mph SSW19.5 kmh SSW 22.8 mph36.7 kmh 30.53 in1033.9 mb 0.00 in0.0 mm 0.00 in/hr0.0 mm/hr 0.00 in0.0 mm
05:17 PM 46.2°F7.9°C 34.7°F1.5°C 64% 7.6 mph SSW12.2 kmh SSW 22.8 mph36.7 kmh 30.53 in1033.9 mb 0.00 in0.0 mm 0.00 in/hr0.0 mm/hr 0.00 in0.0 mm
05:18 PM 46.2°F7.9°C 34.7°F1.5°C 64% 10.7 mph SSW17.2 kmh SSW 22.8 mph36.7 kmh 30.53 in1033.9 mb 0.00 in0.0 mm 0.00 in/hr0.0 mm/hr 0.00 in0.0 mm
05:19 PM 46.2°F7.9°C 34.7°F1.5°C 64% 9.2 mph SSW14.8 kmh SSW 22.8 mph36.7 kmh 30.53 in1033.9 mb 0.00 in0.0 mm 0.00 in/hr0.0 mm/hr 0.00 in0.0 mm
05:20 PM 46.0°F7.8°C 34.6°F1.4°C 64% 8.3 mph SSW13.4 kmh SSW 22.8 mph36.7 kmh 30.53 in1033.9 mb 0.00 in0.0 mm 0.00 in/hr0.0 mm/hr 0.00 in0.0 mm
05:21 PM 46.0°F7.8°C 34.6°F1.4°C 64% 9.8 mph SSW15.8 kmh SSW 22.1 mph35.6 kmh 30.53 in1033.9 mb 0.00 in0.0 mm 0.00 in/hr0.0 mm/hr 0.00 in0.0 mm
05:22 PM 46.0°F7.8°C 34.6°F1.4°C 64% 10.7 mph SW17.2 kmh SW 22.1 mph35.6 kmh 30.53 in1033.9 mb 0.00 in0.0 mm 0.00 in/hr0.0 mm/hr 0.00 in0.0 mm
05:23 PM 46.0°F7.8°C 34.6°F1.4°C 64% 11.4 mph SW18.3 kmh SW 25.1 mph40.4 kmh 30.53 in1033.9 mb 0.00 in0.0 mm 0.00 in/hr0.0 mm/hr 0.00 in0.0 mm
05:24 PM 46.0°F7.8°C 34.6°F1.4°C 64% 9.8 mph SW15.8 kmh SW 25.1 mph40.4 kmh 30.53 in1033.9 mb 0.00 in0.0 mm 0.00 in/hr0.0 mm/hr 0.00 in0.0 mm
05:25 PM 46.0°F7.8°C 34.6°F1.4°C 64% 8.3 mph SW13.4 kmh SW 25.1 mph40.4 kmh 30.53 in1033.9 mb 0.00 in0.0 mm 0.00 in/hr0.0 mm/hr 0.00 in0.0 mm
05:26 PM 46.0°F7.8°C 34.6°F1.4°C 64% 15.2 mph SW24.5 kmh SW 25.1 mph40.4 kmh 30.53 in1033.9 mb 0.00 in0.0 mm 0.00 in/hr0.0 mm/hr 0.00 in0.0 mm
05:27 PM 46.2°F7.9°C 34.7°F1.5°C 64% 14.5 mph SW23.3 kmh SW 25.1 mph40.4 kmh 30.53 in1033.9 mb 0.00 in0.0 mm 0.00 in/hr0.0 mm/hr 0.00 in0.0 mm
05:28 PM 46.2°F7.9°C 34.7°F1.5°C 64% 13.0 mph SW20.9 kmh SW 25.1 mph40.4 kmh 30.53 in1033.9 mb 0.00 in0.0 mm 0.00 in/hr0.0 mm/hr 0.00 in0.0 mm
05:29 PM 46.2°F7.9°C 34.7°F1.5°C 64% 10.7 mph SW17.2 kmh SW 25.1 mph40.4 kmh 30.53 in1033.9 mb 0.00 in0.0 mm 0.00 in/hr0.0 mm/hr 0.00 in0.0 mm
05:30 PM 46.2°F7.9°C 34.7°F1.5°C 64% 11.4 mph SW18.3 kmh SW 25.1 mph40.4 kmh 30.53 in1033.9 mb 0.00 in0.0 mm 0.00 in/hr0.0 mm/hr 0.00 in0.0 mm
05:31 PM 46.2°F7.9°C 34.7°F1.5°C 64% 11.4 mph SW18.3 kmh SW 25.1 mph40.4 kmh 30.53 in1033.9 mb 0.00 in0.0 mm 0.00 in/hr0.0 mm/hr 0.00 in0.0 mm
05:32 PM 46.2°F7.9°C 34.7°F1.5°C 64% 10.7 mph SW17.2 kmh SW 25.1 mph40.4 kmh 30.53 in1033.9 mb 0.00 in0.0 mm 0.00 in/hr0.0 mm/hr 0.00 in0.0 mm
05:33 PM 46.2°F7.9°C 34.7°F1.5°C 64% 10.7 mph SW17.2 kmh SW 25.1 mph40.4 kmh 30.53 in1033.9 mb 0.00 in0.0 mm 0.00 in/hr0.0 mm/hr 0.00 in0.0 mm
05:34 PM 46.2°F7.9°C 34.7°F1.5°C 64% 14.5 mph SW23.3 kmh SW 25.1 mph40.4 kmh 30.53 in1033.9 mb 0.00 in0.0 mm 0.00 in/hr0.0 mm/hr 0.00 in0.0 mm
05:35 PM 46.4°F8.0°C 34.5°F1.4°C 63% 16.8 mph SSW27.0 kmh SSW 25.1 mph40.4 kmh 30.53 in1033.9 mb 0.00 in0.0 mm 0.00 in/hr0.0 mm/hr 0.00 in0.0 mm
05:36 PM 46.4°F8.0°C 34.9°F1.6°C 64% 11.4 mph SSW18.3 kmh SSW 27.3 mph43.9 kmh 30.53 in1033.9 mb 0.00 in0.0 mm 0.00 in/hr0.0 mm/hr 0.00 in0.0 mm
05:37 PM 46.4°F8.0°C 34.5°F1.4°C 63% 14.5 mph SSW23.3 kmh SSW 27.3 mph43.9 kmh 30.53 in1033.9 mb 0.00 in0.0 mm 0.00 in/hr0.0 mm/hr 0.00 in0.0 mm
05:38 PM 46.4°F8.0°C 34.9°F1.6°C 64% 9.8 mph SSW15.8 kmh SSW 27.3 mph43.9 kmh 30.53 in1033.9 mb 0.00 in0.0 mm 0.00 in/hr0.0 mm/hr 0.00 in0.0 mm
05:39 PM 46.4°F8.0°C 34.9°F1.6°C 64% 9.2 mph SSW14.8 kmh SSW 27.3 mph43.9 kmh 30.53 in1033.9 mb 0.00 in0.0 mm 0.00 in/hr0.0 mm/hr 0.00 in0.0 mm
05:40 PM 46.4°F8.0°C 34.5°F1.4°C 63% 13.6 mph SSW21.9 kmh SSW 27.3 mph43.9 kmh 30.53 in1033.9 mb 0.00 in0.0 mm 0.00 in/hr0.0 mm/hr 0.00 in0.0 mm
05:41 PM 46.4°F8.0°C 34.5°F1.4°C 63% 11.4 mph SSW18.3 kmh SSW 27.3 mph43.9 kmh 30.53 in1033.9 mb 0.00 in0.0 mm 0.00 in/hr0.0 mm/hr 0.00 in0.0 mm
05:42 PM 46.4°F8.0°C 34.5°F1.4°C 63% 10.7 mph SSW17.2 kmh SSW 27.3 mph43.9 kmh 30.53 in1033.9 mb 0.00 in0.0 mm 0.00 in/hr0.0 mm/hr 0.00 in0.0 mm
05:43 PM 46.4°F8.0°C 34.9°F1.6°C 64% 9.2 mph SSW14.8 kmh SSW 27.3 mph43.9 kmh 30.53 in1033.9 mb 0.00 in0.0 mm 0.00 in/hr0.0 mm/hr 0.00 in0.0 mm
05:44 PM 46.4°F8.0°C 34.9°F1.6°C 64% 6.9 mph SSW11.1 kmh SSW 27.3 mph43.9 kmh 30.53 in1033.9 mb 0.00 in0.0 mm 0.00 in/hr0.0 mm/hr 0.00 in0.0 mm
05:45 PM 46.4°F8.0°C 34.9°F1.6°C 64% 10.7 mph SSW17.2 kmh SSW 27.3 mph43.9 kmh 30.53 in1033.9 mb 0.00 in0.0 mm 0.00 in/hr0.0 mm/hr 0.00 in0.0 mm
05:46 PM 46.4°F8.0°C 34.9°F1.6°C 64% 7.6 mph SSW12.2 kmh SSW 23.5 mph37.8 kmh 30.53 in1033.9 mb 0.00 in0.0 mm 0.00 in/hr0.0 mm/hr 0.00 in0.0 mm
05:47 PM 46.4°F8.0°C 34.9°F1.6°C 64% 11.4 mph SSW18.3 kmh SSW 23.5 mph37.8 kmh 30.53 in1033.9 mb 0.00 in0.0 mm 0.00 in/hr0.0 mm/hr 0.00 in0.0 mm
05:48 PM 46.4°F8.0°C 34.9°F1.6°C 64% 9.2 mph SSW14.8 kmh SSW 23.5 mph37.8 kmh 30.53 in1033.9 mb 0.00 in0.0 mm 0.00 in/hr0.0 mm/hr 0.00 in0.0 mm
05:49 PM 46.4°F8.0°C 34.9°F1.6°C 64% 8.3 mph SSW13.4 kmh SSW 23.5 mph37.8 kmh 30.53 in1033.9 mb 0.00 in0.0 mm 0.00 in/hr0.0 mm/hr 0.00 in0.0 mm
05:50 PM 46.4°F8.0°C 34.9°F1.6°C 64% 9.8 mph SSW15.8 kmh SSW 23.5 mph37.8 kmh 30.53 in1033.9 mb 0.00 in0.0 mm 0.00 in/hr0.0 mm/hr 0.00 in0.0 mm
05:51 PM 46.4°F8.0°C 34.9°F1.6°C 64% 7.6 mph SSW12.2 kmh SSW 23.5 mph37.8 kmh 30.53 in1033.9 mb 0.00 in0.0 mm 0.00 in/hr0.0 mm/hr 0.00 in0.0 mm
05:52 PM 46.4°F8.0°C 34.9°F1.6°C 64% 9.8 mph SSW15.8 kmh SSW 23.5 mph37.8 kmh 30.53 in1033.9 mb 0.00 in0.0 mm 0.00 in/hr0.0 mm/hr 0.00 in0.0 mm
05:53 PM 46.4°F8.0°C 34.9°F1.6°C 64% 10.7 mph SSW17.2 kmh SSW 23.5 mph37.8 kmh 30.53 in1033.9 mb 0.00 in0.0 mm 0.00 in/hr0.0 mm/hr 0.00 in0.0 mm
05:54 PM 46.2°F7.9°C 34.7°F1.5°C 64% 9.2 mph SSW14.8 kmh SSW 23.5 mph37.8 kmh 30.53 in1033.9 mb 0.00 in0.0 mm 0.00 in/hr0.0 mm/hr 0.00 in0.0 mm
05:55 PM 46.2°F7.9°C 34.7°F1.5°C 64% 6.0 mph SSW9.7 kmh SSW 23.5 mph37.8 kmh 30.53 in1033.9 mb 0.00 in0.0 mm 0.00 in/hr0.0 mm/hr 0.00 in0.0 mm
05:56 PM 46.2°F7.9°C 34.7°F1.5°C 64% 13.0 mph SSW20.9 kmh SSW 22.8 mph36.7 kmh 30.53 in1033.9 mb 0.00 in0.0 mm 0.00 in/hr0.0 mm/hr 0.00 in0.0 mm
05:57 PM 46.2°F7.9°C 34.7°F1.5°C 64% 11.4 mph SSW18.3 kmh SSW 22.8 mph36.7 kmh 30.53 in1033.9 mb 0.00 in0.0 mm 0.00 in/hr0.0 mm/hr 0.00 in0.0 mm
05:58 PM 46.0°F7.8°C 34.6°F1.4°C 64% 11.4 mph SSW18.3 kmh SSW 22.8 mph36.7 kmh 30.53 in1033.9 mb 0.00 in0.0 mm 0.00 in/hr0.0 mm/hr 0.00 in0.0 mm
05:59 PM 46.0°F7.8°C 34.6°F1.4°C 64% 12.1 mph SSW19.5 kmh SSW 22.8 mph36.7 kmh 30.53 in1033.9 mb 0.00 in0.0 mm 0.00 in/hr0.0 mm/hr 0.00 in0.0 mm
06:00 PM 46.0°F7.8°C 34.6°F1.4°C 64% 13.0 mph SSW20.9 kmh SSW 21.3 mph34.3 kmh 30.53 in1033.9 mb 0.00 in0.0 mm 0.00 in/hr0.0 mm/hr 0.00 in0.0 mm
06:01 PM 46.2°F7.9°C 34.7°F1.5°C 64% 8.3 mph SSW13.4 kmh SSW 21.3 mph34.3 kmh 30.53 in1033.9 mb 0.00 in0.0 mm 0.00 in/hr0.0 mm/hr 0.00 in0.0 mm
06:02 PM 46.2°F7.9°C 34.7°F1.5°C 64% 6.9 mph SSW11.1 kmh SSW 21.3 mph34.3 kmh 30.53 in1033.9 mb 0.00 in0.0 mm 0.00 in/hr0.0 mm/hr 0.00 in0.0 mm
06:03 PM 46.2°F7.9°C 34.7°F1.5°C 64% 6.9 mph SSW11.1 kmh SSW 21.3 mph34.3 kmh 30.53 in1033.9 mb 0.00 in0.0 mm 0.00 in/hr0.0 mm/hr 0.00 in0.0 mm
06:04 PM 46.0°F7.8°C 34.6°F1.4°C 64% 8.3 mph SSW13.4 kmh SSW 21.3 mph34.3 kmh 30.54 in1034.2 mb 0.00 in0.0 mm 0.00 in/hr0.0 mm/hr 0.00 in0.0 mm
06:05 PM 46.0°F7.8°C 34.6°F1.4°C 64% 8.3 mph SSW13.4 kmh SSW 21.3 mph34.3 kmh 30.53 in1033.9 mb 0.00 in0.0 mm 0.00 in/hr0.0 mm/hr 0.00 in0.0 mm
06:06 PM 46.0°F7.8°C 34.6°F1.4°C 64% 9.8 mph SSW15.8 kmh SSW 21.3 mph34.3 kmh 30.53 in1033.9 mb 0.00 in0.0 mm 0.00 in/hr0.0 mm/hr 0.00 in0.0 mm
06:07 PM 46.0°F7.8°C 34.6°F1.4°C 64% 9.8 mph SSW15.8 kmh SSW 21.3 mph34.3 kmh 30.53 in1033.9 mb 0.00 in0.0 mm 0.00 in/hr0.0 mm/hr 0.00 in0.0 mm
06:08 PM 46.0°F7.8°C 34.9°F1.6°C 65% 8.3 mph SSW13.4 kmh SSW 21.3 mph34.3 kmh 30.53 in1033.9 mb 0.00 in0.0 mm 0.00 in/hr0.0 mm/hr 0.00 in0.0 mm
06:09 PM 46.0°F7.8°C 34.9°F1.6°C 65% 10.7 mph SSW17.2 kmh SSW 21.3 mph34.3 kmh 30.53 in1033.9 mb 0.00 in0.0 mm 0.00 in/hr0.0 mm/hr 0.00 in0.0 mm
06:10 PM 46.0°F7.8°C 34.9°F1.6°C 65% 9.8 mph SSW15.8 kmh SSW 19.7 mph31.7 kmh 30.53 in1033.9 mb 0.00 in0.0 mm 0.00 in/hr0.0 mm/hr 0.00 in0.0 mm
06:11 PM 46.0°F7.8°C 34.9°F1.6°C 65% 9.8 mph SSW15.8 kmh SSW 18.3 mph29.5 kmh 30.53 in1033.9 mb 0.00 in0.0 mm 0.00 in/hr0.0 mm/hr 0.00 in0.0 mm
06:12 PM 45.9°F7.7°C 34.8°F1.6°C 65% 11.4 mph SSW18.3 kmh SSW 19.0 mph30.6 kmh 30.54 in1034.2 mb 0.00 in0.0 mm 0.00 in/hr0.0 mm/hr 0.00 in0.0 mm
06:13 PM 45.9°F7.7°C 34.8°F1.6°C 65% 11.4 mph SSW18.3 kmh SSW 19.0 mph30.6 kmh 30.54 in1034.2 mb 0.00 in0.0 mm 0.00 in/hr0.0 mm/hr 0.00 in0.0 mm
06:14 PM 45.9°F7.7°C 34.8°F1.6°C 65% 13.0 mph SSW20.9 kmh SSW 20.6 mph33.2 kmh 30.54 in1034.2 mb 0.00 in0.0 mm 0.00 in/hr0.0 mm/hr 0.00 in0.0 mm
06:15 PM 45.9°F7.7°C 35.2°F1.8°C 66% 9.8 mph SSW15.8 kmh SSW 20.6 mph33.2 kmh 30.54 in1034.2 mb 0.00 in0.0 mm 0.00 in/hr0.0 mm/hr 0.00 in0.0 mm
06:16 PM 45.9°F7.7°C 35.2°F1.8°C 66% 9.8 mph SSW15.8 kmh SSW 20.6 mph33.2 kmh 30.54 in1034.2 mb 0.00 in0.0 mm 0.00 in/hr0.0 mm/hr 0.00 in0.0 mm
06:17 PM 45.7°F7.6°C 35.0°F1.7°C 66% 8.3 mph SSW13.4 kmh SSW 22.8 mph36.7 kmh 30.54 in1034.2 mb 0.00 in0.0 mm 0.00 in/hr0.0 mm/hr 0.00 in0.0 mm
06:18 PM 45.9°F7.7°C 35.2°F1.8°C 66% 12.1 mph SSW19.5 kmh SSW 22.8 mph36.7 kmh 30.54 in1034.2 mb 0.00 in0.0 mm 0.00 in/hr0.0 mm/hr 0.00 in0.0 mm
06:19 PM 45.9°F7.7°C 35.2°F1.8°C 66% 12.1 mph SSW19.5 kmh SSW 22.8 mph36.7 kmh 30.54 in1034.2 mb 0.00 in0.0 mm 0.00 in/hr0.0 mm/hr 0.00 in0.0 mm
06:20 PM 45.7°F7.6°C 35.0°F1.7°C 66% 5.4 mph SSW8.7 kmh SSW 22.8 mph36.7 kmh 30.54 in1034.2 mb 0.00 in0.0 mm 0.00 in/hr0.0 mm/hr 0.00 in0.0 mm
06:21 PM 45.7°F7.6°C 35.0°F1.7°C 66% 11.4 mph SSW18.3 kmh SSW 22.8 mph36.7 kmh 30.54 in1034.2 mb 0.00 in0.0 mm 0.00 in/hr0.0 mm/hr 0.00 in0.0 mm
06:22 PM 45.7°F7.6°C 35.0°F1.7°C 66% 10.7 mph SSW17.2 kmh SSW 22.8 mph36.7 kmh 30.54 in1034.2 mb 0.00 in0.0 mm 0.00 in/hr0.0 mm/hr 0.00 in0.0 mm
06:23 PM 45.7°F7.6°C 35.0°F1.7°C 66% 13.6 mph SSW21.9 kmh SSW 22.8 mph36.7 kmh 30.54 in1034.2 mb 0.00 in0.0 mm 0.00 in/hr0.0 mm/hr 0.00 in0.0 mm
06:24 PM 45.9°F7.7°C 35.2°F1.8°C 66% 11.4 mph SSW18.3 kmh SSW 22.8 mph36.7 kmh 30.54 in1034.2 mb 0.00 in0.0 mm 0.00 in/hr0.0 mm/hr 0.00 in0.0 mm
06:25 PM 45.7°F7.6°C 35.0°F1.7°C 66% 13.6 mph SSW21.9 kmh SSW 22.8 mph36.7 kmh 30.54 in1034.2 mb 0.00 in0.0 mm 0.00 in/hr0.0 mm/hr 0.00 in0.0 mm
06:26 PM 45.9°F7.7°C 35.2°F1.8°C 66% 19.7 mph SSW31.7 kmh SSW 27.3 mph43.9 kmh 30.54 in1034.2 mb 0.00 in0.0 mm 0.00 in/hr0.0 mm/hr 0.00 in0.0 mm
06:27 PM 45.9°F7.7°C 34.8°F1.6°C 65% 13.6 mph SSW21.9 kmh SSW 27.3 mph43.9 kmh 30.54 in1034.2 mb 0.00 in0.0 mm 0.00 in/hr0.0 mm/hr 0.00 in0.0 mm
06:28 PM 45.9°F7.7°C 34.8°F1.6°C 65% 15.9 mph SSW25.6 kmh SSW 27.3 mph43.9 kmh 30.54 in1034.2 mb 0.00 in0.0 mm 0.00 in/hr0.0 mm/hr 0.00 in0.0 mm
06:29 PM 45.9°F7.7°C 34.8°F1.6°C 65% 14.5 mph S23.3 kmh S 27.3 mph43.9 kmh 30.54 in1034.2 mb 0.00 in0.0 mm 0.00 in/hr0.0 mm/hr 0.00 in0.0 mm
06:30 PM 45.9°F7.7°C 34.8°F1.6°C 65% 8.3 mph SSW13.4 kmh SSW 27.3 mph43.9 kmh 30.54 in1034.2 mb 0.00 in0.0 mm 0.00 in/hr0.0 mm/hr 0.00 in0.0 mm
06:31 PM 45.9°F7.7°C 34.8°F1.6°C 65% 10.7 mph SSW17.2 kmh SSW 27.3 mph43.9 kmh 30.54 in1034.2 mb 0.00 in0.0 mm 0.00 in/hr0.0 mm/hr 0.00 in0.0 mm
06:32 PM 45.9°F7.7°C 34.8°F1.6°C 65% 13.0 mph SSW20.9 kmh SSW 27.3 mph43.9 kmh 30.54 in1034.2 mb 0.00 in0.0 mm 0.00 in/hr0.0 mm/hr 0.00 in0.0 mm
06:33 PM 45.7°F7.6°C 35.0°F1.7°C 66% 13.6 mph SW21.9 kmh SW 27.3 mph43.9 kmh 30.54 in1034.2 mb 0.00 in0.0 mm 0.00 in/hr0.0 mm/hr 0.00 in0.0 mm
06:34 PM 45.7°F7.6°C 35.0°F1.7°C 66% 10.7 mph SW17.2 kmh SW 27.3 mph43.9 kmh 30.54 in1034.2 mb 0.00 in0.0 mm 0.00 in/hr0.0 mm/hr 0.00 in0.0 mm
06:49 PM 45.9°F7.7°C 35.2°F1.8°C 66% 14.5 mph S23.3 kmh S 22.1 mph35.6 kmh 30.54 in1034.2 mb 0.00 in0.0 mm 0.00 in/hr0.0 mm/hr 0.00 in0.0 mm
06:50 PM 45.9°F7.7°C 35.2°F1.8°C 66% 13.0 mph S20.9 kmh S 22.1 mph35.6 kmh 30.54 in1034.2 mb 0.00 in0.0 mm 0.00 in/hr0.0 mm/hr 0.00 in0.0 mm
06:51 PM 45.7°F7.6°C 35.4°F1.9°C 67% 11.4 mph S18.3 kmh S 22.1 mph35.6 kmh 30.54 in1034.2 mb 0.00 in0.0 mm 0.00 in/hr0.0 mm/hr 0.00 in0.0 mm
06:52 PM 45.7°F7.6°C 35.4°F1.9°C 67% 12.1 mph S19.5 kmh S 22.1 mph35.6 kmh 30.54 in1034.2 mb 0.00 in0.0 mm 0.00 in/hr0.0 mm/hr 0.00 in0.0 mm
06:53 PM 45.5°F7.5°C 35.2°F1.8°C 67% 10.7 mph S17.2 kmh S 22.1 mph35.6 kmh 30.54 in1034.2 mb 0.00 in0.0 mm 0.00 in/hr0.0 mm/hr 0.00 in0.0 mm
06:54 PM 45.5°F7.5°C 35.6°F2.0°C 68% 14.5 mph S23.3 kmh S 22.1 mph35.6 kmh 30.53 in1033.9 mb 0.00 in0.0 mm 0.00 in/hr0.0 mm/hr 0.00 in0.0 mm
06:55 PM 45.5°F7.5°C 35.6°F2.0°C 68% 10.7 mph S17.2 kmh S 22.1 mph35.6 kmh 30.53 in1033.9 mb 0.00 in0.0 mm 0.00 in/hr0.0 mm/hr 0.00 in0.0 mm
06:56 PM 45.5°F7.5°C 35.6°F2.0°C 68% 9.8 mph S15.8 kmh S 22.1 mph35.6 kmh 30.53 in1033.9 mb 0.00 in0.0 mm 0.00 in/hr0.0 mm/hr 0.00 in0.0 mm
06:57 PM 45.3°F7.4°C 35.4°F1.9°C 68% 10.7 mph S17.2 kmh S 22.1 mph35.6 kmh 30.53 in1033.9 mb 0.00 in0.0 mm 0.00 in/hr0.0 mm/hr 0.00 in0.0 mm
06:58 PM 45.3°F7.4°C 35.4°F1.9°C 68% 11.4 mph S18.3 kmh S 22.1 mph35.6 kmh 30.53 in1033.9 mb 0.00 in0.0 mm 0.00 in/hr0.0 mm/hr 0.00 in0.0 mm
06:59 PM 45.3°F7.4°C 35.4°F1.9°C 68% 14.5 mph S23.3 kmh S 22.1 mph35.6 kmh 30.53 in1033.9 mb 0.00 in0.0 mm 0.00 in/hr0.0 mm/hr 0.00 in0.0 mm
07:00 PM 45.3°F7.4°C 35.8°F2.1°C 69% 13.6 mph S21.9 kmh S 23.5 mph37.8 kmh 30.53 in1033.9 mb 0.00 in0.0 mm 0.00 in/hr0.0 mm/hr 0.00 in0.0 mm
07:01 PM 45.3°F7.4°C 35.8°F2.1°C 69% 12.1 mph S19.5 kmh S 23.5 mph37.8 kmh 30.52 in1033.5 mb 0.00 in0.0 mm 0.00 in/hr0.0 mm/hr 0.00 in0.0 mm
07:02 PM 45.1°F7.3°C 35.6°F2.0°C 69% 9.8 mph S15.8 kmh S 23.5 mph37.8 kmh 30.53 in1033.9 mb 0.00 in0.0 mm 0.00 in/hr0.0 mm/hr 0.00 in0.0 mm
07:03 PM 45.3°F7.4°C 35.8°F2.1°C 69% 12.1 mph S19.5 kmh S 23.5 mph37.8 kmh 30.52 in1033.5 mb 0.00 in0.0 mm 0.00 in/hr0.0 mm/hr 0.00 in0.0 mm
07:04 PM 45.1°F7.3°C 35.6°F2.0°C 69% 12.1 mph S19.5 kmh S 23.5 mph37.8 kmh 30.53 in1033.9 mb 0.00 in0.0 mm 0.00 in/hr0.0 mm/hr 0.00 in0.0 mm
07:05 PM 45.1°F7.3°C 35.2°F1.8°C 68% 11.4 mph S18.3 kmh S 23.5 mph37.8 kmh 30.52 in1033.5 mb 0.00 in0.0 mm 0.00 in/hr0.0 mm/hr 0.00 in0.0 mm
07:06 PM 45.1°F7.3°C 35.2°F1.8°C 68% 13.6 mph S21.9 kmh S 23.5 mph37.8 kmh 30.52 in1033.5 mb 0.00 in0.0 mm 0.00 in/hr0.0 mm/hr 0.00 in0.0 mm
07:07 PM 45.1°F7.3°C 35.2°F1.8°C 68% 10.7 mph S17.2 kmh S 23.5 mph37.8 kmh 30.52 in1033.5 mb 0.00 in0.0 mm 0.00 in/hr0.0 mm/hr 0.00 in0.0 mm
07:08 PM 45.3°F7.4°C 35.4°F1.9°C 68% 13.0 mph S20.9 kmh S 23.5 mph37.8 kmh 30.52 in1033.5 mb 0.00 in0.0 mm 0.00 in/hr0.0 mm/hr 0.00 in0.0 mm
07:09 PM 45.3°F7.4°C 35.0°F1.7°C 67% 12.1 mph S19.5 kmh S 23.5 mph37.8 kmh 30.52 in1033.5 mb 0.00 in0.0 mm 0.00 in/hr0.0 mm/hr 0.00 in0.0 mm
07:10 PM 45.3°F7.4°C 35.0°F1.7°C 67% 9.2 mph S14.8 kmh S 23.5 mph37.8 kmh 30.52 in1033.5 mb 0.00 in0.0 mm 0.00 in/hr0.0 mm/hr 0.00 in0.0 mm
07:11 PM 45.3°F7.4°C 35.0°F1.7°C 67% 15.2 mph S24.5 kmh S 24.4 mph39.3 kmh 30.52 in1033.5 mb 0.00 in0.0 mm 0.00 in/hr0.0 mm/hr 0.00 in0.0 mm
07:12 PM 45.5°F7.5°C 35.2°F1.8°C 67% 13.0 mph S20.9 kmh S 24.4 mph39.3 kmh 30.52 in1033.5 mb 0.00 in0.0 mm 0.00 in/hr0.0 mm/hr 0.00 in0.0 mm
07:13 PM 45.5°F7.5°C 34.8°F1.6°C 66% 10.7 mph S17.2 kmh S 24.4 mph39.3 kmh 30.53 in1033.9 mb 0.00 in0.0 mm 0.00 in/hr0.0 mm/hr 0.00 in0.0 mm
07:14 PM 45.5°F7.5°C 34.8°F1.6°C 66% 13.6 mph S21.9 kmh S 24.4 mph39.3 kmh 30.52 in1033.5 mb 0.00 in0.0 mm 0.00 in/hr0.0 mm/hr 0.00 in0.0 mm
07:15 PM 45.7°F7.6°C 35.0°F1.7°C 66% 9.8 mph SSW15.8 kmh SSW 24.4 mph39.3 kmh 30.52 in1033.5 mb 0.00 in0.0 mm 0.00 in/hr0.0 mm/hr 0.00 in0.0 mm
07:16 PM 45.7°F7.6°C 35.0°F1.7°C 66% 13.6 mph SSW21.9 kmh SSW 24.4 mph39.3 kmh 30.52 in1033.5 mb 0.00 in0.0 mm 0.00 in/hr0.0 mm/hr 0.00 in0.0 mm
07:17 PM 45.7°F7.6°C 35.0°F1.7°C 66% 14.5 mph SSW23.3 kmh SSW 26.6 mph42.8 kmh 30.52 in1033.5 mb 0.00 in0.0 mm 0.00 in/hr0.0 mm/hr 0.00 in0.0 mm
07:18 PM 45.7°F7.6°C 35.0°F1.7°C 66% 13.0 mph SSW20.9 kmh SSW 26.6 mph42.8 kmh 30.52 in1033.5 mb 0.00 in0.0 mm 0.00 in/hr0.0 mm/hr 0.00 in0.0 mm
08:03 PM 45.5°F7.5°C 35.2°F1.8°C 67% 9.2 mph NW14.8 kmh NW 20.6 mph33.2 kmh 30.55 in1034.5 mb 0.00 in0.0 mm 0.00 in/hr0.0 mm/hr 0.00 in0.0 mm
08:04 PM 45.3°F7.4°C 35.0°F1.7°C 67% 9.8 mph SW15.8 kmh SW 25.1 mph40.4 kmh 30.54 in1034.2 mb 0.00 in0.0 mm 0.00 in/hr0.0 mm/hr 0.00 in0.0 mm
08:05 PM 45.3°F7.4°C 34.6°F1.4°C 66% 9.2 mph SW14.8 kmh SW 25.1 mph40.4 kmh 30.55 in1034.5 mb 0.00 in0.0 mm 0.00 in/hr0.0 mm/hr 0.00 in0.0 mm
08:06 PM 45.3°F7.4°C 34.6°F1.4°C 66% 13.0 mph SW20.9 kmh SW 25.1 mph40.4 kmh 30.55 in1034.5 mb 0.00 in0.0 mm 0.00 in/hr0.0 mm/hr 0.00 in0.0 mm
08:07 PM 45.3°F7.4°C 34.6°F1.4°C 66% 9.8 mph SW15.8 kmh SW 25.1 mph40.4 kmh 30.55 in1034.5 mb 0.00 in0.0 mm 0.00 in/hr0.0 mm/hr 0.00 in0.0 mm
08:08 PM 45.3°F7.4°C 34.6°F1.4°C 66% 13.0 mph SW20.9 kmh SW 25.1 mph40.4 kmh 30.55 in1034.5 mb 0.00 in0.0 mm 0.00 in/hr0.0 mm/hr 0.00 in0.0 mm
08:09 PM 45.5°F7.5°C 34.8°F1.6°C 66% 15.2 mph SW24.5 kmh SW 25.1 mph40.4 kmh 30.55 in1034.5 mb 0.00 in0.0 mm 0.00 in/hr0.0 mm/hr 0.00 in0.0 mm
08:10 PM 45.5°F7.5°C 34.8°F1.6°C 66% 13.0 mph SW20.9 kmh SW 25.1 mph40.4 kmh 30.55 in1034.5 mb 0.00 in0.0 mm 0.00 in/hr0.0 mm/hr 0.00 in0.0 mm
08:11 PM 45.5°F7.5°C 34.8°F1.6°C 66% 9.8 mph SW15.8 kmh SW 25.1 mph40.4 kmh 30.55 in1034.5 mb 0.00 in0.0 mm 0.00 in/hr0.0 mm/hr 0.00 in0.0 mm
08:12 PM 45.3°F7.4°C 34.6°F1.4°C 66% 14.5 mph SW23.3 kmh SW 25.1 mph40.4 kmh 30.55 in1034.5 mb 0.00 in0.0 mm 0.00 in/hr0.0 mm/hr 0.00 in0.0 mm
08:13 PM 45.3°F7.4°C 34.6°F1.4°C 66% 15.9 mph SW25.6 kmh SW 26.6 mph42.8 kmh 30.55 in1034.5 mb 0.00 in0.0 mm 0.00 in/hr0.0 mm/hr 0.00 in0.0 mm
08:14 PM 45.5°F7.5°C 34.8°F1.6°C 66% 13.0 mph SSW20.9 kmh SSW 26.6 mph42.8 kmh 30.55 in1034.5 mb 0.00 in0.0 mm 0.00 in/hr0.0 mm/hr 0.00 in0.0 mm
08:15 PM 45.5°F7.5°C 34.8°F1.6°C 66% 12.1 mph SSW19.5 kmh SSW 26.6 mph42.8 kmh 30.55 in1034.5 mb 0.00 in0.0 mm 0.00 in/hr0.0 mm/hr 0.00 in0.0 mm
08:16 PM 45.3°F7.4°C 34.3°F1.3°C 65% 9.8 mph SSW15.8 kmh SSW 26.6 mph42.8 kmh 30.55 in1034.5 mb 0.00 in0.0 mm 0.00 in/hr0.0 mm/hr 0.00 in0.0 mm
08:17 PM 45.3°F7.4°C 34.3°F1.3°C 65% 13.0 mph SSW20.9 kmh SSW 32.7 mph52.6 kmh 30.55 in1034.5 mb 0.00 in0.0 mm 0.00 in/hr0.0 mm/hr 0.00 in0.0 mm
08:18 PM 45.3°F7.4°C 34.3°F1.3°C 65% 11.4 mph SSW18.3 kmh SSW 32.7 mph52.6 kmh 30.55 in1034.5 mb 0.00 in0.0 mm 0.00 in/hr0.0 mm/hr 0.00 in0.0 mm
08:19 PM 45.5°F7.5°C 34.4°F1.3°C 65% 13.0 mph SSW20.9 kmh SSW 32.7 mph52.6 kmh 30.55 in1034.5 mb 0.00 in0.0 mm 0.00 in/hr0.0 mm/hr 0.00 in0.0 mm
08:20 PM 45.5°F7.5°C 34.4°F1.3°C 65% 14.5 mph SSW23.3 kmh SSW 32.7 mph52.6 kmh 30.55 in1034.5 mb 0.00 in0.0 mm 0.00 in/hr0.0 mm/hr 0.00 in0.0 mm
08:21 PM 45.5°F7.5°C 34.4°F1.3°C 65% 12.1 mph S19.5 kmh S 32.7 mph52.6 kmh 30.55 in1034.5 mb 0.00 in0.0 mm 0.00 in/hr0.0 mm/hr 0.00 in0.0 mm
08:22 PM 45.5°F7.5°C 34.4°F1.3°C 65% 6.9 mph S11.1 kmh S 32.7 mph52.6 kmh 30.55 in1034.5 mb 0.00 in0.0 mm 0.00 in/hr0.0 mm/hr 0.00 in0.0 mm
08:23 PM 45.3°F7.4°C 34.3°F1.3°C 65% 9.8 mph SSW15.8 kmh SSW 32.7 mph52.6 kmh 30.55 in1034.5 mb 0.00 in0.0 mm 0.00 in/hr0.0 mm/hr 0.00 in0.0 mm
08:24 PM 45.3°F7.4°C 34.3°F1.3°C 65% 8.3 mph SSW13.4 kmh SSW 32.7 mph52.6 kmh 30.55 in1034.5 mb 0.00 in0.0 mm 0.00 in/hr0.0 mm/hr 0.00 in0.0 mm
08:25 PM 45.3°F7.4°C 34.3°F1.3°C 65% 8.3 mph SSW13.4 kmh SSW 32.7 mph52.6 kmh 30.55 in1034.5 mb 0.00 in0.0 mm 0.00 in/hr0.0 mm/hr 0.00 in0.0 mm
08:26 PM 45.3°F7.4°C 34.3°F1.3°C 65% 11.4 mph S18.3 kmh S 32.7 mph52.6 kmh 30.55 in1034.5 mb 0.00 in0.0 mm 0.00 in/hr0.0 mm/hr 0.00 in0.0 mm
08:27 PM 45.3°F7.4°C 34.3°F1.3°C 65% 6.0 mph S9.7 kmh S 32.7 mph52.6 kmh 30.55 in1034.5 mb 0.00 in0.0 mm 0.00 in/hr0.0 mm/hr 0.00 in0.0 mm
08:28 PM 45.3°F7.4°C 34.3°F1.3°C 65% 8.3 mph SSW13.4 kmh SSW 23.5 mph37.8 kmh 30.55 in1034.5 mb 0.00 in0.0 mm 0.00 in/hr0.0 mm/hr 0.00 in0.0 mm
08:29 PM 45.3°F7.4°C 34.3°F1.3°C 65% 9.8 mph SSW15.8 kmh SSW 22.1 mph35.6 kmh 30.55 in1034.5 mb 0.00 in0.0 mm 0.00 in/hr0.0 mm/hr 0.00 in0.0 mm
08:30 PM 45.3°F7.4°C 34.3°F1.3°C 65% 8.3 mph SSW13.4 kmh SSW 21.3 mph34.3 kmh 30.56 in1034.9 mb 0.00 in0.0 mm 0.00 in/hr0.0 mm/hr 0.00 in0.0 mm
08:31 PM 45.3°F7.4°C 34.3°F1.3°C 65% 9.2 mph SW14.8 kmh SW 21.3 mph34.3 kmh 30.55 in1034.5 mb 0.00 in0.0 mm 0.00 in/hr0.0 mm/hr 0.00 in0.0 mm
08:32 PM 45.3°F7.4°C 33.9°F1.1°C 64% 13.0 mph SW20.9 kmh SW 21.3 mph34.3 kmh 30.56 in1034.9 mb 0.00 in0.0 mm 0.00 in/hr0.0 mm/hr 0.00 in0.0 mm
08:33 PM 45.3°F7.4°C 33.9°F1.1°C 64% 12.1 mph SW19.5 kmh SW 21.3 mph34.3 kmh 30.56 in1034.9 mb 0.00 in0.0 mm 0.00 in/hr0.0 mm/hr 0.00 in0.0 mm
08:34 PM 45.5°F7.5°C 34.0°F1.1°C 64% 9.8 mph SW15.8 kmh SW 21.3 mph34.3 kmh 30.56 in1034.9 mb 0.00 in0.0 mm 0.00 in/hr0.0 mm/hr 0.00 in0.0 mm
08:35 PM 45.5°F7.5°C 34.0°F1.1°C 64% 15.2 mph SW24.5 kmh SW 21.3 mph34.3 kmh 30.56 in1034.9 mb 0.00 in0.0 mm 0.00 in/hr0.0 mm/hr 0.00 in0.0 mm
08:36 PM 45.5°F7.5°C 34.0°F1.1°C 64% 6.0 mph SW9.7 kmh SW 21.3 mph34.3 kmh 30.56 in1034.9 mb 0.00 in0.0 mm 0.00 in/hr0.0 mm/hr 0.00 in0.0 mm
08:37 PM 45.3°F7.4°C 33.9°F1.1°C 64% 13.0 mph SW20.9 kmh SW 21.3 mph34.3 kmh 30.56 in1034.9 mb 0.00 in0.0 mm 0.00 in/hr0.0 mm/hr 0.00 in0.0 mm
08:38 PM 45.5°F7.5°C 33.6°F0.9°C 63% 10.7 mph SW17.2 kmh SW 21.3 mph34.3 kmh 30.56 in1034.9 mb 0.00 in0.0 mm 0.00 in/hr0.0 mm/hr 0.00 in0.0 mm
08:39 PM 45.5°F7.5°C 33.6°F0.9°C 63% 9.8 mph SW15.8 kmh SW 21.3 mph34.3 kmh 30.56 in1034.9 mb 0.00 in0.0 mm 0.00 in/hr0.0 mm/hr 0.00 in0.0 mm
08:40 PM 45.5°F7.5°C 34.0°F1.1°C 64% 10.7 mph SW17.2 kmh SW 26.6 mph42.8 kmh 30.57 in1035.2 mb 0.00 in0.0 mm 0.00 in/hr0.0 mm/hr 0.00 in0.0 mm
08:41 PM 45.5°F7.5°C 34.0°F1.1°C 64% 12.1 mph SW19.5 kmh SW 26.6 mph42.8 kmh 30.56 in1034.9 mb 0.00 in0.0 mm 0.00 in/hr0.0 mm/hr 0.00 in0.0 mm
08:42 PM 45.5°F7.5°C 34.0°F1.1°C 64% 12.1 mph SSW19.5 kmh SSW 26.6 mph42.8 kmh 30.57 in1035.2 mb 0.00 in0.0 mm 0.00 in/hr0.0 mm/hr 0.00 in0.0 mm
08:43 PM 45.5°F7.5°C 34.0°F1.1°C 64% 13.0 mph SSW20.9 kmh SSW 26.6 mph42.8 kmh 30.57 in1035.2 mb 0.00 in0.0 mm 0.00 in/hr0.0 mm/hr 0.00 in0.0 mm
08:44 PM 45.5°F7.5°C 34.0°F1.1°C 64% 10.7 mph S17.2 kmh S 26.6 mph42.8 kmh 30.56 in1034.9 mb 0.00 in0.0 mm 0.00 in/hr0.0 mm/hr 0.00 in0.0 mm
08:45 PM 45.5°F7.5°C 34.0°F1.1°C 64% 13.0 mph S20.9 kmh S 26.6 mph42.8 kmh 30.56 in1034.9 mb 0.00 in0.0 mm 0.00 in/hr0.0 mm/hr 0.00 in0.0 mm
08:46 PM 45.5°F7.5°C 34.0°F1.1°C 64% 12.1 mph S19.5 kmh S 26.6 mph42.8 kmh 30.57 in1035.2 mb 0.00 in0.0 mm 0.00 in/hr0.0 mm/hr 0.00 in0.0 mm
08:57 PM 45.3°F7.4°C 33.9°F1.1°C 64% 10.7 mph SSW17.2 kmh SSW 24.4 mph39.3 kmh 30.56 in1034.9 mb 0.00 in0.0 mm 0.00 in/hr0.0 mm/hr 0.00 in0.0 mm
08:58 PM 45.3°F7.4°C 33.9°F1.1°C 64% 9.2 mph SSW14.8 kmh SSW 24.4 mph39.3 kmh 30.56 in1034.9 mb 0.00 in0.0 mm 0.00 in/hr0.0 mm/hr 0.00 in0.0 mm
08:59 PM 45.3°F7.4°C 33.9°F1.1°C 64% 9.8 mph SSW15.8 kmh SSW 24.4 mph39.3 kmh 30.56 in1034.9 mb 0.00 in0.0 mm 0.00 in/hr0.0 mm/hr 0.00 in0.0 mm
09:00 PM 45.3°F7.4°C 34.3°F1.3°C 65% 9.8 mph SSW15.8 kmh SSW 24.4 mph39.3 kmh 30.56 in1034.9 mb 0.00 in0.0 mm 0.00 in/hr0.0 mm/hr 0.00 in0.0 mm
09:01 PM 45.3°F7.4°C 33.9°F1.1°C 64% 15.9 mph SSW25.6 kmh SSW 24.4 mph39.3 kmh 30.56 in1034.9 mb 0.00 in0.0 mm 0.00 in/hr0.0 mm/hr 0.00 in0.0 mm
09:02 PM 45.3°F7.4°C 34.3°F1.3°C 65% 9.8 mph SSW15.8 kmh SSW 24.4 mph39.3 kmh 30.56 in1034.9 mb 0.00 in0.0 mm 0.00 in/hr0.0 mm/hr 0.00 in0.0 mm
09:03 PM 45.3°F7.4°C 34.3°F1.3°C 65% 13.0 mph SW20.9 kmh SW 24.4 mph39.3 kmh 30.56 in1034.9 mb 0.00 in0.0 mm 0.00 in/hr0.0 mm/hr 0.00 in0.0 mm
09:04 PM 45.3°F7.4°C 34.3°F1.3°C 65% 9.8 mph SW15.8 kmh SW 24.4 mph39.3 kmh 30.56 in1034.9 mb 0.00 in0.0 mm 0.00 in/hr0.0 mm/hr 0.00 in0.0 mm
09:05 PM 45.3°F7.4°C 34.3°F1.3°C 65% 8.3 mph SW13.4 kmh SW 22.8 mph36.7 kmh 30.56 in1034.9 mb 0.00 in0.0 mm 0.00 in/hr0.0 mm/hr 0.00 in0.0 mm
09:06 PM 45.1°F7.3°C 34.1°F1.2°C 65% 9.8 mph SW15.8 kmh SW 22.8 mph36.7 kmh 30.56 in1034.9 mb 0.00 in0.0 mm 0.00 in/hr0.0 mm/hr 0.00 in0.0 mm
09:07 PM 45.1°F7.3°C 34.1°F1.2°C 65% 11.4 mph SSW18.3 kmh SSW 22.8 mph36.7 kmh 30.56 in1034.9 mb 0.00 in0.0 mm 0.00 in/hr0.0 mm/hr 0.00 in0.0 mm
09:08 PM 45.3°F7.4°C 34.3°F1.3°C 65% 11.4 mph SSW18.3 kmh SSW 22.8 mph36.7 kmh 30.56 in1034.9 mb 0.00 in0.0 mm 0.00 in/hr0.0 mm/hr 0.00 in0.0 mm
09:09 PM 45.3°F7.4°C 34.3°F1.3°C 65% 8.3 mph S13.4 kmh S 22.8 mph36.7 kmh 30.56 in1034.9 mb 0.00 in0.0 mm 0.00 in/hr0.0 mm/hr 0.00 in0.0 mm
09:10 PM 45.3°F7.4°C 34.3°F1.3°C 65% 9.2 mph S14.8 kmh S 22.8 mph36.7 kmh 30.56 in1034.9 mb 0.00 in0.0 mm 0.00 in/hr0.0 mm/hr 0.00 in0.0 mm
09:11 PM 45.3°F7.4°C 34.3°F1.3°C 65% 11.4 mph SSW18.3 kmh SSW 22.8 mph36.7 kmh 30.56 in1034.9 mb 0.00 in0.0 mm 0.00 in/hr0.0 mm/hr 0.00 in0.0 mm
09:12 PM 45.1°F7.3°C 34.1°F1.2°C 65% 9.2 mph SSW14.8 kmh SSW 22.8 mph36.7 kmh 30.56 in1034.9 mb 0.00 in0.0 mm 0.00 in/hr0.0 mm/hr 0.00 in0.0 mm
09:13 PM 45.1°F7.3°C 34.1°F1.2°C 65% 8.3 mph S13.4 kmh S 22.8 mph36.7 kmh 30.56 in1034.9 mb 0.00 in0.0 mm 0.00 in/hr0.0 mm/hr 0.00 in0.0 mm
09:14 PM 45.1°F7.3°C 34.1°F1.2°C 65% 8.3 mph S13.4 kmh S 23.5 mph37.8 kmh 30.56 in1034.9 mb 0.00 in0.0 mm 0.00 in/hr0.0 mm/hr 0.00 in0.0 mm
09:15 PM 45.1°F7.3°C 34.1°F1.2°C 65% 9.2 mph S14.8 kmh S 23.5 mph37.8 kmh 30.56 in1034.9 mb 0.00 in0.0 mm 0.00 in/hr0.0 mm/hr 0.00 in0.0 mm
09:16 PM 45.3°F7.4°C 34.3°F1.3°C 65% 8.3 mph S13.4 kmh S 23.5 mph37.8 kmh 30.56 in1034.9 mb 0.00 in0.0 mm 0.00 in/hr0.0 mm/hr 0.00 in0.0 mm
09:17 PM 45.3°F7.4°C 34.3°F1.3°C 65% 11.4 mph S18.3 kmh S 23.5 mph37.8 kmh 30.56 in1034.9 mb 0.00 in0.0 mm 0.00 in/hr0.0 mm/hr 0.00 in0.0 mm
09:18 PM 45.3°F7.4°C 34.3°F1.3°C 65% 9.8 mph SSW15.8 kmh SSW 23.5 mph37.8 kmh 30.56 in1034.9 mb 0.00 in0.0 mm 0.00 in/hr0.0 mm/hr 0.00 in0.0 mm
09:19 PM 45.3°F7.4°C 34.3°F1.3°C 65% 12.1 mph SSW19.5 kmh SSW 23.5 mph37.8 kmh 30.56 in1034.9 mb 0.00 in0.0 mm 0.00 in/hr0.0 mm/hr 0.00 in0.0 mm
09:20 PM 45.1°F7.3°C 34.1°F1.2°C 65% 10.7 mph SSW17.2 kmh SSW 23.5 mph37.8 kmh 30.56 in1034.9 mb 0.00 in0.0 mm 0.00 in/hr0.0 mm/hr 0.00 in0.0 mm
09:21 PM 45.1°F7.3°C 34.1°F1.2°C 65% 6.0 mph SSW9.7 kmh SSW 23.5 mph37.8 kmh 30.56 in1034.9 mb 0.00 in0.0 mm 0.00 in/hr0.0 mm/hr 0.00 in0.0 mm
09:22 PM 45.1°F7.3°C 34.1°F1.2°C 65% 13.0 mph SSW20.9 kmh SSW 23.5 mph37.8 kmh 30.56 in1034.9 mb 0.00 in0.0 mm 0.00 in/hr0.0 mm/hr 0.00 in0.0 mm
09:23 PM 45.3°F7.4°C 34.3°F1.3°C 65% 11.4 mph SSW18.3 kmh SSW 23.5 mph37.8 kmh 30.56 in1034.9 mb 0.00 in0.0 mm 0.00 in/hr0.0 mm/hr 0.00 in0.0 mm
09:24 PM 45.3°F7.4°C 34.3°F1.3°C 65% 11.4 mph SSW18.3 kmh SSW 23.5 mph37.8 kmh 30.55 in1034.5 mb 0.00 in0.0 mm 0.00 in/hr0.0 mm/hr 0.00 in0.0 mm
09:25 PM 45.3°F7.4°C 33.9°F1.1°C 64% 13.0 mph S20.9 kmh S 27.3 mph43.9 kmh 30.56 in1034.9 mb 0.00 in0.0 mm 0.00 in/hr0.0 mm/hr 0.00 in0.0 mm
09:26 PM 45.3°F7.4°C 34.3°F1.3°C 65% 9.2 mph S14.8 kmh S 27.3 mph43.9 kmh 30.56 in1034.9 mb 0.00 in0.0 mm 0.00 in/hr0.0 mm/hr 0.00 in0.0 mm
09:27 PM 45.3°F7.4°C 34.3°F1.3°C 65% 8.3 mph SSW13.4 kmh SSW 27.3 mph43.9 kmh 30.56 in1034.9 mb 0.00 in0.0 mm 0.00 in/hr0.0 mm/hr 0.00 in0.0 mm
09:28 PM 45.3°F7.4°C 33.9°F1.1°C 64% 8.3 mph S13.4 kmh S 27.3 mph43.9 kmh 30.56 in1034.9 mb 0.00 in0.0 mm 0.00 in/hr0.0 mm/hr 0.00 in0.0 mm
09:29 PM 45.3°F7.4°C 33.9°F1.1°C 64% 6.0 mph S9.7 kmh S 27.3 mph43.9 kmh 30.56 in1034.9 mb 0.00 in0.0 mm 0.00 in/hr0.0 mm/hr 0.00 in0.0 mm
09:30 PM 45.3°F7.4°C 33.9°F1.1°C 64% 9.8 mph S15.8 kmh S 27.3 mph43.9 kmh 30.56 in1034.9 mb 0.00 in0.0 mm 0.00 in/hr0.0 mm/hr 0.00 in0.0 mm
09:31 PM 45.3°F7.4°C 33.9°F1.1°C 64% 6.0 mph S9.7 kmh S 27.3 mph43.9 kmh 30.56 in1034.9 mb 0.00 in0.0 mm 0.00 in/hr0.0 mm/hr 0.00 in0.0 mm
09:32 PM 45.3°F7.4°C 33.9°F1.1°C 64% 9.2 mph S14.8 kmh S 27.3 mph43.9 kmh 30.56 in1034.9 mb 0.00 in0.0 mm 0.00 in/hr0.0 mm/hr 0.00 in0.0 mm
09:33 PM 45.3°F7.4°C 33.9°F1.1°C 64% 7.6 mph S12.2 kmh S 27.3 mph43.9 kmh 30.56 in1034.9 mb 0.00 in0.0 mm 0.00 in/hr0.0 mm/hr 0.00 in0.0 mm
09:34 PM 45.3°F7.4°C 34.3°F1.3°C 65% 6.9 mph S11.1 kmh S 27.3 mph43.9 kmh 30.56 in1034.9 mb 0.00 in0.0 mm 0.00 in/hr0.0 mm/hr 0.00 in0.0 mm
09:35 PM 45.1°F7.3°C 34.1°F1.2°C 65% 6.9 mph S11.1 kmh S 27.3 mph43.9 kmh 30.56 in1034.9 mb 0.00 in0.0 mm 0.00 in/hr0.0 mm/hr 0.00 in0.0 mm
09:36 PM 45.1°F7.3°C 34.1°F1.2°C 65% 8.3 mph S13.4 kmh S 20.6 mph33.2 kmh 30.57 in1035.2 mb 0.00 in0.0 mm 0.00 in/hr0.0 mm/hr 0.00 in0.0 mm
09:37 PM 45.3°F7.4°C 34.3°F1.3°C 65% 11.4 mph S18.3 kmh S 20.6 mph33.2 kmh 30.56 in1034.9 mb 0.00 in0.0 mm 0.00 in/hr0.0 mm/hr 0.00 in0.0 mm
09:38 PM 45.3°F7.4°C 34.3°F1.3°C 65% 9.2 mph S14.8 kmh S 19.7 mph31.7 kmh 30.57 in1035.2 mb 0.00 in0.0 mm 0.00 in/hr0.0 mm/hr 0.00 in0.0 mm
09:39 PM 45.3°F7.4°C 34.3°F1.3°C 65% 7.6 mph S12.2 kmh S 19.7 mph31.7 kmh 30.56 in1034.9 mb 0.00 in0.0 mm 0.00 in/hr0.0 mm/hr 0.00 in0.0 mm
09:40 PM 45.3°F7.4°C 34.3°F1.3°C 65% 9.8 mph S15.8 kmh S 19.7 mph31.7 kmh 30.57 in1035.2 mb 0.00 in0.0 mm 0.00 in/hr0.0 mm/hr 0.00 in0.0 mm
09:41 PM 45.3°F7.4°C 34.3°F1.3°C 65% 5.4 mph SSW8.7 kmh SSW 19.7 mph31.7 kmh 30.57 in1035.2 mb 0.00 in0.0 mm 0.00 in/hr0.0 mm/hr 0.00 in0.0 mm
09:42 PM 45.3°F7.4°C 34.3°F1.3°C 65% 8.3 mph SW13.4 kmh SW 19.7 mph31.7 kmh 30.57 in1035.2 mb 0.00 in0.0 mm 0.00 in/hr0.0 mm/hr 0.00 in0.0 mm
09:43 PM 45.1°F7.3°C 34.1°F1.2°C 65% 9.8 mph SW15.8 kmh SW 19.7 mph31.7 kmh 30.58 in1035.6 mb 0.00 in0.0 mm 0.00 in/hr0.0 mm/hr 0.00 in0.0 mm
09:44 PM 45.1°F7.3°C 34.1°F1.2°C 65% 9.2 mph SW14.8 kmh SW 19.7 mph31.7 kmh 30.57 in1035.2 mb 0.00 in0.0 mm 0.00 in/hr0.0 mm/hr 0.00 in0.0 mm
09:45 PM 45.1°F7.3°C 34.1°F1.2°C 65% 9.2 mph SW14.8 kmh SW 18.3 mph29.5 kmh 30.57 in1035.2 mb 0.00 in0.0 mm 0.00 in/hr0.0 mm/hr 0.00 in0.0 mm
09:46 PM 45.1°F7.3°C 34.1°F1.2°C 65% 15.2 mph SW24.5 kmh SW 23.5 mph37.8 kmh 30.57 in1035.2 mb 0.00 in0.0 mm 0.00 in/hr0.0 mm/hr 0.00 in0.0 mm
09:47 PM 45.3°F7.4°C 34.3°F1.3°C 65% 7.6 mph SW12.2 kmh SW 23.5 mph37.8 kmh 30.58 in1035.6 mb 0.00 in0.0 mm 0.00 in/hr0.0 mm/hr 0.00 in0.0 mm
09:48 PM 45.3°F7.4°C 34.3°F1.3°C 65% 7.6 mph SW12.2 kmh SW 23.5 mph37.8 kmh 30.58 in1035.6 mb 0.00 in0.0 mm 0.00 in/hr0.0 mm/hr 0.00 in0.0 mm
09:49 PM 45.3°F7.4°C 34.3°F1.3°C 65% 6.9 mph SW11.1 kmh SW 23.5 mph37.8 kmh 30.58 in1035.6 mb 0.00 in0.0 mm 0.00 in/hr0.0 mm/hr 0.00 in0.0 mm
09:50 PM 45.3°F7.4°C 34.3°F1.3°C 65% 8.3 mph SW13.4 kmh SW 23.5 mph37.8 kmh 30.58 in1035.6 mb 0.00 in0.0 mm 0.00 in/hr0.0 mm/hr 0.00 in0.0 mm
09:51 PM 45.5°F7.5°C 34.0°F1.1°C 64% 9.2 mph SW14.8 kmh SW 23.5 mph37.8 kmh 30.59 in1035.9 mb 0.00 in0.0 mm 0.00 in/hr0.0 mm/hr 0.00 in0.0 mm
09:52 PM 45.5°F7.5°C 34.0°F1.1°C 64% 11.4 mph SSW18.3 kmh SSW 23.5 mph37.8 kmh 30.59 in1035.9 mb 0.00 in0.0 mm 0.00 in/hr0.0 mm/hr 0.00 in0.0 mm
09:53 PM 45.5°F7.5°C 34.0°F1.1°C 64% 11.4 mph SSW18.3 kmh SSW 23.5 mph37.8 kmh 30.59 in1035.9 mb 0.00 in0.0 mm 0.00 in/hr0.0 mm/hr 0.00 in0.0 mm
09:54 PM 45.5°F7.5°C 34.0°F1.1°C 64% 9.2 mph SW14.8 kmh SW 23.5 mph37.8 kmh 30.58 in1035.6 mb 0.00 in0.0 mm 0.00 in/hr0.0 mm/hr 0.00 in0.0 mm
09:55 PM 45.5°F7.5°C 34.0°F1.1°C 64% 9.2 mph SW14.8 kmh SW 23.5 mph37.8 kmh 30.59 in1035.9 mb 0.00 in0.0 mm 0.00 in/hr0.0 mm/hr 0.00 in0.0 mm
09:56 PM 45.5°F7.5°C 34.0°F1.1°C 64% 10.7 mph SW17.2 kmh SW 23.5 mph37.8 kmh 30.59 in1035.9 mb 0.00 in0.0 mm 0.00 in/hr0.0 mm/hr 0.00 in0.0 mm
09:57 PM 45.5°F7.5°C 34.0°F1.1°C 64% 11.4 mph SW18.3 kmh SW 19.0 mph30.6 kmh 30.59 in1035.9 mb 0.00 in0.0 mm 0.00 in/hr0.0 mm/hr 0.00 in0.0 mm
09:58 PM 45.5°F7.5°C 34.0°F1.1°C 64% 8.3 mph SSW13.4 kmh SSW 19.0 mph30.6 kmh 30.59 in1035.9 mb 0.00 in0.0 mm 0.00 in/hr0.0 mm/hr 0.00 in0.0 mm
09:59 PM 45.5°F7.5°C 34.0°F1.1°C 64% 13.6 mph S21.9 kmh S 21.3 mph34.3 kmh 30.59 in1035.9 mb 0.00 in0.0 mm 0.00 in/hr0.0 mm/hr 0.00 in0.0 mm
10:00 PM 45.5°F7.5°C 34.0°F1.1°C 64% 10.7 mph SSW17.2 kmh SSW 21.3 mph34.3 kmh 30.59 in1035.9 mb 0.00 in0.0 mm 0.00 in/hr0.0 mm/hr 0.00 in0.0 mm
10:01 PM 45.5°F7.5°C 34.0°F1.1°C 64% 11.4 mph S18.3 kmh S 21.3 mph34.3 kmh 30.59 in1035.9 mb 0.00 in0.0 mm 0.00 in/hr0.0 mm/hr 0.00 in0.0 mm
10:02 PM 45.5°F7.5°C 34.0°F1.1°C 64% 10.7 mph S17.2 kmh S 21.3 mph34.3 kmh 30.59 in1035.9 mb 0.00 in0.0 mm 0.00 in/hr0.0 mm/hr 0.00 in0.0 mm
10:03 PM 45.5°F7.5°C 34.0°F1.1°C 64% 13.0 mph S20.9 kmh S 21.3 mph34.3 kmh 30.59 in1035.9 mb 0.00 in0.0 mm 0.00 in/hr0.0 mm/hr 0.00 in0.0 mm
10:04 PM 45.5°F7.5°C 34.0°F1.1°C 64% 13.0 mph S20.9 kmh S 21.3 mph34.3 kmh 30.59 in1035.9 mb 0.00 in0.0 mm 0.00 in/hr0.0 mm/hr 0.00 in0.0 mm
10:05 PM 45.5°F7.5°C 34.0°F1.1°C 64% 12.1 mph S19.5 kmh S 21.3 mph34.3 kmh 30.59 in1035.9 mb 0.00 in0.0 mm 0.00 in/hr0.0 mm/hr 0.00 in0.0 mm
10:06 PM 45.5°F7.5°C 34.0°F1.1°C 64% 10.7 mph S17.2 kmh S 21.3 mph34.3 kmh 30.59 in1035.9 mb 0.00 in0.0 mm 0.00 in/hr0.0 mm/hr 0.00 in0.0 mm
10:07 PM 45.5°F7.5°C 34.0°F1.1°C 64% 9.2 mph S14.8 kmh S 21.3 mph34.3 kmh 30.59 in1035.9 mb 0.00 in0.0 mm 0.00 in/hr0.0 mm/hr 0.00 in0.0 mm
10:08 PM 45.3°F7.4°C 33.9°F1.1°C 64% 11.4 mph SSW18.3 kmh SSW 21.3 mph34.3 kmh 30.59 in1035.9 mb 0.00 in0.0 mm 0.00 in/hr0.0 mm/hr 0.00 in0.0 mm
10:09 PM 45.5°F7.5°C 34.4°F1.3°C 65% 11.4 mph SSW18.3 kmh SSW 21.3 mph34.3 kmh 30.60 in1036.2 mb 0.00 in0.0 mm 0.00 in/hr0.0 mm/hr 0.00 in0.0 mm
10:10 PM 45.5°F7.5°C 34.4°F1.3°C 65% 13.0 mph SSW20.9 kmh SSW 22.1 mph35.6 kmh 30.59 in1035.9 mb 0.00 in0.0 mm 0.00 in/hr0.0 mm/hr 0.00 in0.0 mm
10:11 PM 45.5°F7.5°C 34.4°F1.3°C 65% 9.8 mph SSW15.8 kmh SSW 22.1 mph35.6 kmh 30.59 in1035.9 mb 0.00 in0.0 mm 0.00 in/hr0.0 mm/hr 0.00 in0.0 mm
10:12 PM 45.5°F7.5°C 34.4°F1.3°C 65% 9.8 mph SSW15.8 kmh SSW 22.1 mph35.6 kmh 30.60 in1036.2 mb 0.00 in0.0 mm 0.00 in/hr0.0 mm/hr 0.00 in0.0 mm
10:13 PM 45.3°F7.4°C 34.3°F1.3°C 65% 9.8 mph SSW15.8 kmh SSW 22.1 mph35.6 kmh 30.60 in1036.2 mb 0.00 in0.0 mm 0.00 in/hr0.0 mm/hr 0.00 in0.0 mm
10:14 PM 45.3°F7.4°C 34.3°F1.3°C 65% 9.2 mph SSW14.8 kmh SSW 22.1 mph35.6 kmh 30.60 in1036.2 mb 0.00 in0.0 mm 0.00 in/hr0.0 mm/hr 0.00 in0.0 mm
10:15 PM 45.3°F7.4°C 34.3°F1.3°C 65% 9.2 mph SSW14.8 kmh SSW 22.1 mph35.6 kmh 30.60 in1036.2 mb 0.00 in0.0 mm 0.00 in/hr0.0 mm/hr 0.00 in0.0 mm
10:16 PM 45.3°F7.4°C 34.3°F1.3°C 65% 9.2 mph SSW14.8 kmh SSW 22.1 mph35.6 kmh 30.61 in1036.6 mb 0.00 in0.0 mm 0.00 in/hr0.0 mm/hr 0.00 in0.0 mm
10:17 PM 45.1°F7.3°C 34.5°F1.4°C 66% 6.0 mph SSW9.7 kmh SSW 22.1 mph35.6 kmh 30.60 in1036.2 mb 0.00 in0.0 mm 0.00 in/hr0.0 mm/hr 0.00 in0.0 mm
10:18 PM 45.1°F7.3°C 34.5°F1.4°C 66% 6.9 mph SSW11.1 kmh SSW 22.1 mph35.6 kmh 30.61 in1036.6 mb 0.00 in0.0 mm 0.00 in/hr0.0 mm/hr 0.00 in0.0 mm
10:19 PM 45.1°F7.3°C 34.5°F1.4°C 66% 7.6 mph SSW12.2 kmh SSW 22.1 mph35.6 kmh 30.61 in1036.6 mb 0.00 in0.0 mm 0.00 in/hr0.0 mm/hr 0.00 in0.0 mm
10:20 PM 45.0°F7.2°C 34.3°F1.3°C 66% 6.9 mph SSW11.1 kmh SSW 22.1 mph35.6 kmh 30.60 in1036.2 mb 0.00 in0.0 mm 0.00 in/hr0.0 mm/hr 0.00 in0.0 mm
10:21 PM 45.0°F7.2°C 34.3°F1.3°C 66% 10.7 mph S17.2 kmh S 20.6 mph33.2 kmh 30.60 in1036.2 mb 0.00 in0.0 mm 0.00 in/hr0.0 mm/hr 0.00 in0.0 mm
10:25 PM 44.8°F7.1°C 34.5°F1.4°C 67% 9.2 mph SSW14.8 kmh SSW 19.7 mph31.7 kmh 30.60 in1036.2 mb 0.00 in0.0 mm 0.00 in/hr0.0 mm/hr 0.00 in0.0 mm
10:26 PM 44.8°F7.1°C 34.5°F1.4°C 67% 6.0 mph SSW9.7 kmh SSW 19.7 mph31.7 kmh 30.60 in1036.2 mb 0.00 in0.0 mm 0.00 in/hr0.0 mm/hr 0.00 in0.0 mm
10:27 PM 44.8°F7.1°C 34.5°F1.4°C 67% 9.2 mph SW14.8 kmh SW 17.4 mph28.0 kmh 30.60 in1036.2 mb 0.00 in0.0 mm 0.00 in/hr0.0 mm/hr 0.00 in0.0 mm
10:28 PM 44.8°F7.1°C 34.5°F1.4°C 67% 6.0 mph SW9.7 kmh SW 17.4 mph28.0 kmh 30.60 in1036.2 mb 0.00 in0.0 mm 0.00 in/hr0.0 mm/hr 0.00 in0.0 mm
10:29 PM 44.8°F7.1°C 34.5°F1.4°C 67% 7.6 mph SW12.2 kmh SW 21.3 mph34.3 kmh 30.59 in1035.9 mb 0.00 in0.0 mm 0.00 in/hr0.0 mm/hr 0.00 in0.0 mm
10:30 PM 44.8°F7.1°C 34.5°F1.4°C 67% 6.9 mph SW11.1 kmh SW 21.3 mph34.3 kmh 30.59 in1035.9 mb 0.00 in0.0 mm 0.00 in/hr0.0 mm/hr 0.00 in0.0 mm
10:31 PM 44.8°F7.1°C 34.1°F1.2°C 66% 6.9 mph SW11.1 kmh SW 21.3 mph34.3 kmh 30.59 in1035.9 mb 0.00 in0.0 mm 0.00 in/hr0.0 mm/hr 0.00 in0.0 mm
10:32 PM 45.0°F7.2°C 34.3°F1.3°C 66% 11.4 mph SSW18.3 kmh SSW 21.3 mph34.3 kmh 30.59 in1035.9 mb 0.00 in0.0 mm 0.00 in/hr0.0 mm/hr 0.00 in0.0 mm
10:33 PM 45.0°F7.2°C 34.3°F1.3°C 66% 8.3 mph SSW13.4 kmh SSW 21.3 mph34.3 kmh 30.60 in1036.2 mb 0.00 in0.0 mm 0.00 in/hr0.0 mm/hr 0.00 in0.0 mm
10:34 PM 45.0°F7.2°C 34.3°F1.3°C 66% 8.3 mph SSW13.4 kmh SSW 21.3 mph34.3 kmh 30.59 in1035.9 mb 0.00 in0.0 mm 0.00 in/hr0.0 mm/hr 0.00 in0.0 mm
10:35 PM 45.0°F7.2°C 34.3°F1.3°C 66% 6.9 mph SSW11.1 kmh SSW 21.3 mph34.3 kmh 30.59 in1035.9 mb 0.00 in0.0 mm 0.00 in/hr0.0 mm/hr 0.00 in0.0 mm
10:36 PM 45.1°F7.3°C 34.1°F1.2°C 65% 9.2 mph SSW14.8 kmh SSW 21.3 mph34.3 kmh 30.60 in1036.2 mb 0.00 in0.0 mm 0.00 in/hr0.0 mm/hr 0.00 in0.0 mm
10:37 PM 45.1°F7.3°C 34.1°F1.2°C 65% 10.7 mph SSW17.2 kmh SSW 21.3 mph34.3 kmh 30.59 in1035.9 mb 0.00 in0.0 mm 0.00 in/hr0.0 mm/hr 0.00 in0.0 mm
10:38 PM 45.1°F7.3°C 34.1°F1.2°C 65% 9.2 mph S14.8 kmh S 21.3 mph34.3 kmh 30.59 in1035.9 mb 0.00 in0.0 mm 0.00 in/hr0.0 mm/hr 0.00 in0.0 mm
10:39 PM 45.1°F7.3°C 34.1°F1.2°C 65% 7.6 mph S12.2 kmh S 21.3 mph34.3 kmh 30.59 in1035.9 mb 0.00 in0.0 mm 0.00 in/hr0.0 mm/hr 0.00 in0.0 mm
10:40 PM 45.1°F7.3°C 34.1°F1.2°C 65% 10.7 mph S17.2 kmh S 19.0 mph30.6 kmh 30.59 in1035.9 mb 0.00 in0.0 mm 0.00 in/hr0.0 mm/hr 0.00 in0.0 mm